<?xml version="1.0" encoding="UTF-8"?>
<gpx version="1.1" creator="https://www.youtrack.es" xsi:schemaLocation="http://www.topografix.com/GPX/1/1 http://www.topografix.com/GPX/1/1/gpx.xsd http://www.garmin.com/xmlschemas/GpxExtensions/v3 http://www.garmin.com/xmlschemas/GpxExtensionsv3.xsd http://www.garmin.com/xmlschemas/TrackPointExtension/v1 http://www.garmin.com/xmlschemas/TrackPointExtensionv1.xsd" xmlns:gpxtpx="http://www.garmin.com/xmlschemas/TrackPointExtension/v1" xmlns:gpxx="http://www.garmin.com/xmlschemas/GpxExtensions/v3" xmlns:xsi="http://www.w3.org/2001/XMLSchema-instance">
  <metadata>
    <link href="https://www.youtrack.es">
      <text>YouTrack.es</text>
    </link>
    <time>2026-05-08T02:59:40Z</time>
  </metadata>
  <trk>
    <src>https://www.youtrack.es</src>
    <link href="https://www.youtrack.es/ruta/10519-sejaes">
      <text>YouTrack.es</text>
    </link>
    <trkseg>
      <trkpt lat="40.7663730" lon="-8.1856990">
        <ele>395.0</ele>
        <time>2020-01-19T09:03:44Z</time>
      </trkpt>
      <trkpt lat="40.7663600" lon="-8.1857050">
        <ele>394.4</ele>
        <time>2020-01-19T09:03:45Z</time>
      </trkpt>
      <trkpt lat="40.7661990" lon="-8.1857900">
        <ele>395.4</ele>
        <time>2020-01-19T09:03:51Z</time>
      </trkpt>
      <trkpt lat="40.7660860" lon="-8.1858980">
        <ele>396.0</ele>
        <time>2020-01-19T09:03:56Z</time>
      </trkpt>
      <trkpt lat="40.7660350" lon="-8.1859830">
        <ele>396.2</ele>
        <time>2020-01-19T09:03:59Z</time>
      </trkpt>
      <trkpt lat="40.7660140" lon="-8.1860940">
        <ele>396.4</ele>
        <time>2020-01-19T09:04:02Z</time>
      </trkpt>
      <trkpt lat="40.7660020" lon="-8.1862080">
        <ele>396.0</ele>
        <time>2020-01-19T09:04:05Z</time>
      </trkpt>
      <trkpt lat="40.7660020" lon="-8.1862470">
        <ele>396.2</ele>
        <time>2020-01-19T09:04:06Z</time>
      </trkpt>
      <trkpt lat="40.7660040" lon="-8.1863220">
        <ele>396.2</ele>
        <time>2020-01-19T09:04:08Z</time>
      </trkpt>
      <trkpt lat="40.7660130" lon="-8.1863950">
        <ele>396.8</ele>
        <time>2020-01-19T09:04:10Z</time>
      </trkpt>
      <trkpt lat="40.7660260" lon="-8.1864670">
        <ele>397.2</ele>
        <time>2020-01-19T09:04:12Z</time>
      </trkpt>
      <trkpt lat="40.7660910" lon="-8.1866690">
        <ele>398.4</ele>
        <time>2020-01-19T09:04:18Z</time>
      </trkpt>
      <trkpt lat="40.7661180" lon="-8.1867670">
        <ele>398.6</ele>
        <time>2020-01-19T09:04:21Z</time>
      </trkpt>
      <trkpt lat="40.7661430" lon="-8.1868630">
        <ele>399.0</ele>
        <time>2020-01-19T09:04:24Z</time>
      </trkpt>
      <trkpt lat="40.7661680" lon="-8.1869620">
        <ele>399.4</ele>
        <time>2020-01-19T09:04:27Z</time>
      </trkpt>
      <trkpt lat="40.7661790" lon="-8.1871420">
        <ele>400.2</ele>
        <time>2020-01-19T09:04:32Z</time>
      </trkpt>
      <trkpt lat="40.7661730" lon="-8.1871760">
        <ele>400.4</ele>
        <time>2020-01-19T09:04:33Z</time>
      </trkpt>
      <trkpt lat="40.7661640" lon="-8.1872060">
        <ele>400.6</ele>
        <time>2020-01-19T09:04:34Z</time>
      </trkpt>
      <trkpt lat="40.7661510" lon="-8.1872350">
        <ele>400.6</ele>
        <time>2020-01-19T09:04:35Z</time>
      </trkpt>
      <trkpt lat="40.7660950" lon="-8.1873080">
        <ele>400.8</ele>
        <time>2020-01-19T09:04:38Z</time>
      </trkpt>
      <trkpt lat="40.7659930" lon="-8.1873280">
        <ele>401.4</ele>
        <time>2020-01-19T09:04:42Z</time>
      </trkpt>
      <trkpt lat="40.7659650" lon="-8.1873220">
        <ele>401.6</ele>
        <time>2020-01-19T09:04:43Z</time>
      </trkpt>
      <trkpt lat="40.7658820" lon="-8.1872850">
        <ele>402.0</ele>
        <time>2020-01-19T09:04:46Z</time>
      </trkpt>
      <trkpt lat="40.7658290" lon="-8.1872600">
        <ele>402.2</ele>
        <time>2020-01-19T09:04:48Z</time>
      </trkpt>
      <trkpt lat="40.7657730" lon="-8.1872350">
        <ele>402.8</ele>
        <time>2020-01-19T09:04:50Z</time>
      </trkpt>
      <trkpt lat="40.7657170" lon="-8.1872170">
        <ele>403.0</ele>
        <time>2020-01-19T09:04:52Z</time>
      </trkpt>
      <trkpt lat="40.7655880" lon="-8.1871820">
        <ele>403.8</ele>
        <time>2020-01-19T09:04:57Z</time>
      </trkpt>
      <trkpt lat="40.7655130" lon="-8.1871590">
        <ele>404.2</ele>
        <time>2020-01-19T09:05:00Z</time>
      </trkpt>
      <trkpt lat="40.7654380" lon="-8.1871320">
        <ele>404.8</ele>
        <time>2020-01-19T09:05:03Z</time>
      </trkpt>
      <trkpt lat="40.7654130" lon="-8.1871230">
        <ele>405.0</ele>
        <time>2020-01-19T09:05:04Z</time>
      </trkpt>
      <trkpt lat="40.7653890" lon="-8.1871140">
        <ele>405.2</ele>
        <time>2020-01-19T09:05:05Z</time>
      </trkpt>
      <trkpt lat="40.7652220" lon="-8.1870260">
        <ele>405.8</ele>
        <time>2020-01-19T09:05:12Z</time>
      </trkpt>
      <trkpt lat="40.7652010" lon="-8.1870090">
        <ele>406.0</ele>
        <time>2020-01-19T09:05:13Z</time>
      </trkpt>
      <trkpt lat="40.7650930" lon="-8.1868800">
        <ele>406.8</ele>
        <time>2020-01-19T09:05:19Z</time>
      </trkpt>
      <trkpt lat="40.7650780" lon="-8.1868560">
        <ele>407.2</ele>
        <time>2020-01-19T09:05:20Z</time>
      </trkpt>
      <trkpt lat="40.7649550" lon="-8.1867020">
        <ele>408.2</ele>
        <time>2020-01-19T09:05:27Z</time>
      </trkpt>
      <trkpt lat="40.7648660" lon="-8.1866360">
        <ele>408.8</ele>
        <time>2020-01-19T09:05:31Z</time>
      </trkpt>
      <trkpt lat="40.7647630" lon="-8.1866080">
        <ele>409.2</ele>
        <time>2020-01-19T09:05:35Z</time>
      </trkpt>
      <trkpt lat="40.7646040" lon="-8.1865660">
        <ele>410.4</ele>
        <time>2020-01-19T09:05:41Z</time>
      </trkpt>
      <trkpt lat="40.7644530" lon="-8.1865450">
        <ele>411.0</ele>
        <time>2020-01-19T09:05:47Z</time>
      </trkpt>
      <trkpt lat="40.7643720" lon="-8.1865230">
        <ele>411.4</ele>
        <time>2020-01-19T09:05:50Z</time>
      </trkpt>
      <trkpt lat="40.7642000" lon="-8.1865690">
        <ele>412.4</ele>
        <time>2020-01-19T09:05:57Z</time>
      </trkpt>
      <trkpt lat="40.7640400" lon="-8.1866850">
        <ele>413.4</ele>
        <time>2020-01-19T09:06:04Z</time>
      </trkpt>
      <trkpt lat="40.7639060" lon="-8.1868810">
        <ele>414.4</ele>
        <time>2020-01-19T09:06:11Z</time>
      </trkpt>
      <trkpt lat="40.7638940" lon="-8.1869150">
        <ele>414.6</ele>
        <time>2020-01-19T09:06:12Z</time>
      </trkpt>
      <trkpt lat="40.7638720" lon="-8.1870230">
        <ele>415.0</ele>
        <time>2020-01-19T09:06:15Z</time>
      </trkpt>
      <trkpt lat="40.7638660" lon="-8.1871760">
        <ele>415.6</ele>
        <time>2020-01-19T09:06:19Z</time>
      </trkpt>
      <trkpt lat="40.7638710" lon="-8.1872860">
        <ele>416.0</ele>
        <time>2020-01-19T09:06:22Z</time>
      </trkpt>
      <trkpt lat="40.7638760" lon="-8.1873550">
        <ele>416.2</ele>
        <time>2020-01-19T09:06:24Z</time>
      </trkpt>
      <trkpt lat="40.7638800" lon="-8.1874260">
        <ele>416.2</ele>
        <time>2020-01-19T09:06:26Z</time>
      </trkpt>
      <trkpt lat="40.7638830" lon="-8.1874980">
        <ele>416.2</ele>
        <time>2020-01-19T09:06:28Z</time>
      </trkpt>
      <trkpt lat="40.7638910" lon="-8.1876410">
        <ele>416.8</ele>
        <time>2020-01-19T09:06:32Z</time>
      </trkpt>
      <trkpt lat="40.7638810" lon="-8.1878770">
        <ele>417.6</ele>
        <time>2020-01-19T09:06:39Z</time>
      </trkpt>
      <trkpt lat="40.7638640" lon="-8.1879410">
        <ele>417.8</ele>
        <time>2020-01-19T09:06:41Z</time>
      </trkpt>
      <trkpt lat="40.7637330" lon="-8.1881360">
        <ele>418.8</ele>
        <time>2020-01-19T09:06:49Z</time>
      </trkpt>
      <trkpt lat="40.7635390" lon="-8.1882010">
        <ele>419.6</ele>
        <time>2020-01-19T09:06:57Z</time>
      </trkpt>
      <trkpt lat="40.7634860" lon="-8.1882040">
        <ele>420.0</ele>
        <time>2020-01-19T09:06:59Z</time>
      </trkpt>
      <trkpt lat="40.7632940" lon="-8.1882040">
        <ele>420.8</ele>
        <time>2020-01-19T09:07:06Z</time>
      </trkpt>
      <trkpt lat="40.7632670" lon="-8.1882070">
        <ele>421.0</ele>
        <time>2020-01-19T09:07:07Z</time>
      </trkpt>
      <trkpt lat="40.7630640" lon="-8.1882280">
        <ele>421.8</ele>
        <time>2020-01-19T09:07:14Z</time>
      </trkpt>
      <trkpt lat="40.7629490" lon="-8.1882690">
        <ele>422.0</ele>
        <time>2020-01-19T09:07:18Z</time>
      </trkpt>
      <trkpt lat="40.7629200" lon="-8.1882860">
        <ele>422.2</ele>
        <time>2020-01-19T09:07:19Z</time>
      </trkpt>
      <trkpt lat="40.7628920" lon="-8.1883050">
        <ele>422.0</ele>
        <time>2020-01-19T09:07:20Z</time>
      </trkpt>
      <trkpt lat="40.7628660" lon="-8.1883280">
        <ele>422.0</ele>
        <time>2020-01-19T09:07:21Z</time>
      </trkpt>
      <trkpt lat="40.7628420" lon="-8.1883540">
        <ele>422.0</ele>
        <time>2020-01-19T09:07:22Z</time>
      </trkpt>
      <trkpt lat="40.7627590" lon="-8.1884840">
        <ele>422.0</ele>
        <time>2020-01-19T09:07:26Z</time>
      </trkpt>
      <trkpt lat="40.7626970" lon="-8.1887430">
        <ele>421.4</ele>
        <time>2020-01-19T09:07:32Z</time>
      </trkpt>
      <trkpt lat="40.7627100" lon="-8.1889200">
        <ele>421.0</ele>
        <time>2020-01-19T09:07:36Z</time>
      </trkpt>
      <trkpt lat="40.7627550" lon="-8.1890830">
        <ele>420.0</ele>
        <time>2020-01-19T09:07:40Z</time>
      </trkpt>
      <trkpt lat="40.7628260" lon="-8.1893210">
        <ele>419.2</ele>
        <time>2020-01-19T09:07:46Z</time>
      </trkpt>
      <trkpt lat="40.7628360" lon="-8.1893590">
        <ele>419.0</ele>
        <time>2020-01-19T09:07:47Z</time>
      </trkpt>
      <trkpt lat="40.7628770" lon="-8.1895530">
        <ele>418.0</ele>
        <time>2020-01-19T09:07:52Z</time>
      </trkpt>
      <trkpt lat="40.7628800" lon="-8.1895970">
        <ele>417.8</ele>
        <time>2020-01-19T09:07:53Z</time>
      </trkpt>
      <trkpt lat="40.7628820" lon="-8.1896400">
        <ele>417.4</ele>
        <time>2020-01-19T09:07:54Z</time>
      </trkpt>
      <trkpt lat="40.7628660" lon="-8.1897670">
        <ele>416.6</ele>
        <time>2020-01-19T09:07:57Z</time>
      </trkpt>
      <trkpt lat="40.7628100" lon="-8.1900170">
        <ele>415.4</ele>
        <time>2020-01-19T09:08:03Z</time>
      </trkpt>
      <trkpt lat="40.7627450" lon="-8.1902600">
        <ele>414.4</ele>
        <time>2020-01-19T09:08:09Z</time>
      </trkpt>
      <trkpt lat="40.7627310" lon="-8.1903000">
        <ele>414.2</ele>
        <time>2020-01-19T09:08:10Z</time>
      </trkpt>
      <trkpt lat="40.7626790" lon="-8.1905020">
        <ele>413.2</ele>
        <time>2020-01-19T09:08:15Z</time>
      </trkpt>
      <trkpt lat="40.7626200" lon="-8.1907560">
        <ele>412.2</ele>
        <time>2020-01-19T09:08:21Z</time>
      </trkpt>
      <trkpt lat="40.7626140" lon="-8.1908000">
        <ele>412.0</ele>
        <time>2020-01-19T09:08:22Z</time>
      </trkpt>
      <trkpt lat="40.7626440" lon="-8.1910560">
        <ele>410.8</ele>
        <time>2020-01-19T09:08:28Z</time>
      </trkpt>
      <trkpt lat="40.7627700" lon="-8.1912180">
        <ele>410.0</ele>
        <time>2020-01-19T09:08:33Z</time>
      </trkpt>
      <trkpt lat="40.7628040" lon="-8.1912380">
        <ele>410.0</ele>
        <time>2020-01-19T09:08:34Z</time>
      </trkpt>
      <trkpt lat="40.7628370" lon="-8.1912570">
        <ele>409.8</ele>
        <time>2020-01-19T09:08:35Z</time>
      </trkpt>
      <trkpt lat="40.7630420" lon="-8.1913220">
        <ele>408.8</ele>
        <time>2020-01-19T09:08:41Z</time>
      </trkpt>
      <trkpt lat="40.7630770" lon="-8.1913330">
        <ele>408.6</ele>
        <time>2020-01-19T09:08:42Z</time>
      </trkpt>
      <trkpt lat="40.7632190" lon="-8.1914410">
        <ele>407.4</ele>
        <time>2020-01-19T09:08:47Z</time>
      </trkpt>
      <trkpt lat="40.7633370" lon="-8.1916430">
        <ele>406.6</ele>
        <time>2020-01-19T09:08:53Z</time>
      </trkpt>
      <trkpt lat="40.7633860" lon="-8.1917540">
        <ele>406.6</ele>
        <time>2020-01-19T09:08:56Z</time>
      </trkpt>
      <trkpt lat="40.7634150" lon="-8.1918290">
        <ele>406.2</ele>
        <time>2020-01-19T09:08:58Z</time>
      </trkpt>
      <trkpt lat="40.7635060" lon="-8.1920560">
        <ele>405.4</ele>
        <time>2020-01-19T09:09:04Z</time>
      </trkpt>
      <trkpt lat="40.7635550" lon="-8.1921630">
        <ele>405.2</ele>
        <time>2020-01-19T09:09:07Z</time>
      </trkpt>
      <trkpt lat="40.7635790" lon="-8.1922430">
        <ele>405.0</ele>
        <time>2020-01-19T09:09:09Z</time>
      </trkpt>
      <trkpt lat="40.7636200" lon="-8.1925060">
        <ele>404.2</ele>
        <time>2020-01-19T09:09:15Z</time>
      </trkpt>
      <trkpt lat="40.7636440" lon="-8.1927770">
        <ele>403.4</ele>
        <time>2020-01-19T09:09:21Z</time>
      </trkpt>
      <trkpt lat="40.7636460" lon="-8.1928240">
        <ele>403.0</ele>
        <time>2020-01-19T09:09:22Z</time>
      </trkpt>
      <trkpt lat="40.7637230" lon="-8.1930690">
        <ele>402.0</ele>
        <time>2020-01-19T09:09:28Z</time>
      </trkpt>
      <trkpt lat="40.7638530" lon="-8.1932840">
        <ele>401.0</ele>
        <time>2020-01-19T09:09:34Z</time>
      </trkpt>
      <trkpt lat="40.7638750" lon="-8.1933160">
        <ele>401.0</ele>
        <time>2020-01-19T09:09:35Z</time>
      </trkpt>
      <trkpt lat="40.7639870" lon="-8.1934790">
        <ele>399.8</ele>
        <time>2020-01-19T09:09:40Z</time>
      </trkpt>
      <trkpt lat="40.7640840" lon="-8.1936080">
        <ele>398.8</ele>
        <time>2020-01-19T09:09:44Z</time>
      </trkpt>
      <trkpt lat="40.7641070" lon="-8.1936430">
        <ele>398.6</ele>
        <time>2020-01-19T09:09:45Z</time>
      </trkpt>
      <trkpt lat="40.7642050" lon="-8.1938250">
        <ele>397.6</ele>
        <time>2020-01-19T09:09:50Z</time>
      </trkpt>
      <trkpt lat="40.7642330" lon="-8.1940320">
        <ele>396.6</ele>
        <time>2020-01-19T09:09:55Z</time>
      </trkpt>
      <trkpt lat="40.7641930" lon="-8.1942660">
        <ele>395.6</ele>
        <time>2020-01-19T09:10:00Z</time>
      </trkpt>
      <trkpt lat="40.7641100" lon="-8.1945180">
        <ele>394.6</ele>
        <time>2020-01-19T09:10:06Z</time>
      </trkpt>
      <trkpt lat="40.7641030" lon="-8.1945610">
        <ele>394.2</ele>
        <time>2020-01-19T09:10:07Z</time>
      </trkpt>
      <trkpt lat="40.7641410" lon="-8.1948290">
        <ele>393.6</ele>
        <time>2020-01-19T09:10:13Z</time>
      </trkpt>
      <trkpt lat="40.7641940" lon="-8.1949470">
        <ele>393.2</ele>
        <time>2020-01-19T09:10:16Z</time>
      </trkpt>
      <trkpt lat="40.7643110" lon="-8.1951570">
        <ele>392.6</ele>
        <time>2020-01-19T09:10:22Z</time>
      </trkpt>
      <trkpt lat="40.7643830" lon="-8.1952910">
        <ele>392.2</ele>
        <time>2020-01-19T09:10:26Z</time>
      </trkpt>
      <trkpt lat="40.7645020" lon="-8.1954970">
        <ele>391.6</ele>
        <time>2020-01-19T09:10:32Z</time>
      </trkpt>
      <trkpt lat="40.7645780" lon="-8.1956400">
        <ele>391.4</ele>
        <time>2020-01-19T09:10:36Z</time>
      </trkpt>
      <trkpt lat="40.7645960" lon="-8.1956760">
        <ele>391.4</ele>
        <time>2020-01-19T09:10:37Z</time>
      </trkpt>
      <trkpt lat="40.7646150" lon="-8.1957100">
        <ele>391.2</ele>
        <time>2020-01-19T09:10:38Z</time>
      </trkpt>
      <trkpt lat="40.7646330" lon="-8.1957450">
        <ele>391.0</ele>
        <time>2020-01-19T09:10:39Z</time>
      </trkpt>
      <trkpt lat="40.7647460" lon="-8.1959450">
        <ele>390.8</ele>
        <time>2020-01-19T09:10:45Z</time>
      </trkpt>
      <trkpt lat="40.7648780" lon="-8.1961300">
        <ele>390.2</ele>
        <time>2020-01-19T09:10:51Z</time>
      </trkpt>
      <trkpt lat="40.7649110" lon="-8.1962070">
        <ele>390.0</ele>
        <time>2020-01-19T09:10:53Z</time>
      </trkpt>
      <trkpt lat="40.7649240" lon="-8.1962460">
        <ele>390.0</ele>
        <time>2020-01-19T09:10:54Z</time>
      </trkpt>
      <trkpt lat="40.7649330" lon="-8.1962850">
        <ele>390.0</ele>
        <time>2020-01-19T09:10:55Z</time>
      </trkpt>
      <trkpt lat="40.7649350" lon="-8.1963270">
        <ele>389.8</ele>
        <time>2020-01-19T09:10:56Z</time>
      </trkpt>
      <trkpt lat="40.7648210" lon="-8.1965390">
        <ele>389.2</ele>
        <time>2020-01-19T09:11:02Z</time>
      </trkpt>
      <trkpt lat="40.7647590" lon="-8.1965640">
        <ele>389.0</ele>
        <time>2020-01-19T09:11:04Z</time>
      </trkpt>
      <trkpt lat="40.7646010" lon="-8.1964990">
        <ele>388.6</ele>
        <time>2020-01-19T09:11:09Z</time>
      </trkpt>
      <trkpt lat="40.7644500" lon="-8.1963210">
        <ele>388.4</ele>
        <time>2020-01-19T09:11:15Z</time>
      </trkpt>
      <trkpt lat="40.7643790" lon="-8.1962380">
        <ele>388.4</ele>
        <time>2020-01-19T09:11:18Z</time>
      </trkpt>
      <trkpt lat="40.7642370" lon="-8.1960740">
        <ele>388.6</ele>
        <time>2020-01-19T09:11:24Z</time>
      </trkpt>
      <trkpt lat="40.7641100" lon="-8.1959510">
        <ele>389.0</ele>
        <time>2020-01-19T09:11:29Z</time>
      </trkpt>
      <trkpt lat="40.7640820" lon="-8.1959270">
        <ele>389.0</ele>
        <time>2020-01-19T09:11:30Z</time>
      </trkpt>
      <trkpt lat="40.7639380" lon="-8.1958180">
        <ele>389.2</ele>
        <time>2020-01-19T09:11:35Z</time>
      </trkpt>
      <trkpt lat="40.7638220" lon="-8.1957250">
        <ele>389.6</ele>
        <time>2020-01-19T09:11:39Z</time>
      </trkpt>
      <trkpt lat="40.7637670" lon="-8.1956820">
        <ele>389.8</ele>
        <time>2020-01-19T09:11:41Z</time>
      </trkpt>
      <trkpt lat="40.7637380" lon="-8.1956610">
        <ele>390.0</ele>
        <time>2020-01-19T09:11:42Z</time>
      </trkpt>
      <trkpt lat="40.7635710" lon="-8.1955490">
        <ele>390.6</ele>
        <time>2020-01-19T09:11:48Z</time>
      </trkpt>
      <trkpt lat="40.7634370" lon="-8.1954640">
        <ele>391.2</ele>
        <time>2020-01-19T09:11:53Z</time>
      </trkpt>
      <trkpt lat="40.7632670" lon="-8.1953660">
        <ele>391.8</ele>
        <time>2020-01-19T09:11:59Z</time>
      </trkpt>
      <trkpt lat="40.7631540" lon="-8.1952920">
        <ele>392.2</ele>
        <time>2020-01-19T09:12:03Z</time>
      </trkpt>
      <trkpt lat="40.7629680" lon="-8.1951730">
        <ele>392.6</ele>
        <time>2020-01-19T09:12:10Z</time>
      </trkpt>
      <trkpt lat="40.7628040" lon="-8.1950810">
        <ele>393.4</ele>
        <time>2020-01-19T09:12:16Z</time>
      </trkpt>
      <trkpt lat="40.7626230" lon="-8.1949520">
        <ele>394.4</ele>
        <time>2020-01-19T09:12:23Z</time>
      </trkpt>
      <trkpt lat="40.7624490" lon="-8.1948220">
        <ele>394.8</ele>
        <time>2020-01-19T09:12:29Z</time>
      </trkpt>
      <trkpt lat="40.7622470" lon="-8.1947190">
        <ele>394.6</ele>
        <time>2020-01-19T09:12:35Z</time>
      </trkpt>
      <trkpt lat="40.7620660" lon="-8.1946250">
        <ele>393.2</ele>
        <time>2020-01-19T09:12:40Z</time>
      </trkpt>
      <trkpt lat="40.7619280" lon="-8.1945560">
        <ele>392.0</ele>
        <time>2020-01-19T09:12:44Z</time>
      </trkpt>
      <trkpt lat="40.7618250" lon="-8.1945250">
        <ele>390.6</ele>
        <time>2020-01-19T09:12:47Z</time>
      </trkpt>
      <trkpt lat="40.7617390" lon="-8.1944550">
        <ele>389.6</ele>
        <time>2020-01-19T09:12:50Z</time>
      </trkpt>
      <trkpt lat="40.7616990" lon="-8.1943850">
        <ele>388.6</ele>
        <time>2020-01-19T09:12:52Z</time>
      </trkpt>
      <trkpt lat="40.7616600" lon="-8.1942630">
        <ele>387.6</ele>
        <time>2020-01-19T09:12:55Z</time>
      </trkpt>
      <trkpt lat="40.7616510" lon="-8.1940830">
        <ele>386.6</ele>
        <time>2020-01-19T09:12:59Z</time>
      </trkpt>
      <trkpt lat="40.7616640" lon="-8.1938430">
        <ele>385.8</ele>
        <time>2020-01-19T09:13:04Z</time>
      </trkpt>
      <trkpt lat="40.7616600" lon="-8.1937960">
        <ele>385.4</ele>
        <time>2020-01-19T09:13:05Z</time>
      </trkpt>
      <trkpt lat="40.7616330" lon="-8.1936580">
        <ele>384.8</ele>
        <time>2020-01-19T09:13:08Z</time>
      </trkpt>
      <trkpt lat="40.7615780" lon="-8.1935350">
        <ele>384.2</ele>
        <time>2020-01-19T09:13:11Z</time>
      </trkpt>
      <trkpt lat="40.7615060" lon="-8.1934330">
        <ele>383.6</ele>
        <time>2020-01-19T09:13:14Z</time>
      </trkpt>
      <trkpt lat="40.7614520" lon="-8.1933660">
        <ele>383.2</ele>
        <time>2020-01-19T09:13:16Z</time>
      </trkpt>
      <trkpt lat="40.7613700" lon="-8.1932770">
        <ele>382.2</ele>
        <time>2020-01-19T09:13:19Z</time>
      </trkpt>
      <trkpt lat="40.7613420" lon="-8.1932490">
        <ele>382.0</ele>
        <time>2020-01-19T09:13:20Z</time>
      </trkpt>
      <trkpt lat="40.7612590" lon="-8.1931600">
        <ele>381.0</ele>
        <time>2020-01-19T09:13:23Z</time>
      </trkpt>
      <trkpt lat="40.7611670" lon="-8.1930870">
        <ele>379.6</ele>
        <time>2020-01-19T09:13:26Z</time>
      </trkpt>
      <trkpt lat="40.7610280" lon="-8.1930190">
        <ele>378.2</ele>
        <time>2020-01-19T09:13:30Z</time>
      </trkpt>
      <trkpt lat="40.7608380" lon="-8.1929350">
        <ele>377.0</ele>
        <time>2020-01-19T09:13:35Z</time>
      </trkpt>
      <trkpt lat="40.7607650" lon="-8.1928990">
        <ele>375.8</ele>
        <time>2020-01-19T09:13:37Z</time>
      </trkpt>
      <trkpt lat="40.7606200" lon="-8.1928310">
        <ele>374.0</ele>
        <time>2020-01-19T09:13:41Z</time>
      </trkpt>
      <trkpt lat="40.7605500" lon="-8.1928020">
        <ele>373.2</ele>
        <time>2020-01-19T09:13:43Z</time>
      </trkpt>
      <trkpt lat="40.7605170" lon="-8.1927870">
        <ele>373.0</ele>
        <time>2020-01-19T09:13:44Z</time>
      </trkpt>
      <trkpt lat="40.7604170" lon="-8.1927350">
        <ele>371.6</ele>
        <time>2020-01-19T09:13:47Z</time>
      </trkpt>
      <trkpt lat="40.7603100" lon="-8.1926960">
        <ele>370.0</ele>
        <time>2020-01-19T09:13:50Z</time>
      </trkpt>
      <trkpt lat="40.7601870" lon="-8.1926910">
        <ele>368.8</ele>
        <time>2020-01-19T09:13:53Z</time>
      </trkpt>
      <trkpt lat="40.7601130" lon="-8.1927420">
        <ele>367.6</ele>
        <time>2020-01-19T09:13:55Z</time>
      </trkpt>
      <trkpt lat="40.7600300" lon="-8.1928770">
        <ele>366.2</ele>
        <time>2020-01-19T09:13:58Z</time>
      </trkpt>
      <trkpt lat="40.7599770" lon="-8.1930220">
        <ele>364.6</ele>
        <time>2020-01-19T09:14:01Z</time>
      </trkpt>
      <trkpt lat="40.7599570" lon="-8.1931220">
        <ele>363.6</ele>
        <time>2020-01-19T09:14:03Z</time>
      </trkpt>
      <trkpt lat="40.7599400" lon="-8.1932210">
        <ele>362.2</ele>
        <time>2020-01-19T09:14:05Z</time>
      </trkpt>
      <trkpt lat="40.7599220" lon="-8.1933160">
        <ele>361.4</ele>
        <time>2020-01-19T09:14:07Z</time>
      </trkpt>
      <trkpt lat="40.7599100" lon="-8.1933650">
        <ele>360.8</ele>
        <time>2020-01-19T09:14:08Z</time>
      </trkpt>
      <trkpt lat="40.7598620" lon="-8.1934940">
        <ele>359.2</ele>
        <time>2020-01-19T09:14:11Z</time>
      </trkpt>
      <trkpt lat="40.7598200" lon="-8.1935640">
        <ele>358.0</ele>
        <time>2020-01-19T09:14:13Z</time>
      </trkpt>
      <trkpt lat="40.7597930" lon="-8.1935960">
        <ele>357.6</ele>
        <time>2020-01-19T09:14:14Z</time>
      </trkpt>
      <trkpt lat="40.7597630" lon="-8.1936260">
        <ele>357.4</ele>
        <time>2020-01-19T09:14:15Z</time>
      </trkpt>
      <trkpt lat="40.7597300" lon="-8.1936490">
        <ele>356.8</ele>
        <time>2020-01-19T09:14:16Z</time>
      </trkpt>
      <trkpt lat="40.7596610" lon="-8.1936730">
        <ele>355.8</ele>
        <time>2020-01-19T09:14:18Z</time>
      </trkpt>
      <trkpt lat="40.7596240" lon="-8.1936790">
        <ele>355.4</ele>
        <time>2020-01-19T09:14:19Z</time>
      </trkpt>
      <trkpt lat="40.7595890" lon="-8.1936840">
        <ele>354.2</ele>
        <time>2020-01-19T09:14:20Z</time>
      </trkpt>
      <trkpt lat="40.7595540" lon="-8.1936870">
        <ele>353.4</ele>
        <time>2020-01-19T09:14:21Z</time>
      </trkpt>
      <trkpt lat="40.7595200" lon="-8.1936890">
        <ele>353.0</ele>
        <time>2020-01-19T09:14:22Z</time>
      </trkpt>
      <trkpt lat="40.7594870" lon="-8.1936900">
        <ele>352.2</ele>
        <time>2020-01-19T09:14:23Z</time>
      </trkpt>
      <trkpt lat="40.7594520" lon="-8.1936910">
        <ele>351.8</ele>
        <time>2020-01-19T09:14:24Z</time>
      </trkpt>
      <trkpt lat="40.7593820" lon="-8.1936890">
        <ele>351.2</ele>
        <time>2020-01-19T09:14:26Z</time>
      </trkpt>
      <trkpt lat="40.7593460" lon="-8.1936870">
        <ele>350.8</ele>
        <time>2020-01-19T09:14:27Z</time>
      </trkpt>
      <trkpt lat="40.7592720" lon="-8.1936830">
        <ele>349.4</ele>
        <time>2020-01-19T09:14:29Z</time>
      </trkpt>
      <trkpt lat="40.7591620" lon="-8.1936890">
        <ele>348.4</ele>
        <time>2020-01-19T09:14:32Z</time>
      </trkpt>
      <trkpt lat="40.7590500" lon="-8.1937120">
        <ele>347.4</ele>
        <time>2020-01-19T09:14:35Z</time>
      </trkpt>
      <trkpt lat="40.7589160" lon="-8.1937890">
        <ele>346.2</ele>
        <time>2020-01-19T09:14:39Z</time>
      </trkpt>
      <trkpt lat="40.7588210" lon="-8.1938530">
        <ele>344.8</ele>
        <time>2020-01-19T09:14:42Z</time>
      </trkpt>
      <trkpt lat="40.7587220" lon="-8.1939060">
        <ele>343.4</ele>
        <time>2020-01-19T09:14:45Z</time>
      </trkpt>
      <trkpt lat="40.7586220" lon="-8.1939390">
        <ele>342.2</ele>
        <time>2020-01-19T09:14:48Z</time>
      </trkpt>
      <trkpt lat="40.7584870" lon="-8.1939570">
        <ele>341.2</ele>
        <time>2020-01-19T09:14:52Z</time>
      </trkpt>
      <trkpt lat="40.7584150" lon="-8.1939550">
        <ele>339.8</ele>
        <time>2020-01-19T09:14:54Z</time>
      </trkpt>
      <trkpt lat="40.7583040" lon="-8.1939540">
        <ele>338.6</ele>
        <time>2020-01-19T09:14:57Z</time>
      </trkpt>
      <trkpt lat="40.7581980" lon="-8.1939680">
        <ele>337.4</ele>
        <time>2020-01-19T09:15:00Z</time>
      </trkpt>
      <trkpt lat="40.7581210" lon="-8.1939700">
        <ele>336.2</ele>
        <time>2020-01-19T09:15:02Z</time>
      </trkpt>
      <trkpt lat="40.7580470" lon="-8.1939760">
        <ele>335.2</ele>
        <time>2020-01-19T09:15:04Z</time>
      </trkpt>
      <trkpt lat="40.7579390" lon="-8.1939910">
        <ele>334.2</ele>
        <time>2020-01-19T09:15:07Z</time>
      </trkpt>
      <trkpt lat="40.7578340" lon="-8.1940120">
        <ele>332.6</ele>
        <time>2020-01-19T09:15:10Z</time>
      </trkpt>
      <trkpt lat="40.7577490" lon="-8.1940330">
        <ele>331.4</ele>
        <time>2020-01-19T09:15:13Z</time>
      </trkpt>
      <trkpt lat="40.7576910" lon="-8.1940450">
        <ele>330.0</ele>
        <time>2020-01-19T09:15:15Z</time>
      </trkpt>
      <trkpt lat="40.7575890" lon="-8.1940620">
        <ele>329.0</ele>
        <time>2020-01-19T09:15:18Z</time>
      </trkpt>
      <trkpt lat="40.7575080" lon="-8.1940550">
        <ele>328.0</ele>
        <time>2020-01-19T09:15:20Z</time>
      </trkpt>
      <trkpt lat="40.7573950" lon="-8.1940730">
        <ele>326.6</ele>
        <time>2020-01-19T09:15:23Z</time>
      </trkpt>
      <trkpt lat="40.7572800" lon="-8.1941010">
        <ele>325.6</ele>
        <time>2020-01-19T09:15:26Z</time>
      </trkpt>
      <trkpt lat="40.7571740" lon="-8.1941490">
        <ele>324.2</ele>
        <time>2020-01-19T09:15:29Z</time>
      </trkpt>
      <trkpt lat="40.7570200" lon="-8.1942730">
        <ele>323.2</ele>
        <time>2020-01-19T09:15:34Z</time>
      </trkpt>
      <trkpt lat="40.7569030" lon="-8.1943820">
        <ele>321.8</ele>
        <time>2020-01-19T09:15:38Z</time>
      </trkpt>
      <trkpt lat="40.7567840" lon="-8.1944920">
        <ele>320.8</ele>
        <time>2020-01-19T09:15:42Z</time>
      </trkpt>
      <trkpt lat="40.7567290" lon="-8.1945560">
        <ele>319.8</ele>
        <time>2020-01-19T09:15:44Z</time>
      </trkpt>
      <trkpt lat="40.7566310" lon="-8.1946970">
        <ele>318.6</ele>
        <time>2020-01-19T09:15:48Z</time>
      </trkpt>
      <trkpt lat="40.7565600" lon="-8.1948650">
        <ele>317.4</ele>
        <time>2020-01-19T09:15:52Z</time>
      </trkpt>
      <trkpt lat="40.7565440" lon="-8.1949130">
        <ele>317.0</ele>
        <time>2020-01-19T09:15:53Z</time>
      </trkpt>
      <trkpt lat="40.7565080" lon="-8.1950550">
        <ele>316.0</ele>
        <time>2020-01-19T09:15:56Z</time>
      </trkpt>
      <trkpt lat="40.7564760" lon="-8.1952510">
        <ele>314.8</ele>
        <time>2020-01-19T09:16:00Z</time>
      </trkpt>
      <trkpt lat="40.7564600" lon="-8.1954400">
        <ele>313.8</ele>
        <time>2020-01-19T09:16:04Z</time>
      </trkpt>
      <trkpt lat="40.7564320" lon="-8.1956340">
        <ele>312.6</ele>
        <time>2020-01-19T09:16:08Z</time>
      </trkpt>
      <trkpt lat="40.7564010" lon="-8.1958230">
        <ele>311.4</ele>
        <time>2020-01-19T09:16:12Z</time>
      </trkpt>
      <trkpt lat="40.7563800" lon="-8.1960590">
        <ele>310.0</ele>
        <time>2020-01-19T09:16:17Z</time>
      </trkpt>
      <trkpt lat="40.7564220" lon="-8.1962420">
        <ele>309.2</ele>
        <time>2020-01-19T09:16:21Z</time>
      </trkpt>
      <trkpt lat="40.7564420" lon="-8.1962820">
        <ele>308.8</ele>
        <time>2020-01-19T09:16:22Z</time>
      </trkpt>
      <trkpt lat="40.7565160" lon="-8.1963960">
        <ele>308.4</ele>
        <time>2020-01-19T09:16:25Z</time>
      </trkpt>
      <trkpt lat="40.7566370" lon="-8.1965120">
        <ele>307.8</ele>
        <time>2020-01-19T09:16:29Z</time>
      </trkpt>
      <trkpt lat="40.7567990" lon="-8.1966220">
        <ele>307.0</ele>
        <time>2020-01-19T09:16:34Z</time>
      </trkpt>
      <trkpt lat="40.7568640" lon="-8.1966630">
        <ele>306.8</ele>
        <time>2020-01-19T09:16:36Z</time>
      </trkpt>
      <trkpt lat="40.7570280" lon="-8.1967740">
        <ele>306.0</ele>
        <time>2020-01-19T09:16:41Z</time>
      </trkpt>
      <trkpt lat="40.7570940" lon="-8.1968180">
        <ele>305.6</ele>
        <time>2020-01-19T09:16:43Z</time>
      </trkpt>
      <trkpt lat="40.7572770" lon="-8.1969530">
        <ele>304.8</ele>
        <time>2020-01-19T09:16:49Z</time>
      </trkpt>
      <trkpt lat="40.7573060" lon="-8.1969760">
        <ele>304.6</ele>
        <time>2020-01-19T09:16:50Z</time>
      </trkpt>
      <trkpt lat="40.7574740" lon="-8.1971320">
        <ele>303.4</ele>
        <time>2020-01-19T09:16:56Z</time>
      </trkpt>
      <trkpt lat="40.7575810" lon="-8.1973250">
        <ele>302.6</ele>
        <time>2020-01-19T09:17:01Z</time>
      </trkpt>
      <trkpt lat="40.7575950" lon="-8.1973680">
        <ele>302.4</ele>
        <time>2020-01-19T09:17:02Z</time>
      </trkpt>
      <trkpt lat="40.7576440" lon="-8.1976000">
        <ele>301.2</ele>
        <time>2020-01-19T09:17:07Z</time>
      </trkpt>
      <trkpt lat="40.7576730" lon="-8.1978280">
        <ele>300.0</ele>
        <time>2020-01-19T09:17:12Z</time>
      </trkpt>
      <trkpt lat="40.7576810" lon="-8.1981060">
        <ele>299.2</ele>
        <time>2020-01-19T09:17:18Z</time>
      </trkpt>
      <trkpt lat="40.7576730" lon="-8.1981520">
        <ele>298.8</ele>
        <time>2020-01-19T09:17:19Z</time>
      </trkpt>
      <trkpt lat="40.7576150" lon="-8.1983770">
        <ele>297.8</ele>
        <time>2020-01-19T09:17:24Z</time>
      </trkpt>
      <trkpt lat="40.7575450" lon="-8.1985990">
        <ele>296.8</ele>
        <time>2020-01-19T09:17:29Z</time>
      </trkpt>
      <trkpt lat="40.7574990" lon="-8.1987340">
        <ele>296.4</ele>
        <time>2020-01-19T09:17:32Z</time>
      </trkpt>
      <trkpt lat="40.7574580" lon="-8.1988690">
        <ele>296.2</ele>
        <time>2020-01-19T09:17:35Z</time>
      </trkpt>
      <trkpt lat="40.7574280" lon="-8.1989530">
        <ele>295.8</ele>
        <time>2020-01-19T09:17:37Z</time>
      </trkpt>
      <trkpt lat="40.7573760" lon="-8.1990800">
        <ele>295.4</ele>
        <time>2020-01-19T09:17:40Z</time>
      </trkpt>
      <trkpt lat="40.7572880" lon="-8.1993340">
        <ele>294.6</ele>
        <time>2020-01-19T09:17:46Z</time>
      </trkpt>
      <trkpt lat="40.7572350" lon="-8.1994490">
        <ele>294.2</ele>
        <time>2020-01-19T09:17:49Z</time>
      </trkpt>
      <trkpt lat="40.7571740" lon="-8.1996160">
        <ele>293.6</ele>
        <time>2020-01-19T09:17:53Z</time>
      </trkpt>
      <trkpt lat="40.7570810" lon="-8.1998290">
        <ele>293.0</ele>
        <time>2020-01-19T09:17:58Z</time>
      </trkpt>
      <trkpt lat="40.7570500" lon="-8.1999070">
        <ele>292.4</ele>
        <time>2020-01-19T09:18:00Z</time>
      </trkpt>
      <trkpt lat="40.7569650" lon="-8.2001490">
        <ele>291.2</ele>
        <time>2020-01-19T09:18:06Z</time>
      </trkpt>
      <trkpt lat="40.7568690" lon="-8.2004010">
        <ele>290.6</ele>
        <time>2020-01-19T09:18:12Z</time>
      </trkpt>
      <trkpt lat="40.7568130" lon="-8.2005210">
        <ele>289.8</ele>
        <time>2020-01-19T09:18:15Z</time>
      </trkpt>
      <trkpt lat="40.7567400" lon="-8.2006330">
        <ele>289.0</ele>
        <time>2020-01-19T09:18:18Z</time>
      </trkpt>
      <trkpt lat="40.7567140" lon="-8.2006680">
        <ele>289.0</ele>
        <time>2020-01-19T09:18:19Z</time>
      </trkpt>
      <trkpt lat="40.7566630" lon="-8.2007330">
        <ele>288.6</ele>
        <time>2020-01-19T09:18:21Z</time>
      </trkpt>
      <trkpt lat="40.7565920" lon="-8.2008390">
        <ele>287.4</ele>
        <time>2020-01-19T09:18:24Z</time>
      </trkpt>
      <trkpt lat="40.7565680" lon="-8.2008740">
        <ele>287.2</ele>
        <time>2020-01-19T09:18:25Z</time>
      </trkpt>
      <trkpt lat="40.7565430" lon="-8.2009090">
        <ele>287.0</ele>
        <time>2020-01-19T09:18:26Z</time>
      </trkpt>
      <trkpt lat="40.7565180" lon="-8.2009430">
        <ele>286.2</ele>
        <time>2020-01-19T09:18:27Z</time>
      </trkpt>
      <trkpt lat="40.7564680" lon="-8.2010120">
        <ele>285.8</ele>
        <time>2020-01-19T09:18:29Z</time>
      </trkpt>
      <trkpt lat="40.7563620" lon="-8.2011340">
        <ele>285.0</ele>
        <time>2020-01-19T09:18:33Z</time>
      </trkpt>
      <trkpt lat="40.7562670" lon="-8.2011930">
        <ele>284.4</ele>
        <time>2020-01-19T09:18:36Z</time>
      </trkpt>
      <trkpt lat="40.7561960" lon="-8.2012190">
        <ele>283.8</ele>
        <time>2020-01-19T09:18:38Z</time>
      </trkpt>
      <trkpt lat="40.7560660" lon="-8.2012350">
        <ele>282.4</ele>
        <time>2020-01-19T09:18:42Z</time>
      </trkpt>
      <trkpt lat="40.7559960" lon="-8.2012060">
        <ele>281.4</ele>
        <time>2020-01-19T09:18:44Z</time>
      </trkpt>
      <trkpt lat="40.7559620" lon="-8.2011880">
        <ele>281.2</ele>
        <time>2020-01-19T09:18:45Z</time>
      </trkpt>
      <trkpt lat="40.7558530" lon="-8.2011140">
        <ele>280.6</ele>
        <time>2020-01-19T09:18:48Z</time>
      </trkpt>
      <trkpt lat="40.7558190" lon="-8.2010920">
        <ele>280.0</ele>
        <time>2020-01-19T09:18:49Z</time>
      </trkpt>
      <trkpt lat="40.7556740" lon="-8.2010490">
        <ele>278.8</ele>
        <time>2020-01-19T09:18:53Z</time>
      </trkpt>
      <trkpt lat="40.7555970" lon="-8.2010590">
        <ele>278.6</ele>
        <time>2020-01-19T09:18:55Z</time>
      </trkpt>
      <trkpt lat="40.7554670" lon="-8.2011500">
        <ele>277.8</ele>
        <time>2020-01-19T09:18:59Z</time>
      </trkpt>
      <trkpt lat="40.7553630" lon="-8.2013030">
        <ele>276.6</ele>
        <time>2020-01-19T09:19:03Z</time>
      </trkpt>
      <trkpt lat="40.7552740" lon="-8.2014670">
        <ele>275.4</ele>
        <time>2020-01-19T09:19:07Z</time>
      </trkpt>
      <trkpt lat="40.7551820" lon="-8.2016250">
        <ele>274.2</ele>
        <time>2020-01-19T09:19:11Z</time>
      </trkpt>
      <trkpt lat="40.7551000" lon="-8.2017950">
        <ele>273.2</ele>
        <time>2020-01-19T09:19:15Z</time>
      </trkpt>
      <trkpt lat="40.7550290" lon="-8.2019540">
        <ele>272.4</ele>
        <time>2020-01-19T09:19:19Z</time>
      </trkpt>
      <trkpt lat="40.7549780" lon="-8.2020750">
        <ele>272.0</ele>
        <time>2020-01-19T09:19:22Z</time>
      </trkpt>
      <trkpt lat="40.7548710" lon="-8.2023180">
        <ele>271.2</ele>
        <time>2020-01-19T09:19:28Z</time>
      </trkpt>
      <trkpt lat="40.7548260" lon="-8.2023850">
        <ele>270.8</ele>
        <time>2020-01-19T09:19:30Z</time>
      </trkpt>
      <trkpt lat="40.7546920" lon="-8.2025380">
        <ele>269.8</ele>
        <time>2020-01-19T09:19:35Z</time>
      </trkpt>
      <trkpt lat="40.7545200" lon="-8.2026800">
        <ele>269.0</ele>
        <time>2020-01-19T09:19:41Z</time>
      </trkpt>
      <trkpt lat="40.7544600" lon="-8.2027070">
        <ele>268.6</ele>
        <time>2020-01-19T09:19:43Z</time>
      </trkpt>
      <trkpt lat="40.7542570" lon="-8.2026900">
        <ele>267.8</ele>
        <time>2020-01-19T09:19:49Z</time>
      </trkpt>
      <trkpt lat="40.7541880" lon="-8.2026690">
        <ele>267.4</ele>
        <time>2020-01-19T09:19:51Z</time>
      </trkpt>
      <trkpt lat="40.7541200" lon="-8.2026460">
        <ele>267.2</ele>
        <time>2020-01-19T09:19:53Z</time>
      </trkpt>
      <trkpt lat="40.7539400" lon="-8.2025870">
        <ele>266.8</ele>
        <time>2020-01-19T09:19:58Z</time>
      </trkpt>
      <trkpt lat="40.7539050" lon="-8.2025770">
        <ele>266.4</ele>
        <time>2020-01-19T09:19:59Z</time>
      </trkpt>
      <trkpt lat="40.7537270" lon="-8.2025460">
        <ele>265.6</ele>
        <time>2020-01-19T09:20:04Z</time>
      </trkpt>
      <trkpt lat="40.7536580" lon="-8.2025560">
        <ele>265.2</ele>
        <time>2020-01-19T09:20:06Z</time>
      </trkpt>
      <trkpt lat="40.7534590" lon="-8.2026410">
        <ele>264.4</ele>
        <time>2020-01-19T09:20:12Z</time>
      </trkpt>
      <trkpt lat="40.7533930" lon="-8.2026730">
        <ele>264.4</ele>
        <time>2020-01-19T09:20:14Z</time>
      </trkpt>
      <trkpt lat="40.7533620" lon="-8.2026930">
        <ele>264.2</ele>
        <time>2020-01-19T09:20:15Z</time>
      </trkpt>
      <trkpt lat="40.7531610" lon="-8.2027900">
        <ele>263.2</ele>
        <time>2020-01-19T09:20:21Z</time>
      </trkpt>
      <trkpt lat="40.7531290" lon="-8.2028090">
        <ele>263.2</ele>
        <time>2020-01-19T09:20:22Z</time>
      </trkpt>
      <trkpt lat="40.7529910" lon="-8.2028730">
        <ele>262.4</ele>
        <time>2020-01-19T09:20:26Z</time>
      </trkpt>
      <trkpt lat="40.7529570" lon="-8.2028880">
        <ele>262.0</ele>
        <time>2020-01-19T09:20:27Z</time>
      </trkpt>
      <trkpt lat="40.7527860" lon="-8.2029600">
        <ele>261.2</ele>
        <time>2020-01-19T09:20:32Z</time>
      </trkpt>
      <trkpt lat="40.7527520" lon="-8.2029750">
        <ele>260.8</ele>
        <time>2020-01-19T09:20:33Z</time>
      </trkpt>
      <trkpt lat="40.7525560" lon="-8.2030870">
        <ele>260.0</ele>
        <time>2020-01-19T09:20:39Z</time>
      </trkpt>
      <trkpt lat="40.7524930" lon="-8.2031370">
        <ele>259.6</ele>
        <time>2020-01-19T09:20:41Z</time>
      </trkpt>
      <trkpt lat="40.7523490" lon="-8.2032980">
        <ele>258.0</ele>
        <time>2020-01-19T09:20:46Z</time>
      </trkpt>
      <trkpt lat="40.7522760" lon="-8.2034080">
        <ele>257.0</ele>
        <time>2020-01-19T09:20:49Z</time>
      </trkpt>
      <trkpt lat="40.7521780" lon="-8.2035470">
        <ele>255.8</ele>
        <time>2020-01-19T09:20:53Z</time>
      </trkpt>
      <trkpt lat="40.7520400" lon="-8.2037660">
        <ele>254.8</ele>
        <time>2020-01-19T09:20:59Z</time>
      </trkpt>
      <trkpt lat="40.7519360" lon="-8.2039690">
        <ele>253.6</ele>
        <time>2020-01-19T09:21:04Z</time>
      </trkpt>
      <trkpt lat="40.7519220" lon="-8.2042140">
        <ele>253.0</ele>
        <time>2020-01-19T09:21:09Z</time>
      </trkpt>
      <trkpt lat="40.7519770" lon="-8.2043480">
        <ele>252.6</ele>
        <time>2020-01-19T09:21:12Z</time>
      </trkpt>
      <trkpt lat="40.7521420" lon="-8.2044870">
        <ele>251.8</ele>
        <time>2020-01-19T09:21:17Z</time>
      </trkpt>
      <trkpt lat="40.7522140" lon="-8.2045210">
        <ele>251.2</ele>
        <time>2020-01-19T09:21:19Z</time>
      </trkpt>
      <trkpt lat="40.7523540" lon="-8.2045940">
        <ele>250.2</ele>
        <time>2020-01-19T09:21:23Z</time>
      </trkpt>
      <trkpt lat="40.7524520" lon="-8.2046600">
        <ele>248.8</ele>
        <time>2020-01-19T09:21:26Z</time>
      </trkpt>
      <trkpt lat="40.7525310" lon="-8.2047520">
        <ele>247.6</ele>
        <time>2020-01-19T09:21:29Z</time>
      </trkpt>
      <trkpt lat="40.7525980" lon="-8.2049710">
        <ele>246.6</ele>
        <time>2020-01-19T09:21:34Z</time>
      </trkpt>
      <trkpt lat="40.7525980" lon="-8.2050130">
        <ele>245.8</ele>
        <time>2020-01-19T09:21:35Z</time>
      </trkpt>
      <trkpt lat="40.7525350" lon="-8.2051870">
        <ele>244.6</ele>
        <time>2020-01-19T09:21:39Z</time>
      </trkpt>
      <trkpt lat="40.7524880" lon="-8.2052620">
        <ele>243.6</ele>
        <time>2020-01-19T09:21:41Z</time>
      </trkpt>
      <trkpt lat="40.7524640" lon="-8.2052960">
        <ele>243.4</ele>
        <time>2020-01-19T09:21:42Z</time>
      </trkpt>
      <trkpt lat="40.7523280" lon="-8.2054530">
        <ele>242.2</ele>
        <time>2020-01-19T09:21:47Z</time>
      </trkpt>
      <trkpt lat="40.7521780" lon="-8.2056060">
        <ele>241.2</ele>
        <time>2020-01-19T09:21:52Z</time>
      </trkpt>
      <trkpt lat="40.7520390" lon="-8.2057580">
        <ele>240.2</ele>
        <time>2020-01-19T09:21:57Z</time>
      </trkpt>
      <trkpt lat="40.7520100" lon="-8.2057870">
        <ele>240.2</ele>
        <time>2020-01-19T09:21:58Z</time>
      </trkpt>
      <trkpt lat="40.7519070" lon="-8.2059130">
        <ele>239.2</ele>
        <time>2020-01-19T09:22:02Z</time>
      </trkpt>
      <trkpt lat="40.7517500" lon="-8.2060910">
        <ele>238.4</ele>
        <time>2020-01-19T09:22:08Z</time>
      </trkpt>
      <trkpt lat="40.7517230" lon="-8.2061220">
        <ele>238.0</ele>
        <time>2020-01-19T09:22:09Z</time>
      </trkpt>
      <trkpt lat="40.7516150" lon="-8.2062400">
        <ele>237.0</ele>
        <time>2020-01-19T09:22:13Z</time>
      </trkpt>
      <trkpt lat="40.7514870" lon="-8.2063760">
        <ele>235.8</ele>
        <time>2020-01-19T09:22:18Z</time>
      </trkpt>
      <trkpt lat="40.7514370" lon="-8.2064370">
        <ele>235.2</ele>
        <time>2020-01-19T09:22:20Z</time>
      </trkpt>
      <trkpt lat="40.7513970" lon="-8.2064980">
        <ele>234.8</ele>
        <time>2020-01-19T09:22:22Z</time>
      </trkpt>
      <trkpt lat="40.7513220" lon="-8.2065820">
        <ele>233.4</ele>
        <time>2020-01-19T09:22:25Z</time>
      </trkpt>
      <trkpt lat="40.7511990" lon="-8.2067110">
        <ele>232.4</ele>
        <time>2020-01-19T09:22:29Z</time>
      </trkpt>
      <trkpt lat="40.7510490" lon="-8.2068670">
        <ele>231.0</ele>
        <time>2020-01-19T09:22:34Z</time>
      </trkpt>
      <trkpt lat="40.7509500" lon="-8.2070140">
        <ele>229.8</ele>
        <time>2020-01-19T09:22:38Z</time>
      </trkpt>
      <trkpt lat="40.7508740" lon="-8.2071950">
        <ele>228.8</ele>
        <time>2020-01-19T09:22:42Z</time>
      </trkpt>
      <trkpt lat="40.7508230" lon="-8.2073940">
        <ele>227.6</ele>
        <time>2020-01-19T09:22:46Z</time>
      </trkpt>
      <trkpt lat="40.7507920" lon="-8.2075920">
        <ele>226.6</ele>
        <time>2020-01-19T09:22:50Z</time>
      </trkpt>
      <trkpt lat="40.7507740" lon="-8.2077270">
        <ele>225.8</ele>
        <time>2020-01-19T09:22:53Z</time>
      </trkpt>
      <trkpt lat="40.7507760" lon="-8.2078130">
        <ele>225.4</ele>
        <time>2020-01-19T09:22:55Z</time>
      </trkpt>
      <trkpt lat="40.7507730" lon="-8.2079990">
        <ele>224.2</ele>
        <time>2020-01-19T09:22:59Z</time>
      </trkpt>
      <trkpt lat="40.7507300" lon="-8.2082160">
        <ele>223.4</ele>
        <time>2020-01-19T09:23:04Z</time>
      </trkpt>
      <trkpt lat="40.7507160" lon="-8.2082590">
        <ele>223.0</ele>
        <time>2020-01-19T09:23:05Z</time>
      </trkpt>
      <trkpt lat="40.7506220" lon="-8.2084110">
        <ele>222.0</ele>
        <time>2020-01-19T09:23:09Z</time>
      </trkpt>
      <trkpt lat="40.7505250" lon="-8.2084680">
        <ele>221.2</ele>
        <time>2020-01-19T09:23:12Z</time>
      </trkpt>
      <trkpt lat="40.7504620" lon="-8.2084980">
        <ele>221.0</ele>
        <time>2020-01-19T09:23:14Z</time>
      </trkpt>
      <trkpt lat="40.7502700" lon="-8.2085840">
        <ele>220.2</ele>
        <time>2020-01-19T09:23:20Z</time>
      </trkpt>
      <trkpt lat="40.7501740" lon="-8.2086470">
        <ele>219.6</ele>
        <time>2020-01-19T09:23:23Z</time>
      </trkpt>
      <trkpt lat="40.7500800" lon="-8.2087260">
        <ele>219.0</ele>
        <time>2020-01-19T09:23:26Z</time>
      </trkpt>
      <trkpt lat="40.7500280" lon="-8.2087910">
        <ele>218.6</ele>
        <time>2020-01-19T09:23:28Z</time>
      </trkpt>
      <trkpt lat="40.7499540" lon="-8.2089100">
        <ele>218.4</ele>
        <time>2020-01-19T09:23:31Z</time>
      </trkpt>
      <trkpt lat="40.7498660" lon="-8.2091450">
        <ele>217.0</ele>
        <time>2020-01-19T09:23:36Z</time>
      </trkpt>
      <trkpt lat="40.7497920" lon="-8.2093330">
        <ele>215.6</ele>
        <time>2020-01-19T09:23:40Z</time>
      </trkpt>
      <trkpt lat="40.7497380" lon="-8.2094680">
        <ele>214.6</ele>
        <time>2020-01-19T09:23:43Z</time>
      </trkpt>
      <trkpt lat="40.7496840" lon="-8.2096030">
        <ele>213.4</ele>
        <time>2020-01-19T09:23:46Z</time>
      </trkpt>
      <trkpt lat="40.7496320" lon="-8.2097350">
        <ele>212.2</ele>
        <time>2020-01-19T09:23:49Z</time>
      </trkpt>
      <trkpt lat="40.7495700" lon="-8.2099200">
        <ele>210.8</ele>
        <time>2020-01-19T09:23:53Z</time>
      </trkpt>
      <trkpt lat="40.7495200" lon="-8.2100510">
        <ele>209.8</ele>
        <time>2020-01-19T09:23:56Z</time>
      </trkpt>
      <trkpt lat="40.7494500" lon="-8.2102240">
        <ele>208.4</ele>
        <time>2020-01-19T09:24:00Z</time>
      </trkpt>
      <trkpt lat="40.7494110" lon="-8.2103060">
        <ele>208.0</ele>
        <time>2020-01-19T09:24:02Z</time>
      </trkpt>
      <trkpt lat="40.7493910" lon="-8.2103480">
        <ele>207.4</ele>
        <time>2020-01-19T09:24:03Z</time>
      </trkpt>
      <trkpt lat="40.7493100" lon="-8.2105090">
        <ele>206.0</ele>
        <time>2020-01-19T09:24:07Z</time>
      </trkpt>
      <trkpt lat="40.7492290" lon="-8.2106650">
        <ele>204.8</ele>
        <time>2020-01-19T09:24:11Z</time>
      </trkpt>
      <trkpt lat="40.7491590" lon="-8.2108240">
        <ele>203.6</ele>
        <time>2020-01-19T09:24:15Z</time>
      </trkpt>
      <trkpt lat="40.7490870" lon="-8.2110440">
        <ele>202.6</ele>
        <time>2020-01-19T09:24:20Z</time>
      </trkpt>
      <trkpt lat="40.7490750" lon="-8.2112830">
        <ele>201.6</ele>
        <time>2020-01-19T09:24:25Z</time>
      </trkpt>
      <trkpt lat="40.7491180" lon="-8.2114630">
        <ele>200.4</ele>
        <time>2020-01-19T09:24:29Z</time>
      </trkpt>
      <trkpt lat="40.7492220" lon="-8.2116710">
        <ele>199.8</ele>
        <time>2020-01-19T09:24:34Z</time>
      </trkpt>
      <trkpt lat="40.7492510" lon="-8.2117100">
        <ele>199.4</ele>
        <time>2020-01-19T09:24:35Z</time>
      </trkpt>
      <trkpt lat="40.7493360" lon="-8.2118170">
        <ele>198.4</ele>
        <time>2020-01-19T09:24:38Z</time>
      </trkpt>
      <trkpt lat="40.7493650" lon="-8.2118480">
        <ele>198.2</ele>
        <time>2020-01-19T09:24:39Z</time>
      </trkpt>
      <trkpt lat="40.7495270" lon="-8.2119880">
        <ele>197.0</ele>
        <time>2020-01-19T09:24:44Z</time>
      </trkpt>
      <trkpt lat="40.7496150" lon="-8.2120820">
        <ele>196.2</ele>
        <time>2020-01-19T09:24:47Z</time>
      </trkpt>
      <trkpt lat="40.7496540" lon="-8.2121560">
        <ele>195.2</ele>
        <time>2020-01-19T09:24:49Z</time>
      </trkpt>
      <trkpt lat="40.7496560" lon="-8.2122730">
        <ele>194.0</ele>
        <time>2020-01-19T09:24:52Z</time>
      </trkpt>
      <trkpt lat="40.7496360" lon="-8.2123030">
        <ele>194.0</ele>
        <time>2020-01-19T09:24:53Z</time>
      </trkpt>
      <trkpt lat="40.7495770" lon="-8.2123380">
        <ele>192.8</ele>
        <time>2020-01-19T09:24:55Z</time>
      </trkpt>
      <trkpt lat="40.7494710" lon="-8.2123160">
        <ele>191.6</ele>
        <time>2020-01-19T09:24:58Z</time>
      </trkpt>
      <trkpt lat="40.7493980" lon="-8.2122870">
        <ele>190.0</ele>
        <time>2020-01-19T09:25:00Z</time>
      </trkpt>
      <trkpt lat="40.7493270" lon="-8.2122610">
        <ele>188.8</ele>
        <time>2020-01-19T09:25:02Z</time>
      </trkpt>
      <trkpt lat="40.7492220" lon="-8.2122280">
        <ele>187.2</ele>
        <time>2020-01-19T09:25:05Z</time>
      </trkpt>
      <trkpt lat="40.7490940" lon="-8.2121890">
        <ele>185.8</ele>
        <time>2020-01-19T09:25:09Z</time>
      </trkpt>
      <trkpt lat="40.7489460" lon="-8.2121540">
        <ele>184.8</ele>
        <time>2020-01-19T09:25:13Z</time>
      </trkpt>
      <trkpt lat="40.7487980" lon="-8.2121260">
        <ele>183.6</ele>
        <time>2020-01-19T09:25:17Z</time>
      </trkpt>
      <trkpt lat="40.7485910" lon="-8.2120890">
        <ele>182.4</ele>
        <time>2020-01-19T09:25:23Z</time>
      </trkpt>
      <trkpt lat="40.7484550" lon="-8.2120500">
        <ele>181.4</ele>
        <time>2020-01-19T09:25:27Z</time>
      </trkpt>
      <trkpt lat="40.7482530" lon="-8.2119720">
        <ele>180.2</ele>
        <time>2020-01-19T09:25:33Z</time>
      </trkpt>
      <trkpt lat="40.7480920" lon="-8.2118110">
        <ele>179.0</ele>
        <time>2020-01-19T09:25:39Z</time>
      </trkpt>
      <trkpt lat="40.7480050" lon="-8.2116720">
        <ele>178.0</ele>
        <time>2020-01-19T09:25:43Z</time>
      </trkpt>
      <trkpt lat="40.7479240" lon="-8.2115190">
        <ele>177.0</ele>
        <time>2020-01-19T09:25:47Z</time>
      </trkpt>
      <trkpt lat="40.7478960" lon="-8.2114370">
        <ele>176.6</ele>
        <time>2020-01-19T09:25:49Z</time>
      </trkpt>
      <trkpt lat="40.7478780" lon="-8.2112980">
        <ele>175.8</ele>
        <time>2020-01-19T09:25:52Z</time>
      </trkpt>
      <trkpt lat="40.7478920" lon="-8.2111290">
        <ele>174.6</ele>
        <time>2020-01-19T09:25:56Z</time>
      </trkpt>
      <trkpt lat="40.7479160" lon="-8.2110390">
        <ele>173.4</ele>
        <time>2020-01-19T09:25:58Z</time>
      </trkpt>
      <trkpt lat="40.7479820" lon="-8.2108630">
        <ele>172.4</ele>
        <time>2020-01-19T09:26:02Z</time>
      </trkpt>
      <trkpt lat="40.7480400" lon="-8.2106910">
        <ele>171.2</ele>
        <time>2020-01-19T09:26:06Z</time>
      </trkpt>
      <trkpt lat="40.7480690" lon="-8.2105530">
        <ele>170.0</ele>
        <time>2020-01-19T09:26:09Z</time>
      </trkpt>
      <trkpt lat="40.7480610" lon="-8.2103120">
        <ele>169.2</ele>
        <time>2020-01-19T09:26:14Z</time>
      </trkpt>
      <trkpt lat="40.7480460" lon="-8.2102690">
        <ele>169.0</ele>
        <time>2020-01-19T09:26:15Z</time>
      </trkpt>
      <trkpt lat="40.7479450" lon="-8.2101250">
        <ele>167.8</ele>
        <time>2020-01-19T09:26:19Z</time>
      </trkpt>
      <trkpt lat="40.7478260" lon="-8.2100180">
        <ele>166.6</ele>
        <time>2020-01-19T09:26:23Z</time>
      </trkpt>
      <trkpt lat="40.7476610" lon="-8.2099260">
        <ele>165.4</ele>
        <time>2020-01-19T09:26:28Z</time>
      </trkpt>
      <trkpt lat="40.7475220" lon="-8.2098450">
        <ele>164.2</ele>
        <time>2020-01-19T09:26:32Z</time>
      </trkpt>
      <trkpt lat="40.7473750" lon="-8.2097830">
        <ele>163.0</ele>
        <time>2020-01-19T09:26:36Z</time>
      </trkpt>
      <trkpt lat="40.7471930" lon="-8.2096860">
        <ele>162.0</ele>
        <time>2020-01-19T09:26:41Z</time>
      </trkpt>
      <trkpt lat="40.7471160" lon="-8.2096550">
        <ele>160.8</ele>
        <time>2020-01-19T09:26:43Z</time>
      </trkpt>
      <trkpt lat="40.7469690" lon="-8.2095920">
        <ele>159.6</ele>
        <time>2020-01-19T09:26:47Z</time>
      </trkpt>
      <trkpt lat="40.7468660" lon="-8.2095330">
        <ele>158.2</ele>
        <time>2020-01-19T09:26:50Z</time>
      </trkpt>
      <trkpt lat="40.7467400" lon="-8.2094410">
        <ele>157.0</ele>
        <time>2020-01-19T09:26:54Z</time>
      </trkpt>
      <trkpt lat="40.7466190" lon="-8.2092690">
        <ele>156.0</ele>
        <time>2020-01-19T09:26:59Z</time>
      </trkpt>
      <trkpt lat="40.7465740" lon="-8.2090740">
        <ele>154.8</ele>
        <time>2020-01-19T09:27:03Z</time>
      </trkpt>
      <trkpt lat="40.7466000" lon="-8.2088830">
        <ele>153.8</ele>
        <time>2020-01-19T09:27:07Z</time>
      </trkpt>
      <trkpt lat="40.7466520" lon="-8.2087010">
        <ele>152.6</ele>
        <time>2020-01-19T09:27:11Z</time>
      </trkpt>
      <trkpt lat="40.7467140" lon="-8.2084790">
        <ele>151.4</ele>
        <time>2020-01-19T09:27:16Z</time>
      </trkpt>
      <trkpt lat="40.7467890" lon="-8.2082600">
        <ele>150.2</ele>
        <time>2020-01-19T09:27:21Z</time>
      </trkpt>
      <trkpt lat="40.7468460" lon="-8.2080790">
        <ele>149.0</ele>
        <time>2020-01-19T09:27:25Z</time>
      </trkpt>
      <trkpt lat="40.7469200" lon="-8.2078500">
        <ele>147.8</ele>
        <time>2020-01-19T09:27:30Z</time>
      </trkpt>
      <trkpt lat="40.7469750" lon="-8.2076730">
        <ele>146.8</ele>
        <time>2020-01-19T09:27:34Z</time>
      </trkpt>
      <trkpt lat="40.7470470" lon="-8.2074540">
        <ele>145.8</ele>
        <time>2020-01-19T09:27:39Z</time>
      </trkpt>
      <trkpt lat="40.7470600" lon="-8.2074090">
        <ele>145.4</ele>
        <time>2020-01-19T09:27:40Z</time>
      </trkpt>
      <trkpt lat="40.7471350" lon="-8.2071890">
        <ele>144.4</ele>
        <time>2020-01-19T09:27:45Z</time>
      </trkpt>
      <trkpt lat="40.7472150" lon="-8.2069650">
        <ele>143.2</ele>
        <time>2020-01-19T09:27:50Z</time>
      </trkpt>
      <trkpt lat="40.7472560" lon="-8.2067820">
        <ele>142.2</ele>
        <time>2020-01-19T09:27:54Z</time>
      </trkpt>
      <trkpt lat="40.7473290" lon="-8.2065140">
        <ele>141.0</ele>
        <time>2020-01-19T09:28:00Z</time>
      </trkpt>
      <trkpt lat="40.7473640" lon="-8.2063320">
        <ele>139.8</ele>
        <time>2020-01-19T09:28:04Z</time>
      </trkpt>
      <trkpt lat="40.7473550" lon="-8.2060940">
        <ele>138.6</ele>
        <time>2020-01-19T09:28:09Z</time>
      </trkpt>
      <trkpt lat="40.7472870" lon="-8.2058750">
        <ele>137.4</ele>
        <time>2020-01-19T09:28:14Z</time>
      </trkpt>
      <trkpt lat="40.7471840" lon="-8.2056690">
        <ele>136.0</ele>
        <time>2020-01-19T09:28:19Z</time>
      </trkpt>
      <trkpt lat="40.7471080" lon="-8.2055080">
        <ele>134.6</ele>
        <time>2020-01-19T09:28:23Z</time>
      </trkpt>
      <trkpt lat="40.7470560" lon="-8.2053860">
        <ele>133.4</ele>
        <time>2020-01-19T09:28:26Z</time>
      </trkpt>
      <trkpt lat="40.7469790" lon="-8.2052240">
        <ele>132.2</ele>
        <time>2020-01-19T09:28:30Z</time>
      </trkpt>
      <trkpt lat="40.7469300" lon="-8.2051060">
        <ele>131.2</ele>
        <time>2020-01-19T09:28:33Z</time>
      </trkpt>
      <trkpt lat="40.7468540" lon="-8.2048470">
        <ele>129.8</ele>
        <time>2020-01-19T09:28:39Z</time>
      </trkpt>
      <trkpt lat="40.7468370" lon="-8.2047010">
        <ele>128.6</ele>
        <time>2020-01-19T09:28:42Z</time>
      </trkpt>
      <trkpt lat="40.7468330" lon="-8.2045100">
        <ele>127.2</ele>
        <time>2020-01-19T09:28:46Z</time>
      </trkpt>
      <trkpt lat="40.7468460" lon="-8.2043210">
        <ele>126.0</ele>
        <time>2020-01-19T09:28:50Z</time>
      </trkpt>
      <trkpt lat="40.7469090" lon="-8.2040950">
        <ele>124.8</ele>
        <time>2020-01-19T09:28:55Z</time>
      </trkpt>
      <trkpt lat="40.7470060" lon="-8.2038910">
        <ele>123.4</ele>
        <time>2020-01-19T09:29:00Z</time>
      </trkpt>
      <trkpt lat="40.7470720" lon="-8.2037790">
        <ele>122.2</ele>
        <time>2020-01-19T09:29:03Z</time>
      </trkpt>
      <trkpt lat="40.7471930" lon="-8.2036170">
        <ele>121.0</ele>
        <time>2020-01-19T09:29:08Z</time>
      </trkpt>
      <trkpt lat="40.7473320" lon="-8.2034610">
        <ele>120.0</ele>
        <time>2020-01-19T09:29:13Z</time>
      </trkpt>
      <trkpt lat="40.7473580" lon="-8.2034290">
        <ele>119.8</ele>
        <time>2020-01-19T09:29:14Z</time>
      </trkpt>
      <trkpt lat="40.7474850" lon="-8.2032870">
        <ele>118.8</ele>
        <time>2020-01-19T09:29:19Z</time>
      </trkpt>
      <trkpt lat="40.7475780" lon="-8.2031710">
        <ele>117.6</ele>
        <time>2020-01-19T09:29:23Z</time>
      </trkpt>
      <trkpt lat="40.7477230" lon="-8.2029870">
        <ele>116.6</ele>
        <time>2020-01-19T09:29:29Z</time>
      </trkpt>
      <trkpt lat="40.7477450" lon="-8.2029550">
        <ele>116.4</ele>
        <time>2020-01-19T09:29:30Z</time>
      </trkpt>
      <trkpt lat="40.7478700" lon="-8.2028030">
        <ele>115.2</ele>
        <time>2020-01-19T09:29:35Z</time>
      </trkpt>
      <trkpt lat="40.7480130" lon="-8.2026100">
        <ele>114.6</ele>
        <time>2020-01-19T09:29:41Z</time>
      </trkpt>
      <trkpt lat="40.7480730" lon="-8.2025210">
        <ele>114.2</ele>
        <time>2020-01-19T09:29:44Z</time>
      </trkpt>
      <trkpt lat="40.7481960" lon="-8.2023130">
        <ele>113.8</ele>
        <time>2020-01-19T09:29:51Z</time>
      </trkpt>
      <trkpt lat="40.7483100" lon="-8.2020930">
        <ele>114.6</ele>
        <time>2020-01-19T09:29:58Z</time>
      </trkpt>
      <trkpt lat="40.7483680" lon="-8.2019600">
        <ele>114.8</ele>
        <time>2020-01-19T09:30:02Z</time>
      </trkpt>
      <trkpt lat="40.7484290" lon="-8.2018320">
        <ele>115.2</ele>
        <time>2020-01-19T09:30:06Z</time>
      </trkpt>
      <trkpt lat="40.7485000" lon="-8.2016730">
        <ele>116.2</ele>
        <time>2020-01-19T09:30:11Z</time>
      </trkpt>
      <trkpt lat="40.7485890" lon="-8.2014750">
        <ele>117.2</ele>
        <time>2020-01-19T09:30:17Z</time>
      </trkpt>
      <trkpt lat="40.7486880" lon="-8.2012350">
        <ele>118.2</ele>
        <time>2020-01-19T09:30:24Z</time>
      </trkpt>
      <trkpt lat="40.7486990" lon="-8.2011990">
        <ele>118.4</ele>
        <time>2020-01-19T09:30:25Z</time>
      </trkpt>
      <trkpt lat="40.7487800" lon="-8.2009470">
        <ele>119.2</ele>
        <time>2020-01-19T09:30:32Z</time>
      </trkpt>
      <trkpt lat="40.7488000" lon="-8.2008730">
        <ele>119.4</ele>
        <time>2020-01-19T09:30:34Z</time>
      </trkpt>
      <trkpt lat="40.7488450" lon="-8.2006400">
        <ele>119.8</ele>
        <time>2020-01-19T09:30:40Z</time>
      </trkpt>
      <trkpt lat="40.7488660" lon="-8.2003910">
        <ele>120.4</ele>
        <time>2020-01-19T09:30:46Z</time>
      </trkpt>
      <trkpt lat="40.7488600" lon="-8.2003060">
        <ele>120.6</ele>
        <time>2020-01-19T09:30:48Z</time>
      </trkpt>
      <trkpt lat="40.7488200" lon="-8.2000590">
        <ele>121.0</ele>
        <time>2020-01-19T09:30:54Z</time>
      </trkpt>
      <trkpt lat="40.7487530" lon="-8.1998140">
        <ele>120.6</ele>
        <time>2020-01-19T09:31:00Z</time>
      </trkpt>
      <trkpt lat="40.7486560" lon="-8.1995840">
        <ele>120.8</ele>
        <time>2020-01-19T09:31:06Z</time>
      </trkpt>
      <trkpt lat="40.7485330" lon="-8.1993800">
        <ele>120.6</ele>
        <time>2020-01-19T09:31:12Z</time>
      </trkpt>
      <trkpt lat="40.7483910" lon="-8.1991930">
        <ele>120.6</ele>
        <time>2020-01-19T09:31:18Z</time>
      </trkpt>
      <trkpt lat="40.7482240" lon="-8.1990430">
        <ele>120.2</ele>
        <time>2020-01-19T09:31:24Z</time>
      </trkpt>
      <trkpt lat="40.7480240" lon="-8.1989640">
        <ele>120.2</ele>
        <time>2020-01-19T09:31:30Z</time>
      </trkpt>
      <trkpt lat="40.7478320" lon="-8.1989120">
        <ele>120.0</ele>
        <time>2020-01-19T09:31:36Z</time>
      </trkpt>
      <trkpt lat="40.7476420" lon="-8.1989170">
        <ele>119.8</ele>
        <time>2020-01-19T09:31:42Z</time>
      </trkpt>
      <trkpt lat="40.7475130" lon="-8.1989330">
        <ele>119.4</ele>
        <time>2020-01-19T09:31:46Z</time>
      </trkpt>
      <trkpt lat="40.7473160" lon="-8.1989820">
        <ele>119.4</ele>
        <time>2020-01-19T09:31:52Z</time>
      </trkpt>
      <trkpt lat="40.7471240" lon="-8.1990550">
        <ele>119.0</ele>
        <time>2020-01-19T09:31:58Z</time>
      </trkpt>
      <trkpt lat="40.7469490" lon="-8.1991630">
        <ele>119.0</ele>
        <time>2020-01-19T09:32:04Z</time>
      </trkpt>
      <trkpt lat="40.7467920" lon="-8.1993030">
        <ele>118.6</ele>
        <time>2020-01-19T09:32:10Z</time>
      </trkpt>
      <trkpt lat="40.7466410" lon="-8.1994800">
        <ele>118.4</ele>
        <time>2020-01-19T09:32:16Z</time>
      </trkpt>
      <trkpt lat="40.7466140" lon="-8.1995120">
        <ele>118.4</ele>
        <time>2020-01-19T09:32:17Z</time>
      </trkpt>
      <trkpt lat="40.7464610" lon="-8.1996810">
        <ele>118.0</ele>
        <time>2020-01-19T09:32:23Z</time>
      </trkpt>
      <trkpt lat="40.7463160" lon="-8.1998360">
        <ele>118.0</ele>
        <time>2020-01-19T09:32:29Z</time>
      </trkpt>
      <trkpt lat="40.7461710" lon="-8.1999880">
        <ele>117.8</ele>
        <time>2020-01-19T09:32:35Z</time>
      </trkpt>
      <trkpt lat="40.7460360" lon="-8.2001510">
        <ele>118.0</ele>
        <time>2020-01-19T09:32:41Z</time>
      </trkpt>
      <trkpt lat="40.7458760" lon="-8.2003220">
        <ele>117.8</ele>
        <time>2020-01-19T09:32:48Z</time>
      </trkpt>
      <trkpt lat="40.7457130" lon="-8.2004790">
        <ele>118.2</ele>
        <time>2020-01-19T09:32:55Z</time>
      </trkpt>
      <trkpt lat="40.7455510" lon="-8.2006520">
        <ele>118.4</ele>
        <time>2020-01-19T09:33:02Z</time>
      </trkpt>
      <trkpt lat="40.7453900" lon="-8.2008090">
        <ele>119.0</ele>
        <time>2020-01-19T09:33:09Z</time>
      </trkpt>
      <trkpt lat="40.7452280" lon="-8.2009500">
        <ele>119.4</ele>
        <time>2020-01-19T09:33:16Z</time>
      </trkpt>
      <trkpt lat="40.7451880" lon="-8.2009840">
        <ele>119.4</ele>
        <time>2020-01-19T09:33:18Z</time>
      </trkpt>
      <trkpt lat="40.7450100" lon="-8.2010670">
        <ele>120.4</ele>
        <time>2020-01-19T09:33:26Z</time>
      </trkpt>
      <trkpt lat="40.7449870" lon="-8.2010720">
        <ele>120.6</ele>
        <time>2020-01-19T09:33:27Z</time>
      </trkpt>
      <trkpt lat="40.7448040" lon="-8.2010780">
        <ele>121.8</ele>
        <time>2020-01-19T09:33:35Z</time>
      </trkpt>
      <trkpt lat="40.7447120" lon="-8.2010650">
        <ele>123.2</ele>
        <time>2020-01-19T09:33:39Z</time>
      </trkpt>
      <trkpt lat="40.7445350" lon="-8.2010660">
        <ele>124.4</ele>
        <time>2020-01-19T09:33:46Z</time>
      </trkpt>
      <trkpt lat="40.7444520" lon="-8.2010600">
        <ele>125.6</ele>
        <time>2020-01-19T09:33:49Z</time>
      </trkpt>
      <trkpt lat="40.7443460" lon="-8.2010500">
        <ele>126.6</ele>
        <time>2020-01-19T09:33:53Z</time>
      </trkpt>
      <trkpt lat="40.7441660" lon="-8.2010390">
        <ele>127.8</ele>
        <time>2020-01-19T09:34:00Z</time>
      </trkpt>
      <trkpt lat="40.7440840" lon="-8.2010400">
        <ele>128.8</ele>
        <time>2020-01-19T09:34:03Z</time>
      </trkpt>
      <trkpt lat="40.7439040" lon="-8.2010680">
        <ele>129.6</ele>
        <time>2020-01-19T09:34:10Z</time>
      </trkpt>
      <trkpt lat="40.7438190" lon="-8.2011010">
        <ele>129.8</ele>
        <time>2020-01-19T09:34:13Z</time>
      </trkpt>
      <trkpt lat="40.7436920" lon="-8.2011690">
        <ele>131.2</ele>
        <time>2020-01-19T09:34:18Z</time>
      </trkpt>
      <trkpt lat="40.7435300" lon="-8.2012750">
        <ele>132.2</ele>
        <time>2020-01-19T09:34:25Z</time>
      </trkpt>
      <trkpt lat="40.7433600" lon="-8.2014060">
        <ele>132.6</ele>
        <time>2020-01-19T09:34:33Z</time>
      </trkpt>
      <trkpt lat="40.7432510" lon="-8.2014920">
        <ele>133.4</ele>
        <time>2020-01-19T09:34:38Z</time>
      </trkpt>
      <trkpt lat="40.7431340" lon="-8.2015640">
        <ele>134.6</ele>
        <time>2020-01-19T09:34:43Z</time>
      </trkpt>
      <trkpt lat="40.7430470" lon="-8.2015980">
        <ele>135.6</ele>
        <time>2020-01-19T09:34:47Z</time>
      </trkpt>
      <trkpt lat="40.7428530" lon="-8.2016510">
        <ele>136.4</ele>
        <time>2020-01-19T09:34:56Z</time>
      </trkpt>
      <trkpt lat="40.7428300" lon="-8.2016540">
        <ele>136.6</ele>
        <time>2020-01-19T09:34:57Z</time>
      </trkpt>
      <trkpt lat="40.7427620" lon="-8.2016770">
        <ele>137.8</ele>
        <time>2020-01-19T09:35:00Z</time>
      </trkpt>
      <trkpt lat="40.7426990" lon="-8.2017120">
        <ele>138.8</ele>
        <time>2020-01-19T09:35:03Z</time>
      </trkpt>
      <trkpt lat="40.7425860" lon="-8.2019260">
        <ele>139.8</ele>
        <time>2020-01-19T09:35:11Z</time>
      </trkpt>
      <trkpt lat="40.7425810" lon="-8.2019530">
        <ele>140.0</ele>
        <time>2020-01-19T09:35:12Z</time>
      </trkpt>
      <trkpt lat="40.7425800" lon="-8.2019840">
        <ele>140.0</ele>
        <time>2020-01-19T09:35:13Z</time>
      </trkpt>
      <trkpt lat="40.7425810" lon="-8.2020890">
        <ele>140.6</ele>
        <time>2020-01-19T09:35:16Z</time>
      </trkpt>
      <trkpt lat="40.7426030" lon="-8.2021830">
        <ele>141.0</ele>
        <time>2020-01-19T09:35:19Z</time>
      </trkpt>
      <trkpt lat="40.7426340" lon="-8.2023080">
        <ele>142.0</ele>
        <time>2020-01-19T09:35:23Z</time>
      </trkpt>
      <trkpt lat="40.7426790" lon="-8.2025700">
        <ele>143.0</ele>
        <time>2020-01-19T09:35:31Z</time>
      </trkpt>
      <trkpt lat="40.7426840" lon="-8.2028190">
        <ele>143.8</ele>
        <time>2020-01-19T09:35:38Z</time>
      </trkpt>
      <trkpt lat="40.7426790" lon="-8.2029590">
        <ele>144.0</ele>
        <time>2020-01-19T09:35:42Z</time>
      </trkpt>
      <trkpt lat="40.7426660" lon="-8.2031010">
        <ele>144.2</ele>
        <time>2020-01-19T09:35:46Z</time>
      </trkpt>
      <trkpt lat="40.7426220" lon="-8.2033340">
        <ele>144.6</ele>
        <time>2020-01-19T09:35:53Z</time>
      </trkpt>
      <trkpt lat="40.7425970" lon="-8.2035000">
        <ele>145.2</ele>
        <time>2020-01-19T09:35:58Z</time>
      </trkpt>
      <trkpt lat="40.7425770" lon="-8.2036490">
        <ele>146.4</ele>
        <time>2020-01-19T09:36:03Z</time>
      </trkpt>
      <trkpt lat="40.7425470" lon="-8.2038840">
        <ele>147.4</ele>
        <time>2020-01-19T09:36:11Z</time>
      </trkpt>
      <trkpt lat="40.7425480" lon="-8.2039150">
        <ele>147.4</ele>
        <time>2020-01-19T09:36:12Z</time>
      </trkpt>
      <trkpt lat="40.7425500" lon="-8.2040150">
        <ele>148.4</ele>
        <time>2020-01-19T09:36:15Z</time>
      </trkpt>
      <trkpt lat="40.7425290" lon="-8.2042580">
        <ele>149.4</ele>
        <time>2020-01-19T09:36:23Z</time>
      </trkpt>
      <trkpt lat="40.7425250" lon="-8.2042890">
        <ele>149.6</ele>
        <time>2020-01-19T09:36:24Z</time>
      </trkpt>
      <trkpt lat="40.7425040" lon="-8.2043650">
        <ele>150.8</ele>
        <time>2020-01-19T09:36:27Z</time>
      </trkpt>
      <trkpt lat="40.7424440" lon="-8.2044340">
        <ele>151.8</ele>
        <time>2020-01-19T09:36:31Z</time>
      </trkpt>
      <trkpt lat="40.7422920" lon="-8.2044070">
        <ele>153.0</ele>
        <time>2020-01-19T09:36:39Z</time>
      </trkpt>
      <trkpt lat="40.7422450" lon="-8.2043410">
        <ele>154.2</ele>
        <time>2020-01-19T09:36:42Z</time>
      </trkpt>
      <trkpt lat="40.7421690" lon="-8.2041180">
        <ele>155.2</ele>
        <time>2020-01-19T09:36:50Z</time>
      </trkpt>
      <trkpt lat="40.7421660" lon="-8.2040880">
        <ele>155.4</ele>
        <time>2020-01-19T09:36:51Z</time>
      </trkpt>
      <trkpt lat="40.7421790" lon="-8.2039270">
        <ele>156.6</ele>
        <time>2020-01-19T09:36:56Z</time>
      </trkpt>
      <trkpt lat="40.7421930" lon="-8.2038280">
        <ele>157.6</ele>
        <time>2020-01-19T09:36:59Z</time>
      </trkpt>
      <trkpt lat="40.7422300" lon="-8.2035830">
        <ele>158.0</ele>
        <time>2020-01-19T09:37:07Z</time>
      </trkpt>
      <trkpt lat="40.7422420" lon="-8.2034290">
        <ele>158.6</ele>
        <time>2020-01-19T09:37:12Z</time>
      </trkpt>
      <trkpt lat="40.7422670" lon="-8.2032130">
        <ele>159.8</ele>
        <time>2020-01-19T09:37:19Z</time>
      </trkpt>
      <trkpt lat="40.7422780" lon="-8.2030930">
        <ele>161.0</ele>
        <time>2020-01-19T09:37:23Z</time>
      </trkpt>
      <trkpt lat="40.7422990" lon="-8.2028320">
        <ele>162.0</ele>
        <time>2020-01-19T09:37:32Z</time>
      </trkpt>
      <trkpt lat="40.7422380" lon="-8.2026590">
        <ele>163.0</ele>
        <time>2020-01-19T09:37:39Z</time>
      </trkpt>
      <trkpt lat="40.7421610" lon="-8.2025800">
        <ele>164.0</ele>
        <time>2020-01-19T09:37:43Z</time>
      </trkpt>
      <trkpt lat="40.7420820" lon="-8.2025430">
        <ele>165.4</ele>
        <time>2020-01-19T09:37:47Z</time>
      </trkpt>
      <trkpt lat="40.7420010" lon="-8.2025150">
        <ele>166.4</ele>
        <time>2020-01-19T09:37:51Z</time>
      </trkpt>
      <trkpt lat="40.7418380" lon="-8.2024090">
        <ele>167.4</ele>
        <time>2020-01-19T09:37:59Z</time>
      </trkpt>
      <trkpt lat="40.7417200" lon="-8.2022490">
        <ele>168.6</ele>
        <time>2020-01-19T09:38:06Z</time>
      </trkpt>
      <trkpt lat="40.7416700" lon="-8.2021410">
        <ele>169.6</ele>
        <time>2020-01-19T09:38:10Z</time>
      </trkpt>
      <trkpt lat="40.7416230" lon="-8.2019880">
        <ele>170.8</ele>
        <time>2020-01-19T09:38:15Z</time>
      </trkpt>
      <trkpt lat="40.7416470" lon="-8.2017520">
        <ele>171.4</ele>
        <time>2020-01-19T09:38:23Z</time>
      </trkpt>
      <trkpt lat="40.7416560" lon="-8.2016590">
        <ele>171.8</ele>
        <time>2020-01-19T09:38:26Z</time>
      </trkpt>
      <trkpt lat="40.7416270" lon="-8.2014000">
        <ele>173.0</ele>
        <time>2020-01-19T09:38:34Z</time>
      </trkpt>
      <trkpt lat="40.7415330" lon="-8.2012420">
        <ele>174.2</ele>
        <time>2020-01-19T09:38:40Z</time>
      </trkpt>
      <trkpt lat="40.7413690" lon="-8.2010760">
        <ele>175.0</ele>
        <time>2020-01-19T09:38:48Z</time>
      </trkpt>
      <trkpt lat="40.7412660" lon="-8.2008660">
        <ele>175.0</ele>
        <time>2020-01-19T09:38:55Z</time>
      </trkpt>
      <trkpt lat="40.7413250" lon="-8.2006280">
        <ele>174.6</ele>
        <time>2020-01-19T09:39:02Z</time>
      </trkpt>
      <trkpt lat="40.7414590" lon="-8.2004580">
        <ele>174.8</ele>
        <time>2020-01-19T09:39:09Z</time>
      </trkpt>
      <trkpt lat="40.7415200" lon="-8.2004000">
        <ele>175.4</ele>
        <time>2020-01-19T09:39:12Z</time>
      </trkpt>
      <trkpt lat="40.7416910" lon="-8.2003190">
        <ele>176.4</ele>
        <time>2020-01-19T09:39:19Z</time>
      </trkpt>
      <trkpt lat="40.7418720" lon="-8.2003010">
        <ele>176.8</ele>
        <time>2020-01-19T09:39:26Z</time>
      </trkpt>
      <trkpt lat="40.7420480" lon="-8.2003020">
        <ele>177.8</ele>
        <time>2020-01-19T09:39:34Z</time>
      </trkpt>
      <trkpt lat="40.7421110" lon="-8.2002960">
        <ele>178.8</ele>
        <time>2020-01-19T09:39:37Z</time>
      </trkpt>
      <trkpt lat="40.7422890" lon="-8.2002450">
        <ele>179.6</ele>
        <time>2020-01-19T09:39:45Z</time>
      </trkpt>
      <trkpt lat="40.7423370" lon="-8.2002120">
        <ele>179.8</ele>
        <time>2020-01-19T09:39:47Z</time>
      </trkpt>
      <trkpt lat="40.7424470" lon="-8.2000970">
        <ele>181.0</ele>
        <time>2020-01-19T09:39:52Z</time>
      </trkpt>
      <trkpt lat="40.7424920" lon="-8.2000120">
        <ele>182.0</ele>
        <time>2020-01-19T09:39:55Z</time>
      </trkpt>
      <trkpt lat="40.7425360" lon="-8.1998450">
        <ele>183.2</ele>
        <time>2020-01-19T09:40:00Z</time>
      </trkpt>
      <trkpt lat="40.7425320" lon="-8.1996040">
        <ele>183.6</ele>
        <time>2020-01-19T09:40:07Z</time>
      </trkpt>
      <trkpt lat="40.7425150" lon="-8.1993430">
        <ele>184.0</ele>
        <time>2020-01-19T09:40:15Z</time>
      </trkpt>
      <trkpt lat="40.7425180" lon="-8.1992800">
        <ele>184.2</ele>
        <time>2020-01-19T09:40:17Z</time>
      </trkpt>
      <trkpt lat="40.7425690" lon="-8.1991130">
        <ele>185.4</ele>
        <time>2020-01-19T09:40:23Z</time>
      </trkpt>
      <trkpt lat="40.7426770" lon="-8.1989370">
        <ele>186.4</ele>
        <time>2020-01-19T09:40:31Z</time>
      </trkpt>
      <trkpt lat="40.7427170" lon="-8.1988010">
        <ele>187.6</ele>
        <time>2020-01-19T09:40:36Z</time>
      </trkpt>
      <trkpt lat="40.7427340" lon="-8.1987120">
        <ele>188.6</ele>
        <time>2020-01-19T09:40:39Z</time>
      </trkpt>
      <trkpt lat="40.7427460" lon="-8.1984680">
        <ele>189.6</ele>
        <time>2020-01-19T09:40:47Z</time>
      </trkpt>
      <trkpt lat="40.7427420" lon="-8.1984110">
        <ele>189.8</ele>
        <time>2020-01-19T09:40:49Z</time>
      </trkpt>
      <trkpt lat="40.7428060" lon="-8.1981840">
        <ele>190.6</ele>
        <time>2020-01-19T09:40:58Z</time>
      </trkpt>
      <trkpt lat="40.7428120" lon="-8.1981290">
        <ele>190.8</ele>
        <time>2020-01-19T09:41:00Z</time>
      </trkpt>
      <trkpt lat="40.7428500" lon="-8.1979990">
        <ele>191.8</ele>
        <time>2020-01-19T09:41:05Z</time>
      </trkpt>
      <trkpt lat="40.7428600" lon="-8.1979700">
        <ele>192.2</ele>
        <time>2020-01-19T09:41:06Z</time>
      </trkpt>
      <trkpt lat="40.7429130" lon="-8.1978640">
        <ele>193.0</ele>
        <time>2020-01-19T09:41:10Z</time>
      </trkpt>
      <trkpt lat="40.7429310" lon="-8.1978390">
        <ele>193.2</ele>
        <time>2020-01-19T09:41:11Z</time>
      </trkpt>
      <trkpt lat="40.7429840" lon="-8.1977760">
        <ele>194.4</ele>
        <time>2020-01-19T09:41:14Z</time>
      </trkpt>
      <trkpt lat="40.7430990" lon="-8.1976910">
        <ele>195.0</ele>
        <time>2020-01-19T09:41:20Z</time>
      </trkpt>
      <trkpt lat="40.7431960" lon="-8.1976730">
        <ele>195.4</ele>
        <time>2020-01-19T09:41:24Z</time>
      </trkpt>
      <trkpt lat="40.7432200" lon="-8.1976680">
        <ele>195.6</ele>
        <time>2020-01-19T09:41:25Z</time>
      </trkpt>
      <trkpt lat="40.7432870" lon="-8.1976480">
        <ele>196.2</ele>
        <time>2020-01-19T09:41:28Z</time>
      </trkpt>
      <trkpt lat="40.7433090" lon="-8.1976360">
        <ele>196.4</ele>
        <time>2020-01-19T09:41:29Z</time>
      </trkpt>
      <trkpt lat="40.7433540" lon="-8.1976030">
        <ele>197.0</ele>
        <time>2020-01-19T09:41:31Z</time>
      </trkpt>
      <trkpt lat="40.7434000" lon="-8.1975660">
        <ele>197.6</ele>
        <time>2020-01-19T09:41:33Z</time>
      </trkpt>
      <trkpt lat="40.7434750" lon="-8.1974670">
        <ele>198.6</ele>
        <time>2020-01-19T09:41:37Z</time>
      </trkpt>
      <trkpt lat="40.7435500" lon="-8.1972330">
        <ele>199.4</ele>
        <time>2020-01-19T09:41:44Z</time>
      </trkpt>
      <trkpt lat="40.7435660" lon="-8.1971660">
        <ele>199.6</ele>
        <time>2020-01-19T09:41:46Z</time>
      </trkpt>
      <trkpt lat="40.7435790" lon="-8.1970960">
        <ele>199.6</ele>
        <time>2020-01-19T09:41:48Z</time>
      </trkpt>
      <trkpt lat="40.7435840" lon="-8.1970590">
        <ele>199.8</ele>
        <time>2020-01-19T09:41:49Z</time>
      </trkpt>
      <trkpt lat="40.7435880" lon="-8.1970220">
        <ele>199.8</ele>
        <time>2020-01-19T09:41:50Z</time>
      </trkpt>
      <trkpt lat="40.7436000" lon="-8.1968850">
        <ele>199.8</ele>
        <time>2020-01-19T09:41:54Z</time>
      </trkpt>
      <trkpt lat="40.7436030" lon="-8.1967810">
        <ele>200.0</ele>
        <time>2020-01-19T09:41:57Z</time>
      </trkpt>
      <trkpt lat="40.7436710" lon="-8.1965350">
        <ele>200.4</ele>
        <time>2020-01-19T09:42:05Z</time>
      </trkpt>
      <trkpt lat="40.7437120" lon="-8.1964480">
        <ele>200.6</ele>
        <time>2020-01-19T09:42:08Z</time>
      </trkpt>
      <trkpt lat="40.7437260" lon="-8.1964210">
        <ele>200.6</ele>
        <time>2020-01-19T09:42:09Z</time>
      </trkpt>
      <trkpt lat="40.7438410" lon="-8.1961980">
        <ele>201.0</ele>
        <time>2020-01-19T09:42:17Z</time>
      </trkpt>
      <trkpt lat="40.7439300" lon="-8.1959620">
        <ele>201.2</ele>
        <time>2020-01-19T09:42:25Z</time>
      </trkpt>
      <trkpt lat="40.7439190" lon="-8.1957410">
        <ele>201.8</ele>
        <time>2020-01-19T09:42:32Z</time>
      </trkpt>
      <trkpt lat="40.7438460" lon="-8.1955230">
        <ele>202.4</ele>
        <time>2020-01-19T09:42:40Z</time>
      </trkpt>
      <trkpt lat="40.7438150" lon="-8.1954430">
        <ele>202.8</ele>
        <time>2020-01-19T09:42:43Z</time>
      </trkpt>
      <trkpt lat="40.7437780" lon="-8.1953110">
        <ele>203.8</ele>
        <time>2020-01-19T09:42:48Z</time>
      </trkpt>
      <trkpt lat="40.7437550" lon="-8.1952400">
        <ele>204.6</ele>
        <time>2020-01-19T09:42:51Z</time>
      </trkpt>
      <trkpt lat="40.7437420" lon="-8.1951900">
        <ele>204.8</ele>
        <time>2020-01-19T09:42:53Z</time>
      </trkpt>
      <trkpt lat="40.7437100" lon="-8.1950640">
        <ele>205.4</ele>
        <time>2020-01-19T09:42:58Z</time>
      </trkpt>
      <trkpt lat="40.7437040" lon="-8.1950110">
        <ele>206.0</ele>
        <time>2020-01-19T09:43:00Z</time>
      </trkpt>
      <trkpt lat="40.7437010" lon="-8.1949570">
        <ele>206.8</ele>
        <time>2020-01-19T09:43:02Z</time>
      </trkpt>
      <trkpt lat="40.7437030" lon="-8.1949310">
        <ele>207.4</ele>
        <time>2020-01-19T09:43:03Z</time>
      </trkpt>
      <trkpt lat="40.7437150" lon="-8.1947660">
        <ele>208.4</ele>
        <time>2020-01-19T09:43:09Z</time>
      </trkpt>
      <trkpt lat="40.7437310" lon="-8.1946840">
        <ele>209.0</ele>
        <time>2020-01-19T09:43:12Z</time>
      </trkpt>
      <trkpt lat="40.7437410" lon="-8.1946210">
        <ele>209.8</ele>
        <time>2020-01-19T09:43:14Z</time>
      </trkpt>
      <trkpt lat="40.7437500" lon="-8.1944720">
        <ele>211.0</ele>
        <time>2020-01-19T09:43:19Z</time>
      </trkpt>
      <trkpt lat="40.7437500" lon="-8.1942770">
        <ele>212.2</ele>
        <time>2020-01-19T09:43:26Z</time>
      </trkpt>
      <trkpt lat="40.7437350" lon="-8.1941670">
        <ele>213.4</ele>
        <time>2020-01-19T09:43:30Z</time>
      </trkpt>
      <trkpt lat="40.7437230" lon="-8.1940140">
        <ele>214.0</ele>
        <time>2020-01-19T09:43:36Z</time>
      </trkpt>
      <trkpt lat="40.7437120" lon="-8.1939030">
        <ele>214.4</ele>
        <time>2020-01-19T09:43:40Z</time>
      </trkpt>
      <trkpt lat="40.7437050" lon="-8.1938440">
        <ele>214.6</ele>
        <time>2020-01-19T09:43:42Z</time>
      </trkpt>
      <trkpt lat="40.7437050" lon="-8.1937890">
        <ele>214.6</ele>
        <time>2020-01-19T09:43:44Z</time>
      </trkpt>
      <trkpt lat="40.7436580" lon="-8.1936230">
        <ele>216.0</ele>
        <time>2020-01-19T09:43:50Z</time>
      </trkpt>
      <trkpt lat="40.7436090" lon="-8.1935170">
        <ele>217.0</ele>
        <time>2020-01-19T09:43:54Z</time>
      </trkpt>
      <trkpt lat="40.7435710" lon="-8.1934390">
        <ele>217.6</ele>
        <time>2020-01-19T09:43:57Z</time>
      </trkpt>
      <trkpt lat="40.7434880" lon="-8.1932950">
        <ele>218.0</ele>
        <time>2020-01-19T09:44:03Z</time>
      </trkpt>
      <trkpt lat="40.7433850" lon="-8.1930750">
        <ele>218.8</ele>
        <time>2020-01-19T09:44:12Z</time>
      </trkpt>
      <trkpt lat="40.7433730" lon="-8.1930240">
        <ele>219.2</ele>
        <time>2020-01-19T09:44:14Z</time>
      </trkpt>
      <trkpt lat="40.7433460" lon="-8.1928450">
        <ele>220.4</ele>
        <time>2020-01-19T09:44:20Z</time>
      </trkpt>
      <trkpt lat="40.7433420" lon="-8.1927210">
        <ele>221.4</ele>
        <time>2020-01-19T09:44:24Z</time>
      </trkpt>
      <trkpt lat="40.7433320" lon="-8.1926650">
        <ele>221.8</ele>
        <time>2020-01-19T09:44:26Z</time>
      </trkpt>
      <trkpt lat="40.7433110" lon="-8.1925620">
        <ele>222.6</ele>
        <time>2020-01-19T09:44:30Z</time>
      </trkpt>
      <trkpt lat="40.7431990" lon="-8.1923510">
        <ele>223.4</ele>
        <time>2020-01-19T09:44:39Z</time>
      </trkpt>
      <trkpt lat="40.7431780" lon="-8.1923330">
        <ele>223.6</ele>
        <time>2020-01-19T09:44:40Z</time>
      </trkpt>
      <trkpt lat="40.7431220" lon="-8.1922830">
        <ele>224.0</ele>
        <time>2020-01-19T09:44:43Z</time>
      </trkpt>
      <trkpt lat="40.7430820" lon="-8.1922510">
        <ele>224.4</ele>
        <time>2020-01-19T09:44:45Z</time>
      </trkpt>
      <trkpt lat="40.7430620" lon="-8.1922330">
        <ele>224.6</ele>
        <time>2020-01-19T09:44:46Z</time>
      </trkpt>
      <trkpt lat="40.7430410" lon="-8.1922150">
        <ele>224.8</ele>
        <time>2020-01-19T09:44:47Z</time>
      </trkpt>
      <trkpt lat="40.7428680" lon="-8.1921010">
        <ele>225.6</ele>
        <time>2020-01-19T09:44:56Z</time>
      </trkpt>
      <trkpt lat="40.7428470" lon="-8.1920930">
        <ele>225.8</ele>
        <time>2020-01-19T09:44:57Z</time>
      </trkpt>
      <trkpt lat="40.7426730" lon="-8.1920320">
        <ele>226.8</ele>
        <time>2020-01-19T09:45:05Z</time>
      </trkpt>
      <trkpt lat="40.7426500" lon="-8.1920260">
        <ele>226.8</ele>
        <time>2020-01-19T09:45:06Z</time>
      </trkpt>
      <trkpt lat="40.7425360" lon="-8.1919710">
        <ele>227.8</ele>
        <time>2020-01-19T09:45:11Z</time>
      </trkpt>
      <trkpt lat="40.7424430" lon="-8.1919180">
        <ele>228.8</ele>
        <time>2020-01-19T09:45:16Z</time>
      </trkpt>
      <trkpt lat="40.7423690" lon="-8.1918670">
        <ele>230.0</ele>
        <time>2020-01-19T09:45:20Z</time>
      </trkpt>
      <trkpt lat="40.7422980" lon="-8.1917950">
        <ele>231.2</ele>
        <time>2020-01-19T09:45:24Z</time>
      </trkpt>
      <trkpt lat="40.7422330" lon="-8.1917170">
        <ele>231.6</ele>
        <time>2020-01-19T09:45:28Z</time>
      </trkpt>
      <trkpt lat="40.7421360" lon="-8.1915650">
        <ele>232.2</ele>
        <time>2020-01-19T09:45:35Z</time>
      </trkpt>
      <trkpt lat="40.7420730" lon="-8.1914700">
        <ele>232.6</ele>
        <time>2020-01-19T09:45:39Z</time>
      </trkpt>
      <trkpt lat="40.7420390" lon="-8.1913830">
        <ele>233.2</ele>
        <time>2020-01-19T09:45:43Z</time>
      </trkpt>
      <trkpt lat="40.7420130" lon="-8.1913000">
        <ele>234.2</ele>
        <time>2020-01-19T09:45:47Z</time>
      </trkpt>
      <trkpt lat="40.7420040" lon="-8.1912770">
        <ele>234.4</ele>
        <time>2020-01-19T09:45:48Z</time>
      </trkpt>
      <trkpt lat="40.7419700" lon="-8.1911760">
        <ele>235.6</ele>
        <time>2020-01-19T09:45:52Z</time>
      </trkpt>
      <trkpt lat="40.7419460" lon="-8.1911230">
        <ele>236.2</ele>
        <time>2020-01-19T09:45:54Z</time>
      </trkpt>
      <trkpt lat="40.7419370" lon="-8.1910970">
        <ele>236.6</ele>
        <time>2020-01-19T09:45:55Z</time>
      </trkpt>
      <trkpt lat="40.7419010" lon="-8.1909800">
        <ele>237.6</ele>
        <time>2020-01-19T09:46:00Z</time>
      </trkpt>
      <trkpt lat="40.7418660" lon="-8.1908990">
        <ele>238.4</ele>
        <time>2020-01-19T09:46:03Z</time>
      </trkpt>
      <trkpt lat="40.7418310" lon="-8.1908370">
        <ele>238.8</ele>
        <time>2020-01-19T09:46:05Z</time>
      </trkpt>
      <trkpt lat="40.7417760" lon="-8.1907370">
        <ele>239.4</ele>
        <time>2020-01-19T09:46:09Z</time>
      </trkpt>
      <trkpt lat="40.7417290" lon="-8.1906690">
        <ele>239.6</ele>
        <time>2020-01-19T09:46:12Z</time>
      </trkpt>
      <trkpt lat="40.7416980" lon="-8.1906270">
        <ele>240.0</ele>
        <time>2020-01-19T09:46:14Z</time>
      </trkpt>
      <trkpt lat="40.7416660" lon="-8.1905800">
        <ele>240.2</ele>
        <time>2020-01-19T09:46:17Z</time>
      </trkpt>
      <trkpt lat="40.7416040" lon="-8.1904580">
        <ele>241.0</ele>
        <time>2020-01-19T09:46:23Z</time>
      </trkpt>
      <trkpt lat="40.7415250" lon="-8.1903480">
        <ele>242.0</ele>
        <time>2020-01-19T09:46:28Z</time>
      </trkpt>
      <trkpt lat="40.7413850" lon="-8.1902020">
        <ele>243.2</ele>
        <time>2020-01-19T09:46:36Z</time>
      </trkpt>
      <trkpt lat="40.7412230" lon="-8.1900630">
        <ele>244.0</ele>
        <time>2020-01-19T09:46:44Z</time>
      </trkpt>
      <trkpt lat="40.7412010" lon="-8.1900440">
        <ele>244.2</ele>
        <time>2020-01-19T09:46:45Z</time>
      </trkpt>
      <trkpt lat="40.7410530" lon="-8.1899330">
        <ele>245.2</ele>
        <time>2020-01-19T09:46:52Z</time>
      </trkpt>
      <trkpt lat="40.7409040" lon="-8.1897960">
        <ele>246.0</ele>
        <time>2020-01-19T09:46:59Z</time>
      </trkpt>
      <trkpt lat="40.7408670" lon="-8.1897600">
        <ele>246.4</ele>
        <time>2020-01-19T09:47:01Z</time>
      </trkpt>
      <trkpt lat="40.7408500" lon="-8.1897450">
        <ele>246.4</ele>
        <time>2020-01-19T09:47:02Z</time>
      </trkpt>
      <trkpt lat="40.7407680" lon="-8.1896860">
        <ele>247.4</ele>
        <time>2020-01-19T09:47:06Z</time>
      </trkpt>
      <trkpt lat="40.7406320" lon="-8.1896130">
        <ele>248.4</ele>
        <time>2020-01-19T09:47:12Z</time>
      </trkpt>
      <trkpt lat="40.7405170" lon="-8.1895550">
        <ele>249.6</ele>
        <time>2020-01-19T09:47:17Z</time>
      </trkpt>
      <trkpt lat="40.7404710" lon="-8.1895360">
        <ele>249.8</ele>
        <time>2020-01-19T09:47:19Z</time>
      </trkpt>
      <trkpt lat="40.7402950" lon="-8.1894660">
        <ele>250.0</ele>
        <time>2020-01-19T09:47:27Z</time>
      </trkpt>
      <trkpt lat="40.7401340" lon="-8.1893520">
        <ele>250.6</ele>
        <time>2020-01-19T09:47:35Z</time>
      </trkpt>
      <trkpt lat="40.7401120" lon="-8.1893300">
        <ele>250.6</ele>
        <time>2020-01-19T09:47:36Z</time>
      </trkpt>
      <trkpt lat="40.7399830" lon="-8.1891500">
        <ele>251.2</ele>
        <time>2020-01-19T09:47:43Z</time>
      </trkpt>
      <trkpt lat="40.7399380" lon="-8.1890320">
        <ele>251.8</ele>
        <time>2020-01-19T09:47:47Z</time>
      </trkpt>
      <trkpt lat="40.7398530" lon="-8.1888040">
        <ele>253.0</ele>
        <time>2020-01-19T09:47:55Z</time>
      </trkpt>
      <trkpt lat="40.7398020" lon="-8.1886390">
        <ele>254.0</ele>
        <time>2020-01-19T09:48:01Z</time>
      </trkpt>
      <trkpt lat="40.7397900" lon="-8.1886120">
        <ele>254.0</ele>
        <time>2020-01-19T09:48:02Z</time>
      </trkpt>
      <trkpt lat="40.7396810" lon="-8.1884060">
        <ele>255.2</ele>
        <time>2020-01-19T09:48:10Z</time>
      </trkpt>
      <trkpt lat="40.7395920" lon="-8.1881890">
        <ele>256.2</ele>
        <time>2020-01-19T09:48:18Z</time>
      </trkpt>
      <trkpt lat="40.7395400" lon="-8.1880570">
        <ele>256.6</ele>
        <time>2020-01-19T09:48:23Z</time>
      </trkpt>
      <trkpt lat="40.7395010" lon="-8.1879510">
        <ele>257.0</ele>
        <time>2020-01-19T09:48:27Z</time>
      </trkpt>
      <trkpt lat="40.7394950" lon="-8.1879270">
        <ele>257.2</ele>
        <time>2020-01-19T09:48:28Z</time>
      </trkpt>
      <trkpt lat="40.7394430" lon="-8.1877910">
        <ele>258.2</ele>
        <time>2020-01-19T09:48:34Z</time>
      </trkpt>
      <trkpt lat="40.7393770" lon="-8.1876540">
        <ele>259.4</ele>
        <time>2020-01-19T09:48:40Z</time>
      </trkpt>
      <trkpt lat="40.7392720" lon="-8.1875420">
        <ele>260.6</ele>
        <time>2020-01-19T09:48:46Z</time>
      </trkpt>
      <trkpt lat="40.7391640" lon="-8.1874860">
        <ele>261.8</ele>
        <time>2020-01-19T09:48:51Z</time>
      </trkpt>
      <trkpt lat="40.7389820" lon="-8.1874520">
        <ele>262.6</ele>
        <time>2020-01-19T09:48:59Z</time>
      </trkpt>
      <trkpt lat="40.7389620" lon="-8.1874530">
        <ele>263.0</ele>
        <time>2020-01-19T09:49:00Z</time>
      </trkpt>
      <trkpt lat="40.7388760" lon="-8.1874650">
        <ele>264.2</ele>
        <time>2020-01-19T09:49:04Z</time>
      </trkpt>
      <trkpt lat="40.7387240" lon="-8.1874980">
        <ele>265.2</ele>
        <time>2020-01-19T09:49:11Z</time>
      </trkpt>
      <trkpt lat="40.7385610" lon="-8.1875300">
        <ele>266.2</ele>
        <time>2020-01-19T09:49:18Z</time>
      </trkpt>
      <trkpt lat="40.7383630" lon="-8.1875550">
        <ele>267.4</ele>
        <time>2020-01-19T09:49:27Z</time>
      </trkpt>
      <trkpt lat="40.7382430" lon="-8.1875780">
        <ele>268.4</ele>
        <time>2020-01-19T09:49:33Z</time>
      </trkpt>
      <trkpt lat="40.7380770" lon="-8.1875960">
        <ele>269.4</ele>
        <time>2020-01-19T09:49:41Z</time>
      </trkpt>
      <trkpt lat="40.7379520" lon="-8.1876080">
        <ele>270.6</ele>
        <time>2020-01-19T09:49:47Z</time>
      </trkpt>
      <trkpt lat="40.7378280" lon="-8.1876260">
        <ele>271.6</ele>
        <time>2020-01-19T09:49:53Z</time>
      </trkpt>
      <trkpt lat="40.7377000" lon="-8.1876350">
        <ele>272.6</ele>
        <time>2020-01-19T09:49:59Z</time>
      </trkpt>
      <trkpt lat="40.7375990" lon="-8.1876410">
        <ele>273.4</ele>
        <time>2020-01-19T09:50:04Z</time>
      </trkpt>
      <trkpt lat="40.7375820" lon="-8.1876440">
        <ele>273.6</ele>
        <time>2020-01-19T09:50:05Z</time>
      </trkpt>
      <trkpt lat="40.7374600" lon="-8.1876700">
        <ele>274.8</ele>
        <time>2020-01-19T09:50:12Z</time>
      </trkpt>
      <trkpt lat="40.7374010" lon="-8.1876760">
        <ele>275.2</ele>
        <time>2020-01-19T09:50:15Z</time>
      </trkpt>
      <trkpt lat="40.7373390" lon="-8.1876810">
        <ele>275.8</ele>
        <time>2020-01-19T09:50:18Z</time>
      </trkpt>
      <trkpt lat="40.7372270" lon="-8.1876910">
        <ele>277.0</ele>
        <time>2020-01-19T09:50:24Z</time>
      </trkpt>
      <trkpt lat="40.7371320" lon="-8.1876910">
        <ele>278.2</ele>
        <time>2020-01-19T09:50:29Z</time>
      </trkpt>
      <trkpt lat="40.7370510" lon="-8.1877090">
        <ele>279.2</ele>
        <time>2020-01-19T09:50:34Z</time>
      </trkpt>
      <trkpt lat="40.7369490" lon="-8.1877070">
        <ele>280.4</ele>
        <time>2020-01-19T09:50:39Z</time>
      </trkpt>
      <trkpt lat="40.7368700" lon="-8.1876590">
        <ele>281.4</ele>
        <time>2020-01-19T09:50:43Z</time>
      </trkpt>
      <trkpt lat="40.7367770" lon="-8.1874570">
        <ele>282.2</ele>
        <time>2020-01-19T09:50:52Z</time>
      </trkpt>
      <trkpt lat="40.7367760" lon="-8.1873990">
        <ele>282.6</ele>
        <time>2020-01-19T09:50:54Z</time>
      </trkpt>
      <trkpt lat="40.7368150" lon="-8.1871700">
        <ele>283.6</ele>
        <time>2020-01-19T09:51:02Z</time>
      </trkpt>
      <trkpt lat="40.7368280" lon="-8.1871440">
        <ele>283.8</ele>
        <time>2020-01-19T09:51:03Z</time>
      </trkpt>
      <trkpt lat="40.7368400" lon="-8.1870880">
        <ele>284.0</ele>
        <time>2020-01-19T09:51:05Z</time>
      </trkpt>
      <trkpt lat="40.7368850" lon="-8.1868650">
        <ele>284.8</ele>
        <time>2020-01-19T09:51:13Z</time>
      </trkpt>
      <trkpt lat="40.7368510" lon="-8.1866610">
        <ele>286.0</ele>
        <time>2020-01-19T09:51:20Z</time>
      </trkpt>
      <trkpt lat="40.7367930" lon="-8.1865370">
        <ele>287.0</ele>
        <time>2020-01-19T09:51:25Z</time>
      </trkpt>
      <trkpt lat="40.7366380" lon="-8.1863940">
        <ele>287.6</ele>
        <time>2020-01-19T09:51:33Z</time>
      </trkpt>
      <trkpt lat="40.7365570" lon="-8.1863130">
        <ele>288.2</ele>
        <time>2020-01-19T09:51:38Z</time>
      </trkpt>
      <trkpt lat="40.7364730" lon="-8.1862260">
        <ele>289.4</ele>
        <time>2020-01-19T09:51:43Z</time>
      </trkpt>
      <trkpt lat="40.7363720" lon="-8.1860820">
        <ele>290.4</ele>
        <time>2020-01-19T09:51:50Z</time>
      </trkpt>
      <trkpt lat="40.7362910" lon="-8.1859640">
        <ele>291.4</ele>
        <time>2020-01-19T09:51:55Z</time>
      </trkpt>
      <trkpt lat="40.7362020" lon="-8.1857830">
        <ele>292.6</ele>
        <time>2020-01-19T09:52:02Z</time>
      </trkpt>
      <trkpt lat="40.7361600" lon="-8.1855970">
        <ele>293.8</ele>
        <time>2020-01-19T09:52:08Z</time>
      </trkpt>
      <trkpt lat="40.7361500" lon="-8.1855080">
        <ele>295.0</ele>
        <time>2020-01-19T09:52:11Z</time>
      </trkpt>
      <trkpt lat="40.7361290" lon="-8.1853480">
        <ele>296.0</ele>
        <time>2020-01-19T09:52:16Z</time>
      </trkpt>
      <trkpt lat="40.7361420" lon="-8.1851070">
        <ele>296.4</ele>
        <time>2020-01-19T09:52:24Z</time>
      </trkpt>
      <trkpt lat="40.7361520" lon="-8.1850150">
        <ele>297.2</ele>
        <time>2020-01-19T09:52:27Z</time>
      </trkpt>
      <trkpt lat="40.7361690" lon="-8.1848030">
        <ele>298.2</ele>
        <time>2020-01-19T09:52:34Z</time>
      </trkpt>
      <trkpt lat="40.7361800" lon="-8.1845900">
        <ele>299.6</ele>
        <time>2020-01-19T09:52:41Z</time>
      </trkpt>
      <trkpt lat="40.7361900" lon="-8.1844400">
        <ele>300.6</ele>
        <time>2020-01-19T09:52:46Z</time>
      </trkpt>
      <trkpt lat="40.7362020" lon="-8.1842620">
        <ele>301.6</ele>
        <time>2020-01-19T09:52:52Z</time>
      </trkpt>
      <trkpt lat="40.7362020" lon="-8.1841660">
        <ele>302.2</ele>
        <time>2020-01-19T09:52:55Z</time>
      </trkpt>
      <trkpt lat="40.7361880" lon="-8.1840580">
        <ele>302.6</ele>
        <time>2020-01-19T09:52:59Z</time>
      </trkpt>
      <trkpt lat="40.7361460" lon="-8.1838250">
        <ele>303.8</ele>
        <time>2020-01-19T09:53:07Z</time>
      </trkpt>
      <trkpt lat="40.7360870" lon="-8.1836430">
        <ele>304.8</ele>
        <time>2020-01-19T09:53:14Z</time>
      </trkpt>
      <trkpt lat="40.7359880" lon="-8.1834640">
        <ele>305.8</ele>
        <time>2020-01-19T09:53:22Z</time>
      </trkpt>
      <trkpt lat="40.7358770" lon="-8.1832870">
        <ele>306.8</ele>
        <time>2020-01-19T09:53:30Z</time>
      </trkpt>
      <trkpt lat="40.7357660" lon="-8.1831020">
        <ele>308.0</ele>
        <time>2020-01-19T09:53:38Z</time>
      </trkpt>
      <trkpt lat="40.7356870" lon="-8.1829420">
        <ele>309.2</ele>
        <time>2020-01-19T09:53:45Z</time>
      </trkpt>
      <trkpt lat="40.7355990" lon="-8.1828130">
        <ele>310.2</ele>
        <time>2020-01-19T09:53:51Z</time>
      </trkpt>
      <trkpt lat="40.7355120" lon="-8.1826660">
        <ele>311.2</ele>
        <time>2020-01-19T09:53:58Z</time>
      </trkpt>
      <trkpt lat="40.7354050" lon="-8.1825580">
        <ele>312.4</ele>
        <time>2020-01-19T09:54:04Z</time>
      </trkpt>
      <trkpt lat="40.7352930" lon="-8.1824310">
        <ele>313.6</ele>
        <time>2020-01-19T09:54:11Z</time>
      </trkpt>
      <trkpt lat="40.7351670" lon="-8.1822870">
        <ele>314.6</ele>
        <time>2020-01-19T09:54:18Z</time>
      </trkpt>
      <trkpt lat="40.7351140" lon="-8.1822350">
        <ele>315.2</ele>
        <time>2020-01-19T09:54:21Z</time>
      </trkpt>
      <trkpt lat="40.7350810" lon="-8.1822050">
        <ele>315.8</ele>
        <time>2020-01-19T09:54:23Z</time>
      </trkpt>
      <trkpt lat="40.7350490" lon="-8.1821710">
        <ele>316.2</ele>
        <time>2020-01-19T09:54:25Z</time>
      </trkpt>
      <trkpt lat="40.7350110" lon="-8.1821400">
        <ele>316.8</ele>
        <time>2020-01-19T09:54:27Z</time>
      </trkpt>
      <trkpt lat="40.7349540" lon="-8.1820970">
        <ele>317.6</ele>
        <time>2020-01-19T09:54:30Z</time>
      </trkpt>
      <trkpt lat="40.7349140" lon="-8.1820660">
        <ele>318.0</ele>
        <time>2020-01-19T09:54:32Z</time>
      </trkpt>
      <trkpt lat="40.7347490" lon="-8.1819610">
        <ele>318.4</ele>
        <time>2020-01-19T09:54:40Z</time>
      </trkpt>
      <trkpt lat="40.7346620" lon="-8.1819110">
        <ele>319.0</ele>
        <time>2020-01-19T09:54:44Z</time>
      </trkpt>
      <trkpt lat="40.7344830" lon="-8.1818350">
        <ele>320.0</ele>
        <time>2020-01-19T09:54:52Z</time>
      </trkpt>
      <trkpt lat="40.7344590" lon="-8.1818330">
        <ele>320.2</ele>
        <time>2020-01-19T09:54:53Z</time>
      </trkpt>
      <trkpt lat="40.7342720" lon="-8.1818220">
        <ele>320.8</ele>
        <time>2020-01-19T09:55:01Z</time>
      </trkpt>
      <trkpt lat="40.7341800" lon="-8.1818080">
        <ele>321.0</ele>
        <time>2020-01-19T09:55:05Z</time>
      </trkpt>
      <trkpt lat="40.7341620" lon="-8.1818060">
        <ele>321.2</ele>
        <time>2020-01-19T09:55:06Z</time>
      </trkpt>
      <trkpt lat="40.7340160" lon="-8.1817220">
        <ele>322.2</ele>
        <time>2020-01-19T09:55:13Z</time>
      </trkpt>
      <trkpt lat="40.7339500" lon="-8.1816300">
        <ele>322.8</ele>
        <time>2020-01-19T09:55:17Z</time>
      </trkpt>
      <trkpt lat="40.7339280" lon="-8.1815700">
        <ele>323.2</ele>
        <time>2020-01-19T09:55:19Z</time>
      </trkpt>
      <trkpt lat="40.7338750" lon="-8.1814700">
        <ele>324.4</ele>
        <time>2020-01-19T09:55:23Z</time>
      </trkpt>
      <trkpt lat="40.7337670" lon="-8.1812740">
        <ele>325.4</ele>
        <time>2020-01-19T09:55:31Z</time>
      </trkpt>
      <trkpt lat="40.7337630" lon="-8.1811850">
        <ele>325.6</ele>
        <time>2020-01-19T09:55:42Z</time>
      </trkpt>
      <trkpt lat="40.7338290" lon="-8.1809460">
        <ele>325.8</ele>
        <time>2020-01-19T09:55:50Z</time>
      </trkpt>
      <trkpt lat="40.7339830" lon="-8.1808080">
        <ele>325.8</ele>
        <time>2020-01-19T09:55:56Z</time>
      </trkpt>
      <trkpt lat="40.7340360" lon="-8.1807680">
        <ele>325.4</ele>
        <time>2020-01-19T09:55:58Z</time>
      </trkpt>
      <trkpt lat="40.7340910" lon="-8.1807330">
        <ele>324.8</ele>
        <time>2020-01-19T09:56:00Z</time>
      </trkpt>
      <trkpt lat="40.7341510" lon="-8.1806980">
        <ele>324.0</ele>
        <time>2020-01-19T09:56:02Z</time>
      </trkpt>
      <trkpt lat="40.7342360" lon="-8.1806370">
        <ele>322.8</ele>
        <time>2020-01-19T09:56:05Z</time>
      </trkpt>
      <trkpt lat="40.7343260" lon="-8.1805770">
        <ele>321.6</ele>
        <time>2020-01-19T09:56:08Z</time>
      </trkpt>
      <trkpt lat="40.7343850" lon="-8.1805370">
        <ele>320.8</ele>
        <time>2020-01-19T09:56:10Z</time>
      </trkpt>
      <trkpt lat="40.7344160" lon="-8.1805160">
        <ele>320.2</ele>
        <time>2020-01-19T09:56:11Z</time>
      </trkpt>
      <trkpt lat="40.7345070" lon="-8.1804630">
        <ele>319.0</ele>
        <time>2020-01-19T09:56:14Z</time>
      </trkpt>
      <trkpt lat="40.7346060" lon="-8.1804170">
        <ele>318.0</ele>
        <time>2020-01-19T09:56:17Z</time>
      </trkpt>
      <trkpt lat="40.7347110" lon="-8.1803760">
        <ele>317.0</ele>
        <time>2020-01-19T09:56:20Z</time>
      </trkpt>
      <trkpt lat="40.7349010" lon="-8.1803440">
        <ele>315.8</ele>
        <time>2020-01-19T09:56:25Z</time>
      </trkpt>
      <trkpt lat="40.7349990" lon="-8.1803450">
        <ele>314.6</ele>
        <time>2020-01-19T09:56:28Z</time>
      </trkpt>
      <trkpt lat="40.7351610" lon="-8.1803740">
        <ele>313.8</ele>
        <time>2020-01-19T09:56:33Z</time>
      </trkpt>
      <trkpt lat="40.7351910" lon="-8.1803820">
        <ele>313.2</ele>
        <time>2020-01-19T09:56:34Z</time>
      </trkpt>
      <trkpt lat="40.7352210" lon="-8.1803930">
        <ele>313.0</ele>
        <time>2020-01-19T09:56:35Z</time>
      </trkpt>
      <trkpt lat="40.7353120" lon="-8.1804220">
        <ele>312.2</ele>
        <time>2020-01-19T09:56:38Z</time>
      </trkpt>
      <trkpt lat="40.7354100" lon="-8.1804550">
        <ele>310.8</ele>
        <time>2020-01-19T09:56:41Z</time>
      </trkpt>
      <trkpt lat="40.7355490" lon="-8.1804910">
        <ele>309.8</ele>
        <time>2020-01-19T09:56:45Z</time>
      </trkpt>
      <trkpt lat="40.7356530" lon="-8.1805220">
        <ele>308.4</ele>
        <time>2020-01-19T09:56:48Z</time>
      </trkpt>
      <trkpt lat="40.7358000" lon="-8.1805240">
        <ele>307.0</ele>
        <time>2020-01-19T09:56:52Z</time>
      </trkpt>
      <trkpt lat="40.7359430" lon="-8.1804740">
        <ele>305.6</ele>
        <time>2020-01-19T09:56:56Z</time>
      </trkpt>
      <trkpt lat="40.7360470" lon="-8.1804180">
        <ele>304.4</ele>
        <time>2020-01-19T09:56:59Z</time>
      </trkpt>
      <trkpt lat="40.7361480" lon="-8.1803560">
        <ele>303.0</ele>
        <time>2020-01-19T09:57:02Z</time>
      </trkpt>
      <trkpt lat="40.7362460" lon="-8.1802900">
        <ele>301.6</ele>
        <time>2020-01-19T09:57:05Z</time>
      </trkpt>
      <trkpt lat="40.7363740" lon="-8.1802100">
        <ele>300.4</ele>
        <time>2020-01-19T09:57:09Z</time>
      </trkpt>
      <trkpt lat="40.7364370" lon="-8.1801660">
        <ele>299.2</ele>
        <time>2020-01-19T09:57:11Z</time>
      </trkpt>
      <trkpt lat="40.7365870" lon="-8.1800580">
        <ele>298.0</ele>
        <time>2020-01-19T09:57:16Z</time>
      </trkpt>
      <trkpt lat="40.7367460" lon="-8.1799450">
        <ele>297.2</ele>
        <time>2020-01-19T09:57:21Z</time>
      </trkpt>
      <trkpt lat="40.7367780" lon="-8.1799230">
        <ele>297.0</ele>
        <time>2020-01-19T09:57:22Z</time>
      </trkpt>
      <trkpt lat="40.7369360" lon="-8.1798160">
        <ele>295.8</ele>
        <time>2020-01-19T09:57:27Z</time>
      </trkpt>
      <trkpt lat="40.7371340" lon="-8.1797250">
        <ele>295.0</ele>
        <time>2020-01-19T09:57:33Z</time>
      </trkpt>
      <trkpt lat="40.7372350" lon="-8.1797160">
        <ele>294.8</ele>
        <time>2020-01-19T09:57:36Z</time>
      </trkpt>
      <trkpt lat="40.7373040" lon="-8.1797220">
        <ele>294.6</ele>
        <time>2020-01-19T09:57:38Z</time>
      </trkpt>
      <trkpt lat="40.7373720" lon="-8.1797280">
        <ele>294.6</ele>
        <time>2020-01-19T09:57:40Z</time>
      </trkpt>
      <trkpt lat="40.7375100" lon="-8.1797520">
        <ele>293.8</ele>
        <time>2020-01-19T09:57:44Z</time>
      </trkpt>
      <trkpt lat="40.7377140" lon="-8.1797890">
        <ele>292.6</ele>
        <time>2020-01-19T09:57:50Z</time>
      </trkpt>
      <trkpt lat="40.7379120" lon="-8.1798160">
        <ele>292.0</ele>
        <time>2020-01-19T09:57:56Z</time>
      </trkpt>
      <trkpt lat="40.7379470" lon="-8.1798200">
        <ele>291.6</ele>
        <time>2020-01-19T09:57:57Z</time>
      </trkpt>
      <trkpt lat="40.7381500" lon="-8.1798330">
        <ele>290.6</ele>
        <time>2020-01-19T09:58:03Z</time>
      </trkpt>
      <trkpt lat="40.7381830" lon="-8.1798340">
        <ele>290.6</ele>
        <time>2020-01-19T09:58:04Z</time>
      </trkpt>
      <trkpt lat="40.7383790" lon="-8.1798510">
        <ele>289.6</ele>
        <time>2020-01-19T09:58:10Z</time>
      </trkpt>
      <trkpt lat="40.7385920" lon="-8.1798680">
        <ele>288.6</ele>
        <time>2020-01-19T09:58:16Z</time>
      </trkpt>
      <trkpt lat="40.7386270" lon="-8.1798760">
        <ele>288.4</ele>
        <time>2020-01-19T09:58:17Z</time>
      </trkpt>
      <trkpt lat="40.7388070" lon="-8.1799040">
        <ele>287.4</ele>
        <time>2020-01-19T09:58:22Z</time>
      </trkpt>
      <trkpt lat="40.7389440" lon="-8.1799260">
        <ele>286.4</ele>
        <time>2020-01-19T09:58:26Z</time>
      </trkpt>
      <trkpt lat="40.7390810" lon="-8.1799290">
        <ele>285.4</ele>
        <time>2020-01-19T09:58:30Z</time>
      </trkpt>
      <trkpt lat="40.7391170" lon="-8.1799270">
        <ele>285.2</ele>
        <time>2020-01-19T09:58:31Z</time>
      </trkpt>
      <trkpt lat="40.7392280" lon="-8.1799060">
        <ele>284.0</ele>
        <time>2020-01-19T09:58:34Z</time>
      </trkpt>
      <trkpt lat="40.7393660" lon="-8.1798590">
        <ele>282.8</ele>
        <time>2020-01-19T09:58:38Z</time>
      </trkpt>
      <trkpt lat="40.7394780" lon="-8.1797960">
        <ele>281.4</ele>
        <time>2020-01-19T09:58:41Z</time>
      </trkpt>
      <trkpt lat="40.7396050" lon="-8.1796930">
        <ele>280.2</ele>
        <time>2020-01-19T09:58:45Z</time>
      </trkpt>
      <trkpt lat="40.7396650" lon="-8.1796430">
        <ele>278.8</ele>
        <time>2020-01-19T09:58:47Z</time>
      </trkpt>
      <trkpt lat="40.7398070" lon="-8.1795590">
        <ele>277.8</ele>
        <time>2020-01-19T09:58:51Z</time>
      </trkpt>
      <trkpt lat="40.7398760" lon="-8.1795130">
        <ele>276.6</ele>
        <time>2020-01-19T09:58:53Z</time>
      </trkpt>
      <trkpt lat="40.7399670" lon="-8.1794300">
        <ele>275.2</ele>
        <time>2020-01-19T09:58:56Z</time>
      </trkpt>
      <trkpt lat="40.7400610" lon="-8.1793360">
        <ele>274.0</ele>
        <time>2020-01-19T09:58:59Z</time>
      </trkpt>
      <trkpt lat="40.7401780" lon="-8.1792140">
        <ele>272.2</ele>
        <time>2020-01-19T09:59:03Z</time>
      </trkpt>
      <trkpt lat="40.7402770" lon="-8.1791330">
        <ele>271.0</ele>
        <time>2020-01-19T09:59:06Z</time>
      </trkpt>
      <trkpt lat="40.7403870" lon="-8.1790570">
        <ele>269.8</ele>
        <time>2020-01-19T09:59:09Z</time>
      </trkpt>
      <trkpt lat="40.7404570" lon="-8.1790120">
        <ele>268.8</ele>
        <time>2020-01-19T09:59:11Z</time>
      </trkpt>
      <trkpt lat="40.7405980" lon="-8.1789100">
        <ele>267.6</ele>
        <time>2020-01-19T09:59:15Z</time>
      </trkpt>
      <trkpt lat="40.7407370" lon="-8.1788160">
        <ele>266.4</ele>
        <time>2020-01-19T09:59:19Z</time>
      </trkpt>
      <trkpt lat="40.7408430" lon="-8.1787640">
        <ele>265.0</ele>
        <time>2020-01-19T09:59:22Z</time>
      </trkpt>
      <trkpt lat="40.7409890" lon="-8.1787750">
        <ele>263.6</ele>
        <time>2020-01-19T09:59:26Z</time>
      </trkpt>
      <trkpt lat="40.7411500" lon="-8.1788950">
        <ele>263.0</ele>
        <time>2020-01-19T09:59:31Z</time>
      </trkpt>
      <trkpt lat="40.7411820" lon="-8.1789290">
        <ele>262.8</ele>
        <time>2020-01-19T09:59:32Z</time>
      </trkpt>
      <trkpt lat="40.7412060" lon="-8.1789620">
        <ele>262.4</ele>
        <time>2020-01-19T09:59:33Z</time>
      </trkpt>
      <trkpt lat="40.7412570" lon="-8.1790330">
        <ele>261.2</ele>
        <time>2020-01-19T09:59:35Z</time>
      </trkpt>
      <trkpt lat="40.7413060" lon="-8.1791050">
        <ele>259.8</ele>
        <time>2020-01-19T09:59:37Z</time>
      </trkpt>
      <trkpt lat="40.7414170" lon="-8.1792510">
        <ele>258.8</ele>
        <time>2020-01-19T09:59:41Z</time>
      </trkpt>
      <trkpt lat="40.7414840" lon="-8.1793140">
        <ele>257.6</ele>
        <time>2020-01-19T09:59:43Z</time>
      </trkpt>
      <trkpt lat="40.7415530" lon="-8.1793730">
        <ele>256.2</ele>
        <time>2020-01-19T09:59:45Z</time>
      </trkpt>
      <trkpt lat="40.7416550" lon="-8.1794610">
        <ele>255.4</ele>
        <time>2020-01-19T09:59:48Z</time>
      </trkpt>
      <trkpt lat="40.7416890" lon="-8.1794860">
        <ele>255.0</ele>
        <time>2020-01-19T09:59:49Z</time>
      </trkpt>
      <trkpt lat="40.7417250" lon="-8.1795110">
        <ele>254.8</ele>
        <time>2020-01-19T09:59:50Z</time>
      </trkpt>
      <trkpt lat="40.7417640" lon="-8.1795360">
        <ele>253.8</ele>
        <time>2020-01-19T09:59:51Z</time>
      </trkpt>
      <trkpt lat="40.7418340" lon="-8.1795810">
        <ele>252.8</ele>
        <time>2020-01-19T09:59:53Z</time>
      </trkpt>
      <trkpt lat="40.7419680" lon="-8.1796480">
        <ele>251.6</ele>
        <time>2020-01-19T09:59:57Z</time>
      </trkpt>
      <trkpt lat="40.7420020" lon="-8.1796600">
        <ele>250.6</ele>
        <time>2020-01-19T09:59:58Z</time>
      </trkpt>
      <trkpt lat="40.7421140" lon="-8.1796820">
        <ele>249.2</ele>
        <time>2020-01-19T10:00:01Z</time>
      </trkpt>
      <trkpt lat="40.7423050" lon="-8.1797140">
        <ele>248.0</ele>
        <time>2020-01-19T10:00:06Z</time>
      </trkpt>
      <trkpt lat="40.7423770" lon="-8.1797270">
        <ele>246.8</ele>
        <time>2020-01-19T10:00:08Z</time>
      </trkpt>
      <trkpt lat="40.7425620" lon="-8.1797480">
        <ele>245.6</ele>
        <time>2020-01-19T10:00:13Z</time>
      </trkpt>
      <trkpt lat="40.7426810" lon="-8.1797550">
        <ele>243.8</ele>
        <time>2020-01-19T10:00:16Z</time>
      </trkpt>
      <trkpt lat="40.7427910" lon="-8.1797810">
        <ele>242.8</ele>
        <time>2020-01-19T10:00:19Z</time>
      </trkpt>
      <trkpt lat="40.7429390" lon="-8.1798080">
        <ele>241.2</ele>
        <time>2020-01-19T10:00:23Z</time>
      </trkpt>
      <trkpt lat="40.7430130" lon="-8.1798250">
        <ele>239.8</ele>
        <time>2020-01-19T10:00:25Z</time>
      </trkpt>
      <trkpt lat="40.7432220" lon="-8.1798670">
        <ele>238.8</ele>
        <time>2020-01-19T10:00:31Z</time>
      </trkpt>
      <trkpt lat="40.7433780" lon="-8.1798760">
        <ele>238.6</ele>
        <time>2020-01-19T10:00:35Z</time>
      </trkpt>
      <trkpt lat="40.7434190" lon="-8.1798800">
        <ele>237.4</ele>
        <time>2020-01-19T10:00:36Z</time>
      </trkpt>
      <trkpt lat="40.7434970" lon="-8.1798920">
        <ele>236.4</ele>
        <time>2020-01-19T10:00:38Z</time>
      </trkpt>
      <trkpt lat="40.7436510" lon="-8.1798990">
        <ele>235.4</ele>
        <time>2020-01-19T10:00:42Z</time>
      </trkpt>
      <trkpt lat="40.7438310" lon="-8.1798690">
        <ele>235.0</ele>
        <time>2020-01-19T10:00:47Z</time>
      </trkpt>
      <trkpt lat="40.7438990" lon="-8.1798240">
        <ele>234.2</ele>
        <time>2020-01-19T10:00:49Z</time>
      </trkpt>
      <trkpt lat="40.7439880" lon="-8.1797190">
        <ele>233.0</ele>
        <time>2020-01-19T10:00:52Z</time>
      </trkpt>
      <trkpt lat="40.7440930" lon="-8.1794980">
        <ele>232.2</ele>
        <time>2020-01-19T10:00:57Z</time>
      </trkpt>
      <trkpt lat="40.7441400" lon="-8.1793580">
        <ele>232.0</ele>
        <time>2020-01-19T10:01:00Z</time>
      </trkpt>
      <trkpt lat="40.7441820" lon="-8.1792180">
        <ele>230.6</ele>
        <time>2020-01-19T10:01:03Z</time>
      </trkpt>
      <trkpt lat="40.7442660" lon="-8.1789900">
        <ele>228.8</ele>
        <time>2020-01-19T10:01:08Z</time>
      </trkpt>
      <trkpt lat="40.7443110" lon="-8.1788520">
        <ele>227.8</ele>
        <time>2020-01-19T10:01:11Z</time>
      </trkpt>
      <trkpt lat="40.7443570" lon="-8.1787200">
        <ele>226.4</ele>
        <time>2020-01-19T10:01:14Z</time>
      </trkpt>
      <trkpt lat="40.7444090" lon="-8.1785930">
        <ele>225.4</ele>
        <time>2020-01-19T10:01:17Z</time>
      </trkpt>
      <trkpt lat="40.7445010" lon="-8.1784330">
        <ele>224.2</ele>
        <time>2020-01-19T10:01:21Z</time>
      </trkpt>
      <trkpt lat="40.7445750" lon="-8.1783260">
        <ele>223.0</ele>
        <time>2020-01-19T10:01:24Z</time>
      </trkpt>
      <trkpt lat="40.7446500" lon="-8.1782320">
        <ele>221.2</ele>
        <time>2020-01-19T10:01:27Z</time>
      </trkpt>
      <trkpt lat="40.7447320" lon="-8.1781340">
        <ele>220.2</ele>
        <time>2020-01-19T10:01:30Z</time>
      </trkpt>
      <trkpt lat="40.7448170" lon="-8.1780470">
        <ele>219.6</ele>
        <time>2020-01-19T10:01:33Z</time>
      </trkpt>
      <trkpt lat="40.7448470" lon="-8.1780200">
        <ele>219.2</ele>
        <time>2020-01-19T10:01:34Z</time>
      </trkpt>
      <trkpt lat="40.7448760" lon="-8.1779900">
        <ele>218.2</ele>
        <time>2020-01-19T10:01:35Z</time>
      </trkpt>
      <trkpt lat="40.7449650" lon="-8.1779000">
        <ele>217.0</ele>
        <time>2020-01-19T10:01:38Z</time>
      </trkpt>
      <trkpt lat="40.7450570" lon="-8.1778060">
        <ele>216.0</ele>
        <time>2020-01-19T10:01:41Z</time>
      </trkpt>
      <trkpt lat="40.7451150" lon="-8.1777440">
        <ele>214.4</ele>
        <time>2020-01-19T10:01:43Z</time>
      </trkpt>
      <trkpt lat="40.7452260" lon="-8.1776200">
        <ele>213.0</ele>
        <time>2020-01-19T10:01:47Z</time>
      </trkpt>
      <trkpt lat="40.7452780" lon="-8.1775560">
        <ele>211.6</ele>
        <time>2020-01-19T10:01:49Z</time>
      </trkpt>
      <trkpt lat="40.7453550" lon="-8.1774520">
        <ele>210.4</ele>
        <time>2020-01-19T10:01:52Z</time>
      </trkpt>
      <trkpt lat="40.7454070" lon="-8.1773790">
        <ele>210.0</ele>
        <time>2020-01-19T10:01:54Z</time>
      </trkpt>
      <trkpt lat="40.7454590" lon="-8.1773120">
        <ele>209.2</ele>
        <time>2020-01-19T10:01:56Z</time>
      </trkpt>
      <trkpt lat="40.7455140" lon="-8.1772450">
        <ele>208.0</ele>
        <time>2020-01-19T10:01:58Z</time>
      </trkpt>
      <trkpt lat="40.7455430" lon="-8.1772110">
        <ele>207.4</ele>
        <time>2020-01-19T10:01:59Z</time>
      </trkpt>
      <trkpt lat="40.7456410" lon="-8.1771260">
        <ele>206.8</ele>
        <time>2020-01-19T10:02:02Z</time>
      </trkpt>
      <trkpt lat="40.7458370" lon="-8.1770150">
        <ele>205.6</ele>
        <time>2020-01-19T10:02:08Z</time>
      </trkpt>
      <trkpt lat="40.7459060" lon="-8.1769950">
        <ele>204.4</ele>
        <time>2020-01-19T10:02:10Z</time>
      </trkpt>
      <trkpt lat="40.7460910" lon="-8.1769660">
        <ele>203.6</ele>
        <time>2020-01-19T10:02:15Z</time>
      </trkpt>
      <trkpt lat="40.7462670" lon="-8.1769590">
        <ele>203.2</ele>
        <time>2020-01-19T10:02:20Z</time>
      </trkpt>
      <trkpt lat="40.7464750" lon="-8.1769520">
        <ele>202.2</ele>
        <time>2020-01-19T10:02:26Z</time>
      </trkpt>
      <trkpt lat="40.7466530" lon="-8.1769490">
        <ele>201.0</ele>
        <time>2020-01-19T10:02:31Z</time>
      </trkpt>
      <trkpt lat="40.7468600" lon="-8.1769170">
        <ele>200.2</ele>
        <time>2020-01-19T10:02:37Z</time>
      </trkpt>
      <trkpt lat="40.7468960" lon="-8.1769070">
        <ele>200.0</ele>
        <time>2020-01-19T10:02:38Z</time>
      </trkpt>
      <trkpt lat="40.7470040" lon="-8.1768720">
        <ele>199.0</ele>
        <time>2020-01-19T10:02:41Z</time>
      </trkpt>
      <trkpt lat="40.7471430" lon="-8.1768060">
        <ele>197.8</ele>
        <time>2020-01-19T10:02:45Z</time>
      </trkpt>
      <trkpt lat="40.7472120" lon="-8.1767670">
        <ele>196.8</ele>
        <time>2020-01-19T10:02:47Z</time>
      </trkpt>
      <trkpt lat="40.7473460" lon="-8.1766790">
        <ele>195.6</ele>
        <time>2020-01-19T10:02:51Z</time>
      </trkpt>
      <trkpt lat="40.7474060" lon="-8.1766210">
        <ele>194.6</ele>
        <time>2020-01-19T10:02:53Z</time>
      </trkpt>
      <trkpt lat="40.7474880" lon="-8.1765250">
        <ele>193.4</ele>
        <time>2020-01-19T10:02:56Z</time>
      </trkpt>
      <trkpt lat="40.7475420" lon="-8.1764610">
        <ele>192.4</ele>
        <time>2020-01-19T10:02:58Z</time>
      </trkpt>
      <trkpt lat="40.7476270" lon="-8.1763720">
        <ele>191.2</ele>
        <time>2020-01-19T10:03:01Z</time>
      </trkpt>
      <trkpt lat="40.7476820" lon="-8.1763190">
        <ele>189.8</ele>
        <time>2020-01-19T10:03:03Z</time>
      </trkpt>
      <trkpt lat="40.7477650" lon="-8.1762440">
        <ele>188.6</ele>
        <time>2020-01-19T10:03:06Z</time>
      </trkpt>
      <trkpt lat="40.7478220" lon="-8.1761860">
        <ele>187.0</ele>
        <time>2020-01-19T10:03:08Z</time>
      </trkpt>
      <trkpt lat="40.7478760" lon="-8.1761260">
        <ele>186.0</ele>
        <time>2020-01-19T10:03:10Z</time>
      </trkpt>
      <trkpt lat="40.7478950" lon="-8.1760940">
        <ele>185.6</ele>
        <time>2020-01-19T10:03:11Z</time>
      </trkpt>
      <trkpt lat="40.7480110" lon="-8.1760690">
        <ele>179.8</ele>
        <time>2020-01-19T10:04:42Z</time>
      </trkpt>
      <trkpt lat="40.7480290" lon="-8.1760690">
        <ele>179.8</ele>
        <time>2020-01-19T10:04:43Z</time>
      </trkpt>
      <trkpt lat="40.7481370" lon="-8.1760080">
        <ele>179.8</ele>
        <time>2020-01-19T10:04:47Z</time>
      </trkpt>
      <trkpt lat="40.7481680" lon="-8.1759820">
        <ele>179.8</ele>
        <time>2020-01-19T10:04:48Z</time>
      </trkpt>
      <trkpt lat="40.7481950" lon="-8.1759580">
        <ele>179.8</ele>
        <time>2020-01-19T10:04:49Z</time>
      </trkpt>
      <trkpt lat="40.7482250" lon="-8.1759320">
        <ele>179.8</ele>
        <time>2020-01-19T10:04:50Z</time>
      </trkpt>
      <trkpt lat="40.7482520" lon="-8.1759070">
        <ele>179.8</ele>
        <time>2020-01-19T10:04:51Z</time>
      </trkpt>
      <trkpt lat="40.7482800" lon="-8.1758830">
        <ele>179.8</ele>
        <time>2020-01-19T10:04:52Z</time>
      </trkpt>
      <trkpt lat="40.7483100" lon="-8.1758610">
        <ele>179.6</ele>
        <time>2020-01-19T10:04:53Z</time>
      </trkpt>
      <trkpt lat="40.7483960" lon="-8.1758040">
        <ele>178.8</ele>
        <time>2020-01-19T10:04:56Z</time>
      </trkpt>
      <trkpt lat="40.7484240" lon="-8.1757870">
        <ele>178.4</ele>
        <time>2020-01-19T10:04:57Z</time>
      </trkpt>
      <trkpt lat="40.7484860" lon="-8.1757600">
        <ele>177.8</ele>
        <time>2020-01-19T10:04:59Z</time>
      </trkpt>
      <trkpt lat="40.7485820" lon="-8.1757250">
        <ele>176.4</ele>
        <time>2020-01-19T10:05:02Z</time>
      </trkpt>
      <trkpt lat="40.7487140" lon="-8.1756930">
        <ele>175.0</ele>
        <time>2020-01-19T10:05:06Z</time>
      </trkpt>
      <trkpt lat="40.7488180" lon="-8.1756680">
        <ele>173.8</ele>
        <time>2020-01-19T10:05:09Z</time>
      </trkpt>
      <trkpt lat="40.7488530" lon="-8.1756570">
        <ele>173.6</ele>
        <time>2020-01-19T10:05:10Z</time>
      </trkpt>
      <trkpt lat="40.7489270" lon="-8.1756400">
        <ele>172.4</ele>
        <time>2020-01-19T10:05:12Z</time>
      </trkpt>
      <trkpt lat="40.7489590" lon="-8.1756310">
        <ele>172.0</ele>
        <time>2020-01-19T10:05:13Z</time>
      </trkpt>
      <trkpt lat="40.7490300" lon="-8.1756140">
        <ele>171.4</ele>
        <time>2020-01-19T10:05:15Z</time>
      </trkpt>
      <trkpt lat="40.7490630" lon="-8.1756120">
        <ele>171.0</ele>
        <time>2020-01-19T10:05:16Z</time>
      </trkpt>
      <trkpt lat="40.7490970" lon="-8.1756030">
        <ele>170.8</ele>
        <time>2020-01-19T10:05:17Z</time>
      </trkpt>
      <trkpt lat="40.7491310" lon="-8.1755940">
        <ele>170.4</ele>
        <time>2020-01-19T10:05:18Z</time>
      </trkpt>
      <trkpt lat="40.7491990" lon="-8.1755740">
        <ele>168.8</ele>
        <time>2020-01-19T10:05:20Z</time>
      </trkpt>
      <trkpt lat="40.7493110" lon="-8.1755430">
        <ele>168.0</ele>
        <time>2020-01-19T10:05:23Z</time>
      </trkpt>
      <trkpt lat="40.7493490" lon="-8.1755320">
        <ele>167.6</ele>
        <time>2020-01-19T10:05:24Z</time>
      </trkpt>
      <trkpt lat="40.7494190" lon="-8.1755120">
        <ele>166.2</ele>
        <time>2020-01-19T10:05:26Z</time>
      </trkpt>
      <trkpt lat="40.7496030" lon="-8.1754690">
        <ele>165.2</ele>
        <time>2020-01-19T10:05:31Z</time>
      </trkpt>
      <trkpt lat="40.7496410" lon="-8.1754580">
        <ele>164.8</ele>
        <time>2020-01-19T10:05:32Z</time>
      </trkpt>
      <trkpt lat="40.7497460" lon="-8.1754170">
        <ele>163.6</ele>
        <time>2020-01-19T10:05:35Z</time>
      </trkpt>
      <trkpt lat="40.7498570" lon="-8.1753690">
        <ele>162.4</ele>
        <time>2020-01-19T10:05:38Z</time>
      </trkpt>
      <trkpt lat="40.7500400" lon="-8.1752570">
        <ele>161.4</ele>
        <time>2020-01-19T10:05:43Z</time>
      </trkpt>
      <trkpt lat="40.7500740" lon="-8.1752320">
        <ele>161.4</ele>
        <time>2020-01-19T10:05:44Z</time>
      </trkpt>
      <trkpt lat="40.7501390" lon="-8.1751810">
        <ele>161.0</ele>
        <time>2020-01-19T10:05:46Z</time>
      </trkpt>
      <trkpt lat="40.7502390" lon="-8.1751030">
        <ele>160.2</ele>
        <time>2020-01-19T10:05:49Z</time>
      </trkpt>
      <trkpt lat="40.7503660" lon="-8.1749920">
        <ele>159.0</ele>
        <time>2020-01-19T10:05:53Z</time>
      </trkpt>
      <trkpt lat="40.7504280" lon="-8.1749390">
        <ele>158.6</ele>
        <time>2020-01-19T10:05:55Z</time>
      </trkpt>
      <trkpt lat="40.7504870" lon="-8.1748870">
        <ele>158.2</ele>
        <time>2020-01-19T10:05:57Z</time>
      </trkpt>
      <trkpt lat="40.7505170" lon="-8.1748610">
        <ele>157.8</ele>
        <time>2020-01-19T10:05:58Z</time>
      </trkpt>
      <trkpt lat="40.7506050" lon="-8.1747740">
        <ele>156.8</ele>
        <time>2020-01-19T10:06:01Z</time>
      </trkpt>
      <trkpt lat="40.7507050" lon="-8.1746350">
        <ele>155.6</ele>
        <time>2020-01-19T10:06:05Z</time>
      </trkpt>
      <trkpt lat="40.7508030" lon="-8.1744360">
        <ele>155.0</ele>
        <time>2020-01-19T10:06:10Z</time>
      </trkpt>
      <trkpt lat="40.7508240" lon="-8.1743940">
        <ele>154.6</ele>
        <time>2020-01-19T10:06:11Z</time>
      </trkpt>
      <trkpt lat="40.7508580" lon="-8.1743090">
        <ele>154.2</ele>
        <time>2020-01-19T10:06:13Z</time>
      </trkpt>
      <trkpt lat="40.7509150" lon="-8.1741990">
        <ele>153.2</ele>
        <time>2020-01-19T10:06:16Z</time>
      </trkpt>
      <trkpt lat="40.7510640" lon="-8.1740530">
        <ele>152.4</ele>
        <time>2020-01-19T10:06:21Z</time>
      </trkpt>
      <trkpt lat="40.7511290" lon="-8.1740020">
        <ele>152.2</ele>
        <time>2020-01-19T10:06:23Z</time>
      </trkpt>
      <trkpt lat="40.7512780" lon="-8.1738700">
        <ele>150.6</ele>
        <time>2020-01-19T10:06:28Z</time>
      </trkpt>
      <trkpt lat="40.7513310" lon="-8.1738070">
        <ele>149.8</ele>
        <time>2020-01-19T10:06:30Z</time>
      </trkpt>
      <trkpt lat="40.7513580" lon="-8.1737740">
        <ele>149.4</ele>
        <time>2020-01-19T10:06:31Z</time>
      </trkpt>
      <trkpt lat="40.7514410" lon="-8.1735530">
        <ele>148.4</ele>
        <time>2020-01-19T10:06:36Z</time>
      </trkpt>
      <trkpt lat="40.7514470" lon="-8.1735050">
        <ele>147.8</ele>
        <time>2020-01-19T10:06:37Z</time>
      </trkpt>
      <trkpt lat="40.7514480" lon="-8.1734570">
        <ele>147.0</ele>
        <time>2020-01-19T10:06:38Z</time>
      </trkpt>
      <trkpt lat="40.7514370" lon="-8.1733690">
        <ele>146.0</ele>
        <time>2020-01-19T10:06:40Z</time>
      </trkpt>
      <trkpt lat="40.7513860" lon="-8.1731930">
        <ele>144.8</ele>
        <time>2020-01-19T10:06:44Z</time>
      </trkpt>
      <trkpt lat="40.7513460" lon="-8.1731110">
        <ele>143.4</ele>
        <time>2020-01-19T10:06:46Z</time>
      </trkpt>
      <trkpt lat="40.7513070" lon="-8.1730340">
        <ele>142.4</ele>
        <time>2020-01-19T10:06:48Z</time>
      </trkpt>
      <trkpt lat="40.7512490" lon="-8.1729270">
        <ele>141.0</ele>
        <time>2020-01-19T10:06:51Z</time>
      </trkpt>
      <trkpt lat="40.7512290" lon="-8.1728930">
        <ele>139.8</ele>
        <time>2020-01-19T10:06:52Z</time>
      </trkpt>
      <trkpt lat="40.7511870" lon="-8.1728230">
        <ele>138.6</ele>
        <time>2020-01-19T10:06:54Z</time>
      </trkpt>
      <trkpt lat="40.7511180" lon="-8.1727170">
        <ele>137.4</ele>
        <time>2020-01-19T10:06:57Z</time>
      </trkpt>
      <trkpt lat="40.7510700" lon="-8.1726490">
        <ele>136.2</ele>
        <time>2020-01-19T10:06:59Z</time>
      </trkpt>
      <trkpt lat="40.7509980" lon="-8.1725500">
        <ele>134.2</ele>
        <time>2020-01-19T10:07:02Z</time>
      </trkpt>
      <trkpt lat="40.7509540" lon="-8.1724750">
        <ele>133.2</ele>
        <time>2020-01-19T10:07:04Z</time>
      </trkpt>
      <trkpt lat="40.7509090" lon="-8.1723990">
        <ele>132.0</ele>
        <time>2020-01-19T10:07:06Z</time>
      </trkpt>
      <trkpt lat="40.7508800" lon="-8.1723280">
        <ele>130.4</ele>
        <time>2020-01-19T10:07:08Z</time>
      </trkpt>
      <trkpt lat="40.7508850" lon="-8.1722460">
        <ele>129.2</ele>
        <time>2020-01-19T10:07:10Z</time>
      </trkpt>
      <trkpt lat="40.7509320" lon="-8.1721320">
        <ele>127.0</ele>
        <time>2020-01-19T10:07:13Z</time>
      </trkpt>
      <trkpt lat="40.7509710" lon="-8.1720650">
        <ele>125.8</ele>
        <time>2020-01-19T10:07:15Z</time>
      </trkpt>
      <trkpt lat="40.7510510" lon="-8.1719400">
        <ele>124.8</ele>
        <time>2020-01-19T10:07:19Z</time>
      </trkpt>
      <trkpt lat="40.7511500" lon="-8.1718260">
        <ele>123.6</ele>
        <time>2020-01-19T10:07:23Z</time>
      </trkpt>
      <trkpt lat="40.7513280" lon="-8.1717450">
        <ele>123.6</ele>
        <time>2020-01-19T10:07:30Z</time>
      </trkpt>
      <trkpt lat="40.7513720" lon="-8.1717570">
        <ele>123.6</ele>
        <time>2020-01-19T10:07:32Z</time>
      </trkpt>
      <trkpt lat="40.7514790" lon="-8.1717990">
        <ele>124.8</ele>
        <time>2020-01-19T10:07:37Z</time>
      </trkpt>
      <trkpt lat="40.7515110" lon="-8.1718170">
        <ele>126.0</ele>
        <time>2020-01-19T10:07:39Z</time>
      </trkpt>
      <trkpt lat="40.7515820" lon="-8.1718700">
        <ele>127.0</ele>
        <time>2020-01-19T10:07:44Z</time>
      </trkpt>
      <trkpt lat="40.7516560" lon="-8.1718870">
        <ele>128.2</ele>
        <time>2020-01-19T10:07:48Z</time>
      </trkpt>
      <trkpt lat="40.7517210" lon="-8.1719100">
        <ele>129.6</ele>
        <time>2020-01-19T10:07:52Z</time>
      </trkpt>
      <trkpt lat="40.7517940" lon="-8.1719400">
        <ele>130.8</ele>
        <time>2020-01-19T10:07:56Z</time>
      </trkpt>
      <trkpt lat="40.7518950" lon="-8.1719750">
        <ele>132.0</ele>
        <time>2020-01-19T10:08:02Z</time>
      </trkpt>
      <trkpt lat="40.7519230" lon="-8.1719900">
        <ele>133.0</ele>
        <time>2020-01-19T10:08:04Z</time>
      </trkpt>
      <trkpt lat="40.7519980" lon="-8.1720420">
        <ele>134.0</ele>
        <time>2020-01-19T10:08:09Z</time>
      </trkpt>
      <trkpt lat="40.7520420" lon="-8.1720860">
        <ele>134.8</ele>
        <time>2020-01-19T10:08:12Z</time>
      </trkpt>
      <trkpt lat="40.7520640" lon="-8.1721190">
        <ele>135.4</ele>
        <time>2020-01-19T10:08:14Z</time>
      </trkpt>
      <trkpt lat="40.7520890" lon="-8.1721480">
        <ele>135.8</ele>
        <time>2020-01-19T10:08:16Z</time>
      </trkpt>
      <trkpt lat="40.7521180" lon="-8.1721730">
        <ele>136.6</ele>
        <time>2020-01-19T10:08:18Z</time>
      </trkpt>
      <trkpt lat="40.7521690" lon="-8.1722040">
        <ele>137.6</ele>
        <time>2020-01-19T10:08:22Z</time>
      </trkpt>
      <trkpt lat="40.7522270" lon="-8.1722520">
        <ele>138.8</ele>
        <time>2020-01-19T10:08:26Z</time>
      </trkpt>
      <trkpt lat="40.7522730" lon="-8.1722820">
        <ele>139.8</ele>
        <time>2020-01-19T10:08:29Z</time>
      </trkpt>
      <trkpt lat="40.7523420" lon="-8.1723020">
        <ele>140.8</ele>
        <time>2020-01-19T10:08:33Z</time>
      </trkpt>
      <trkpt lat="40.7523960" lon="-8.1722910">
        <ele>142.0</ele>
        <time>2020-01-19T10:08:36Z</time>
      </trkpt>
      <trkpt lat="40.7524620" lon="-8.1722390">
        <ele>143.2</ele>
        <time>2020-01-19T10:08:40Z</time>
      </trkpt>
      <trkpt lat="40.7525150" lon="-8.1721640">
        <ele>144.6</ele>
        <time>2020-01-19T10:08:44Z</time>
      </trkpt>
      <trkpt lat="40.7525720" lon="-8.1721100">
        <ele>145.6</ele>
        <time>2020-01-19T10:08:48Z</time>
      </trkpt>
      <trkpt lat="40.7526100" lon="-8.1721000">
        <ele>146.4</ele>
        <time>2020-01-19T10:08:51Z</time>
      </trkpt>
      <trkpt lat="40.7526350" lon="-8.1721160">
        <ele>146.8</ele>
        <time>2020-01-19T10:08:53Z</time>
      </trkpt>
      <trkpt lat="40.7527010" lon="-8.1721970">
        <ele>148.0</ele>
        <time>2020-01-19T10:08:58Z</time>
      </trkpt>
      <trkpt lat="40.7527350" lon="-8.1722750">
        <ele>149.0</ele>
        <time>2020-01-19T10:09:02Z</time>
      </trkpt>
      <trkpt lat="40.7527680" lon="-8.1723830">
        <ele>150.0</ele>
        <time>2020-01-19T10:09:07Z</time>
      </trkpt>
      <trkpt lat="40.7527770" lon="-8.1724520">
        <ele>151.2</ele>
        <time>2020-01-19T10:09:10Z</time>
      </trkpt>
      <trkpt lat="40.7528080" lon="-8.1725380">
        <ele>152.0</ele>
        <time>2020-01-19T10:09:14Z</time>
      </trkpt>
      <trkpt lat="40.7528280" lon="-8.1725760">
        <ele>152.4</ele>
        <time>2020-01-19T10:09:16Z</time>
      </trkpt>
      <trkpt lat="40.7528490" lon="-8.1726310">
        <ele>153.6</ele>
        <time>2020-01-19T10:09:19Z</time>
      </trkpt>
      <trkpt lat="40.7528910" lon="-8.1726980">
        <ele>154.4</ele>
        <time>2020-01-19T10:09:23Z</time>
      </trkpt>
      <trkpt lat="40.7529030" lon="-8.1727050">
        <ele>154.8</ele>
        <time>2020-01-19T10:09:24Z</time>
      </trkpt>
      <trkpt lat="40.7529400" lon="-8.1727150">
        <ele>155.8</ele>
        <time>2020-01-19T10:09:27Z</time>
      </trkpt>
      <trkpt lat="40.7530030" lon="-8.1727110">
        <ele>157.2</ele>
        <time>2020-01-19T10:09:31Z</time>
      </trkpt>
      <trkpt lat="40.7531040" lon="-8.1726660">
        <ele>158.2</ele>
        <time>2020-01-19T10:09:38Z</time>
      </trkpt>
      <trkpt lat="40.7531660" lon="-8.1726220">
        <ele>159.4</ele>
        <time>2020-01-19T10:09:42Z</time>
      </trkpt>
      <trkpt lat="40.7532370" lon="-8.1725750">
        <ele>160.6</ele>
        <time>2020-01-19T10:09:47Z</time>
      </trkpt>
      <trkpt lat="40.7532890" lon="-8.1725420">
        <ele>161.8</ele>
        <time>2020-01-19T10:09:51Z</time>
      </trkpt>
      <trkpt lat="40.7533600" lon="-8.1725430">
        <ele>163.0</ele>
        <time>2020-01-19T10:09:56Z</time>
      </trkpt>
      <trkpt lat="40.7534190" lon="-8.1725780">
        <ele>164.2</ele>
        <time>2020-01-19T10:10:00Z</time>
      </trkpt>
      <trkpt lat="40.7534680" lon="-8.1726450">
        <ele>165.4</ele>
        <time>2020-01-19T10:10:04Z</time>
      </trkpt>
      <trkpt lat="40.7534930" lon="-8.1727300">
        <ele>166.6</ele>
        <time>2020-01-19T10:10:08Z</time>
      </trkpt>
      <trkpt lat="40.7534830" lon="-8.1728550">
        <ele>167.6</ele>
        <time>2020-01-19T10:10:14Z</time>
      </trkpt>
      <trkpt lat="40.7534450" lon="-8.1729380">
        <ele>168.8</ele>
        <time>2020-01-19T10:10:19Z</time>
      </trkpt>
      <trkpt lat="40.7534100" lon="-8.1730980">
        <ele>169.8</ele>
        <time>2020-01-19T10:10:27Z</time>
      </trkpt>
      <trkpt lat="40.7533970" lon="-8.1731790">
        <ele>171.0</ele>
        <time>2020-01-19T10:10:31Z</time>
      </trkpt>
      <trkpt lat="40.7533910" lon="-8.1732860">
        <ele>172.0</ele>
        <time>2020-01-19T10:10:36Z</time>
      </trkpt>
      <trkpt lat="40.7533940" lon="-8.1733780">
        <ele>173.2</ele>
        <time>2020-01-19T10:10:41Z</time>
      </trkpt>
      <trkpt lat="40.7534020" lon="-8.1734640">
        <ele>174.2</ele>
        <time>2020-01-19T10:10:46Z</time>
      </trkpt>
      <trkpt lat="40.7534130" lon="-8.1735840">
        <ele>175.2</ele>
        <time>2020-01-19T10:10:53Z</time>
      </trkpt>
      <trkpt lat="40.7534190" lon="-8.1736410">
        <ele>175.8</ele>
        <time>2020-01-19T10:10:56Z</time>
      </trkpt>
      <trkpt lat="40.7534210" lon="-8.1736600">
        <ele>176.2</ele>
        <time>2020-01-19T10:10:57Z</time>
      </trkpt>
      <trkpt lat="40.7534260" lon="-8.1737560">
        <ele>177.4</ele>
        <time>2020-01-19T10:11:02Z</time>
      </trkpt>
      <trkpt lat="40.7534540" lon="-8.1738300">
        <ele>178.4</ele>
        <time>2020-01-19T10:11:07Z</time>
      </trkpt>
      <trkpt lat="40.7534820" lon="-8.1738940">
        <ele>179.6</ele>
        <time>2020-01-19T10:11:11Z</time>
      </trkpt>
      <trkpt lat="40.7535430" lon="-8.1739860">
        <ele>180.8</ele>
        <time>2020-01-19T10:11:17Z</time>
      </trkpt>
      <trkpt lat="40.7536070" lon="-8.1740680">
        <ele>182.0</ele>
        <time>2020-01-19T10:11:23Z</time>
      </trkpt>
      <trkpt lat="40.7536660" lon="-8.1741050">
        <ele>183.2</ele>
        <time>2020-01-19T10:11:28Z</time>
      </trkpt>
      <trkpt lat="40.7537160" lon="-8.1741180">
        <ele>184.2</ele>
        <time>2020-01-19T10:11:31Z</time>
      </trkpt>
      <trkpt lat="40.7537280" lon="-8.1741200">
        <ele>184.4</ele>
        <time>2020-01-19T10:11:32Z</time>
      </trkpt>
      <trkpt lat="40.7537680" lon="-8.1741130">
        <ele>184.8</ele>
        <time>2020-01-19T10:11:34Z</time>
      </trkpt>
      <trkpt lat="40.7538610" lon="-8.1740710">
        <ele>185.6</ele>
        <time>2020-01-19T10:11:38Z</time>
      </trkpt>
      <trkpt lat="40.7539110" lon="-8.1740070">
        <ele>186.8</ele>
        <time>2020-01-19T10:11:41Z</time>
      </trkpt>
      <trkpt lat="40.7539260" lon="-8.1739840">
        <ele>187.2</ele>
        <time>2020-01-19T10:11:42Z</time>
      </trkpt>
      <trkpt lat="40.7539730" lon="-8.1739190">
        <ele>187.8</ele>
        <time>2020-01-19T10:11:45Z</time>
      </trkpt>
      <trkpt lat="40.7540250" lon="-8.1738240">
        <ele>188.8</ele>
        <time>2020-01-19T10:11:49Z</time>
      </trkpt>
      <trkpt lat="40.7540320" lon="-8.1737980">
        <ele>189.4</ele>
        <time>2020-01-19T10:11:50Z</time>
      </trkpt>
      <trkpt lat="40.7540460" lon="-8.1737460">
        <ele>190.0</ele>
        <time>2020-01-19T10:11:52Z</time>
      </trkpt>
      <trkpt lat="40.7540480" lon="-8.1737200">
        <ele>190.2</ele>
        <time>2020-01-19T10:11:53Z</time>
      </trkpt>
      <trkpt lat="40.7540580" lon="-8.1736800">
        <ele>190.6</ele>
        <time>2020-01-19T10:11:55Z</time>
      </trkpt>
      <trkpt lat="40.7540610" lon="-8.1736610">
        <ele>190.6</ele>
        <time>2020-01-19T10:11:56Z</time>
      </trkpt>
      <trkpt lat="40.7540610" lon="-8.1736430">
        <ele>191.2</ele>
        <time>2020-01-19T10:11:57Z</time>
      </trkpt>
      <trkpt lat="40.7540550" lon="-8.1736060">
        <ele>192.0</ele>
        <time>2020-01-19T10:11:59Z</time>
      </trkpt>
      <trkpt lat="40.7540410" lon="-8.1735550">
        <ele>192.4</ele>
        <time>2020-01-19T10:12:02Z</time>
      </trkpt>
      <trkpt lat="40.7540190" lon="-8.1734520">
        <ele>193.4</ele>
        <time>2020-01-19T10:12:08Z</time>
      </trkpt>
      <trkpt lat="40.7540220" lon="-8.1733570">
        <ele>194.8</ele>
        <time>2020-01-19T10:12:13Z</time>
      </trkpt>
      <trkpt lat="40.7540400" lon="-8.1732200">
        <ele>195.8</ele>
        <time>2020-01-19T10:12:20Z</time>
      </trkpt>
      <trkpt lat="40.7540590" lon="-8.1731620">
        <ele>197.0</ele>
        <time>2020-01-19T10:12:24Z</time>
      </trkpt>
      <trkpt lat="40.7540820" lon="-8.1731290">
        <ele>198.2</ele>
        <time>2020-01-19T10:12:27Z</time>
      </trkpt>
      <trkpt lat="40.7541420" lon="-8.1730960">
        <ele>199.0</ele>
        <time>2020-01-19T10:12:31Z</time>
      </trkpt>
      <trkpt lat="40.7541570" lon="-8.1730860">
        <ele>199.4</ele>
        <time>2020-01-19T10:12:32Z</time>
      </trkpt>
      <trkpt lat="40.7542150" lon="-8.1730390">
        <ele>200.2</ele>
        <time>2020-01-19T10:12:37Z</time>
      </trkpt>
      <trkpt lat="40.7542370" lon="-8.1730170">
        <ele>200.6</ele>
        <time>2020-01-19T10:12:39Z</time>
      </trkpt>
      <trkpt lat="40.7542960" lon="-8.1729830">
        <ele>201.8</ele>
        <time>2020-01-19T10:12:43Z</time>
      </trkpt>
      <trkpt lat="40.7543490" lon="-8.1729340">
        <ele>203.0</ele>
        <time>2020-01-19T10:12:48Z</time>
      </trkpt>
      <trkpt lat="40.7543740" lon="-8.1729140">
        <ele>203.4</ele>
        <time>2020-01-19T10:12:50Z</time>
      </trkpt>
      <trkpt lat="40.7544440" lon="-8.1728800">
        <ele>204.2</ele>
        <time>2020-01-19T10:12:55Z</time>
      </trkpt>
      <trkpt lat="40.7545640" lon="-8.1728610">
        <ele>205.6</ele>
        <time>2020-01-19T10:13:02Z</time>
      </trkpt>
      <trkpt lat="40.7546350" lon="-8.1728670">
        <ele>206.6</ele>
        <time>2020-01-19T10:13:06Z</time>
      </trkpt>
      <trkpt lat="40.7546900" lon="-8.1728790">
        <ele>208.0</ele>
        <time>2020-01-19T10:13:09Z</time>
      </trkpt>
      <trkpt lat="40.7547070" lon="-8.1728780">
        <ele>208.4</ele>
        <time>2020-01-19T10:13:10Z</time>
      </trkpt>
      <trkpt lat="40.7547450" lon="-8.1728800">
        <ele>208.8</ele>
        <time>2020-01-19T10:13:12Z</time>
      </trkpt>
      <trkpt lat="40.7547640" lon="-8.1728810">
        <ele>209.0</ele>
        <time>2020-01-19T10:13:13Z</time>
      </trkpt>
      <trkpt lat="40.7548220" lon="-8.1728900">
        <ele>210.6</ele>
        <time>2020-01-19T10:13:16Z</time>
      </trkpt>
      <trkpt lat="40.7548400" lon="-8.1728920">
        <ele>211.0</ele>
        <time>2020-01-19T10:13:17Z</time>
      </trkpt>
      <trkpt lat="40.7548570" lon="-8.1728950">
        <ele>211.2</ele>
        <time>2020-01-19T10:13:18Z</time>
      </trkpt>
      <trkpt lat="40.7549120" lon="-8.1728960">
        <ele>211.6</ele>
        <time>2020-01-19T10:13:21Z</time>
      </trkpt>
      <trkpt lat="40.7549700" lon="-8.1729020">
        <ele>213.0</ele>
        <time>2020-01-19T10:13:24Z</time>
      </trkpt>
      <trkpt lat="40.7550110" lon="-8.1729000">
        <ele>213.6</ele>
        <time>2020-01-19T10:13:26Z</time>
      </trkpt>
      <trkpt lat="40.7550260" lon="-8.1729010">
        <ele>213.8</ele>
        <time>2020-01-19T10:13:27Z</time>
      </trkpt>
      <trkpt lat="40.7550380" lon="-8.1729000">
        <ele>213.8</ele>
        <time>2020-01-19T10:13:28Z</time>
      </trkpt>
      <trkpt lat="40.7550510" lon="-8.1729020">
        <ele>214.0</ele>
        <time>2020-01-19T10:13:29Z</time>
      </trkpt>
      <trkpt lat="40.7550630" lon="-8.1729020">
        <ele>214.2</ele>
        <time>2020-01-19T10:13:30Z</time>
      </trkpt>
      <trkpt lat="40.7550740" lon="-8.1729030">
        <ele>214.6</ele>
        <time>2020-01-19T10:13:31Z</time>
      </trkpt>
      <trkpt lat="40.7550910" lon="-8.1729000">
        <ele>214.6</ele>
        <time>2020-01-19T10:13:32Z</time>
      </trkpt>
      <trkpt lat="40.7551080" lon="-8.1729010">
        <ele>214.8</ele>
        <time>2020-01-19T10:13:33Z</time>
      </trkpt>
      <trkpt lat="40.7551200" lon="-8.1729020">
        <ele>215.2</ele>
        <time>2020-01-19T10:13:34Z</time>
      </trkpt>
      <trkpt lat="40.7551300" lon="-8.1729020">
        <ele>215.2</ele>
        <time>2020-01-19T10:13:35Z</time>
      </trkpt>
      <trkpt lat="40.7552110" lon="-8.1729130">
        <ele>216.6</ele>
        <time>2020-01-19T10:13:42Z</time>
      </trkpt>
      <trkpt lat="40.7552270" lon="-8.1729130">
        <ele>216.8</ele>
        <time>2020-01-19T10:13:43Z</time>
      </trkpt>
      <trkpt lat="40.7552380" lon="-8.1729100">
        <ele>217.2</ele>
        <time>2020-01-19T10:13:44Z</time>
      </trkpt>
      <trkpt lat="40.7552700" lon="-8.1728880">
        <ele>217.8</ele>
        <time>2020-01-19T10:13:47Z</time>
      </trkpt>
      <trkpt lat="40.7553100" lon="-8.1728290">
        <ele>219.0</ele>
        <time>2020-01-19T10:13:52Z</time>
      </trkpt>
      <trkpt lat="40.7553250" lon="-8.1727840">
        <ele>219.4</ele>
        <time>2020-01-19T10:13:55Z</time>
      </trkpt>
      <trkpt lat="40.7553250" lon="-8.1727090">
        <ele>220.4</ele>
        <time>2020-01-19T10:13:59Z</time>
      </trkpt>
      <trkpt lat="40.7553170" lon="-8.1726270">
        <ele>221.6</ele>
        <time>2020-01-19T10:14:03Z</time>
      </trkpt>
      <trkpt lat="40.7552910" lon="-8.1725460">
        <ele>222.8</ele>
        <time>2020-01-19T10:14:08Z</time>
      </trkpt>
      <trkpt lat="40.7552740" lon="-8.1724950">
        <ele>223.8</ele>
        <time>2020-01-19T10:14:11Z</time>
      </trkpt>
      <trkpt lat="40.7552580" lon="-8.1724010">
        <ele>224.8</ele>
        <time>2020-01-19T10:14:18Z</time>
      </trkpt>
      <trkpt lat="40.7552440" lon="-8.1723490">
        <ele>226.2</ele>
        <time>2020-01-19T10:14:22Z</time>
      </trkpt>
      <trkpt lat="40.7552230" lon="-8.1722930">
        <ele>227.2</ele>
        <time>2020-01-19T10:14:25Z</time>
      </trkpt>
      <trkpt lat="40.7552000" lon="-8.1722310">
        <ele>227.8</ele>
        <time>2020-01-19T10:14:28Z</time>
      </trkpt>
      <trkpt lat="40.7551850" lon="-8.1721840">
        <ele>228.0</ele>
        <time>2020-01-19T10:14:31Z</time>
      </trkpt>
      <trkpt lat="40.7551740" lon="-8.1721230">
        <ele>228.6</ele>
        <time>2020-01-19T10:14:34Z</time>
      </trkpt>
      <trkpt lat="40.7551620" lon="-8.1720510">
        <ele>229.8</ele>
        <time>2020-01-19T10:14:38Z</time>
      </trkpt>
      <trkpt lat="40.7551500" lon="-8.1719910">
        <ele>230.8</ele>
        <time>2020-01-19T10:14:42Z</time>
      </trkpt>
      <trkpt lat="40.7551480" lon="-8.1719760">
        <ele>231.2</ele>
        <time>2020-01-19T10:14:43Z</time>
      </trkpt>
      <trkpt lat="40.7551430" lon="-8.1719600">
        <ele>231.4</ele>
        <time>2020-01-19T10:14:44Z</time>
      </trkpt>
      <trkpt lat="40.7551420" lon="-8.1719470">
        <ele>231.6</ele>
        <time>2020-01-19T10:14:45Z</time>
      </trkpt>
      <trkpt lat="40.7551440" lon="-8.1719320">
        <ele>232.0</ele>
        <time>2020-01-19T10:14:46Z</time>
      </trkpt>
      <trkpt lat="40.7551440" lon="-8.1719140">
        <ele>232.2</ele>
        <time>2020-01-19T10:14:47Z</time>
      </trkpt>
      <trkpt lat="40.7551450" lon="-8.1718980">
        <ele>232.6</ele>
        <time>2020-01-19T10:14:48Z</time>
      </trkpt>
      <trkpt lat="40.7551390" lon="-8.1718510">
        <ele>233.2</ele>
        <time>2020-01-19T10:14:51Z</time>
      </trkpt>
      <trkpt lat="40.7551350" lon="-8.1717400">
        <ele>234.4</ele>
        <time>2020-01-19T10:14:57Z</time>
      </trkpt>
      <trkpt lat="40.7551580" lon="-8.1716740">
        <ele>235.6</ele>
        <time>2020-01-19T10:15:01Z</time>
      </trkpt>
      <trkpt lat="40.7551650" lon="-8.1715980">
        <ele>236.6</ele>
        <time>2020-01-19T10:15:06Z</time>
      </trkpt>
      <trkpt lat="40.7551570" lon="-8.1715210">
        <ele>237.8</ele>
        <time>2020-01-19T10:15:10Z</time>
      </trkpt>
      <trkpt lat="40.7551660" lon="-8.1713980">
        <ele>238.8</ele>
        <time>2020-01-19T10:15:17Z</time>
      </trkpt>
      <trkpt lat="40.7551830" lon="-8.1713290">
        <ele>240.0</ele>
        <time>2020-01-19T10:15:21Z</time>
      </trkpt>
      <trkpt lat="40.7551990" lon="-8.1712680">
        <ele>241.2</ele>
        <time>2020-01-19T10:15:25Z</time>
      </trkpt>
      <trkpt lat="40.7551950" lon="-8.1711710">
        <ele>242.2</ele>
        <time>2020-01-19T10:15:30Z</time>
      </trkpt>
      <trkpt lat="40.7551950" lon="-8.1711230">
        <ele>242.6</ele>
        <time>2020-01-19T10:15:32Z</time>
      </trkpt>
      <trkpt lat="40.7551950" lon="-8.1710470">
        <ele>243.4</ele>
        <time>2020-01-19T10:15:35Z</time>
      </trkpt>
      <trkpt lat="40.7551780" lon="-8.1709220">
        <ele>244.6</ele>
        <time>2020-01-19T10:15:40Z</time>
      </trkpt>
      <trkpt lat="40.7551700" lon="-8.1708650">
        <ele>245.2</ele>
        <time>2020-01-19T10:15:42Z</time>
      </trkpt>
      <trkpt lat="40.7551680" lon="-8.1708370">
        <ele>245.6</ele>
        <time>2020-01-19T10:15:43Z</time>
      </trkpt>
      <trkpt lat="40.7551510" lon="-8.1707520">
        <ele>246.4</ele>
        <time>2020-01-19T10:15:46Z</time>
      </trkpt>
      <trkpt lat="40.7551440" lon="-8.1707270">
        <ele>246.8</ele>
        <time>2020-01-19T10:15:47Z</time>
      </trkpt>
      <trkpt lat="40.7551140" lon="-8.1706130">
        <ele>247.8</ele>
        <time>2020-01-19T10:15:51Z</time>
      </trkpt>
      <trkpt lat="40.7550850" lon="-8.1704990">
        <ele>249.0</ele>
        <time>2020-01-19T10:15:55Z</time>
      </trkpt>
      <trkpt lat="40.7550710" lon="-8.1703870">
        <ele>249.8</ele>
        <time>2020-01-19T10:15:59Z</time>
      </trkpt>
      <trkpt lat="40.7550600" lon="-8.1703200">
        <ele>250.2</ele>
        <time>2020-01-19T10:16:02Z</time>
      </trkpt>
      <trkpt lat="40.7550620" lon="-8.1702520">
        <ele>251.2</ele>
        <time>2020-01-19T10:16:05Z</time>
      </trkpt>
      <trkpt lat="40.7550580" lon="-8.1702250">
        <ele>251.6</ele>
        <time>2020-01-19T10:16:06Z</time>
      </trkpt>
      <trkpt lat="40.7550410" lon="-8.1700960">
        <ele>252.8</ele>
        <time>2020-01-19T10:16:11Z</time>
      </trkpt>
      <trkpt lat="40.7550060" lon="-8.1699490">
        <ele>253.8</ele>
        <time>2020-01-19T10:16:17Z</time>
      </trkpt>
      <trkpt lat="40.7549940" lon="-8.1699230">
        <ele>254.4</ele>
        <time>2020-01-19T10:16:18Z</time>
      </trkpt>
      <trkpt lat="40.7549820" lon="-8.1698960">
        <ele>254.6</ele>
        <time>2020-01-19T10:16:19Z</time>
      </trkpt>
      <trkpt lat="40.7550280" lon="-8.1698050">
        <ele>257.2</ele>
        <time>2020-01-19T10:19:16Z</time>
      </trkpt>
      <trkpt lat="40.7550380" lon="-8.1698090">
        <ele>258.2</ele>
        <time>2020-01-19T10:19:17Z</time>
      </trkpt>
      <trkpt lat="40.7550640" lon="-8.1698190">
        <ele>258.4</ele>
        <time>2020-01-19T10:19:19Z</time>
      </trkpt>
      <trkpt lat="40.7552430" lon="-8.1698780">
        <ele>259.0</ele>
        <time>2020-01-19T10:19:27Z</time>
      </trkpt>
      <trkpt lat="40.7552700" lon="-8.1698920">
        <ele>259.2</ele>
        <time>2020-01-19T10:19:28Z</time>
      </trkpt>
      <trkpt lat="40.7552970" lon="-8.1699070">
        <ele>259.6</ele>
        <time>2020-01-19T10:19:29Z</time>
      </trkpt>
      <trkpt lat="40.7554000" lon="-8.1699630">
        <ele>258.2</ele>
        <time>2020-01-19T10:19:33Z</time>
      </trkpt>
      <trkpt lat="40.7554510" lon="-8.1699950">
        <ele>258.4</ele>
        <time>2020-01-19T10:19:35Z</time>
      </trkpt>
      <trkpt lat="40.7554780" lon="-8.1700100">
        <ele>258.6</ele>
        <time>2020-01-19T10:19:36Z</time>
      </trkpt>
      <trkpt lat="40.7555070" lon="-8.1700240">
        <ele>258.6</ele>
        <time>2020-01-19T10:19:37Z</time>
      </trkpt>
      <trkpt lat="40.7555360" lon="-8.1700360">
        <ele>258.6</ele>
        <time>2020-01-19T10:19:38Z</time>
      </trkpt>
      <trkpt lat="40.7555960" lon="-8.1700580">
        <ele>258.8</ele>
        <time>2020-01-19T10:19:40Z</time>
      </trkpt>
      <trkpt lat="40.7556250" lon="-8.1700670">
        <ele>259.2</ele>
        <time>2020-01-19T10:19:41Z</time>
      </trkpt>
      <trkpt lat="40.7556530" lon="-8.1700740">
        <ele>259.4</ele>
        <time>2020-01-19T10:19:42Z</time>
      </trkpt>
      <trkpt lat="40.7556770" lon="-8.1700770">
        <ele>259.4</ele>
        <time>2020-01-19T10:19:43Z</time>
      </trkpt>
      <trkpt lat="40.7558550" lon="-8.1700600">
        <ele>259.8</ele>
        <time>2020-01-19T10:19:49Z</time>
      </trkpt>
      <trkpt lat="40.7558820" lon="-8.1700450">
        <ele>259.8</ele>
        <time>2020-01-19T10:19:50Z</time>
      </trkpt>
      <trkpt lat="40.7560460" lon="-8.1699570">
        <ele>260.4</ele>
        <time>2020-01-19T10:19:56Z</time>
      </trkpt>
      <trkpt lat="40.7561000" lon="-8.1699300">
        <ele>260.4</ele>
        <time>2020-01-19T10:19:58Z</time>
      </trkpt>
      <trkpt lat="40.7562070" lon="-8.1698840">
        <ele>260.8</ele>
        <time>2020-01-19T10:20:02Z</time>
      </trkpt>
      <trkpt lat="40.7562620" lon="-8.1698680">
        <ele>261.2</ele>
        <time>2020-01-19T10:20:04Z</time>
      </trkpt>
      <trkpt lat="40.7563210" lon="-8.1698540">
        <ele>261.4</ele>
        <time>2020-01-19T10:20:06Z</time>
      </trkpt>
      <trkpt lat="40.7563520" lon="-8.1698460">
        <ele>261.4</ele>
        <time>2020-01-19T10:20:07Z</time>
      </trkpt>
      <trkpt lat="40.7565370" lon="-8.1698020">
        <ele>261.6</ele>
        <time>2020-01-19T10:20:13Z</time>
      </trkpt>
      <trkpt lat="40.7567360" lon="-8.1697440">
        <ele>262.2</ele>
        <time>2020-01-19T10:20:20Z</time>
      </trkpt>
      <trkpt lat="40.7568490" lon="-8.1697110">
        <ele>262.4</ele>
        <time>2020-01-19T10:20:24Z</time>
      </trkpt>
      <trkpt lat="40.7570340" lon="-8.1696900">
        <ele>263.2</ele>
        <time>2020-01-19T10:20:31Z</time>
      </trkpt>
      <trkpt lat="40.7572100" lon="-8.1697390">
        <ele>263.4</ele>
        <time>2020-01-19T10:20:37Z</time>
      </trkpt>
      <trkpt lat="40.7572710" lon="-8.1697570">
        <ele>263.6</ele>
        <time>2020-01-19T10:20:39Z</time>
      </trkpt>
      <trkpt lat="40.7574490" lon="-8.1698270">
        <ele>264.0</ele>
        <time>2020-01-19T10:20:45Z</time>
      </trkpt>
      <trkpt lat="40.7576340" lon="-8.1699110">
        <ele>264.0</ele>
        <time>2020-01-19T10:20:52Z</time>
      </trkpt>
      <trkpt lat="40.7577650" lon="-8.1699800">
        <ele>264.4</ele>
        <time>2020-01-19T10:20:57Z</time>
      </trkpt>
      <trkpt lat="40.7578170" lon="-8.1700060">
        <ele>264.6</ele>
        <time>2020-01-19T10:20:59Z</time>
      </trkpt>
      <trkpt lat="40.7580040" lon="-8.1700890">
        <ele>265.4</ele>
        <time>2020-01-19T10:21:06Z</time>
      </trkpt>
      <trkpt lat="40.7580320" lon="-8.1700970">
        <ele>265.6</ele>
        <time>2020-01-19T10:21:07Z</time>
      </trkpt>
      <trkpt lat="40.7582320" lon="-8.1700760">
        <ele>266.0</ele>
        <time>2020-01-19T10:21:14Z</time>
      </trkpt>
      <trkpt lat="40.7583240" lon="-8.1700440">
        <ele>267.0</ele>
        <time>2020-01-19T10:21:17Z</time>
      </trkpt>
      <trkpt lat="40.7585020" lon="-8.1699730">
        <ele>268.0</ele>
        <time>2020-01-19T10:21:23Z</time>
      </trkpt>
      <trkpt lat="40.7586750" lon="-8.1698980">
        <ele>268.4</ele>
        <time>2020-01-19T10:21:29Z</time>
      </trkpt>
      <trkpt lat="40.7588470" lon="-8.1698270">
        <ele>268.8</ele>
        <time>2020-01-19T10:21:35Z</time>
      </trkpt>
      <trkpt lat="40.7588760" lon="-8.1698150">
        <ele>269.2</ele>
        <time>2020-01-19T10:21:36Z</time>
      </trkpt>
      <trkpt lat="40.7590160" lon="-8.1697640">
        <ele>270.2</ele>
        <time>2020-01-19T10:21:41Z</time>
      </trkpt>
      <trkpt lat="40.7592100" lon="-8.1696800">
        <ele>271.0</ele>
        <time>2020-01-19T10:21:48Z</time>
      </trkpt>
      <trkpt lat="40.7592750" lon="-8.1696550">
        <ele>271.2</ele>
        <time>2020-01-19T10:21:50Z</time>
      </trkpt>
      <trkpt lat="40.7594020" lon="-8.1695920">
        <ele>271.6</ele>
        <time>2020-01-19T10:21:55Z</time>
      </trkpt>
      <trkpt lat="40.7595880" lon="-8.1696220">
        <ele>272.0</ele>
        <time>2020-01-19T10:22:02Z</time>
      </trkpt>
      <trkpt lat="40.7597560" lon="-8.1697330">
        <ele>271.8</ele>
        <time>2020-01-19T10:22:08Z</time>
      </trkpt>
      <trkpt lat="40.7599260" lon="-8.1698420">
        <ele>271.8</ele>
        <time>2020-01-19T10:22:14Z</time>
      </trkpt>
      <trkpt lat="40.7599830" lon="-8.1698750">
        <ele>271.8</ele>
        <time>2020-01-19T10:22:16Z</time>
      </trkpt>
      <trkpt lat="40.7600110" lon="-8.1698940">
        <ele>271.8</ele>
        <time>2020-01-19T10:22:17Z</time>
      </trkpt>
      <trkpt lat="40.7600920" lon="-8.1699520">
        <ele>271.6</ele>
        <time>2020-01-19T10:22:20Z</time>
      </trkpt>
      <trkpt lat="40.7601450" lon="-8.1699980">
        <ele>271.4</ele>
        <time>2020-01-19T10:22:22Z</time>
      </trkpt>
      <trkpt lat="40.7601710" lon="-8.1700220">
        <ele>271.4</ele>
        <time>2020-01-19T10:22:23Z</time>
      </trkpt>
      <trkpt lat="40.7603280" lon="-8.1701600">
        <ele>271.4</ele>
        <time>2020-01-19T10:22:29Z</time>
      </trkpt>
      <trkpt lat="40.7604840" lon="-8.1702920">
        <ele>271.2</ele>
        <time>2020-01-19T10:22:35Z</time>
      </trkpt>
      <trkpt lat="40.7605360" lon="-8.1703360">
        <ele>271.4</ele>
        <time>2020-01-19T10:22:37Z</time>
      </trkpt>
      <trkpt lat="40.7607080" lon="-8.1704420">
        <ele>271.6</ele>
        <time>2020-01-19T10:22:43Z</time>
      </trkpt>
      <trkpt lat="40.7607670" lon="-8.1704710">
        <ele>271.8</ele>
        <time>2020-01-19T10:22:45Z</time>
      </trkpt>
      <trkpt lat="40.7609260" lon="-8.1705460">
        <ele>271.6</ele>
        <time>2020-01-19T10:22:51Z</time>
      </trkpt>
      <trkpt lat="40.7609770" lon="-8.1705750">
        <ele>271.8</ele>
        <time>2020-01-19T10:22:53Z</time>
      </trkpt>
      <trkpt lat="40.7611390" lon="-8.1706940">
        <ele>272.0</ele>
        <time>2020-01-19T10:22:59Z</time>
      </trkpt>
      <trkpt lat="40.7613000" lon="-8.1708080">
        <ele>271.8</ele>
        <time>2020-01-19T10:23:05Z</time>
      </trkpt>
      <trkpt lat="40.7613470" lon="-8.1708360">
        <ele>271.8</ele>
        <time>2020-01-19T10:23:07Z</time>
      </trkpt>
      <trkpt lat="40.7614520" lon="-8.1708900">
        <ele>272.2</ele>
        <time>2020-01-19T10:23:11Z</time>
      </trkpt>
      <trkpt lat="40.7616390" lon="-8.1709830">
        <ele>273.2</ele>
        <time>2020-01-19T10:23:19Z</time>
      </trkpt>
      <trkpt lat="40.7616590" lon="-8.1709920">
        <ele>273.4</ele>
        <time>2020-01-19T10:23:20Z</time>
      </trkpt>
      <trkpt lat="40.7617590" lon="-8.1710820">
        <ele>274.6</ele>
        <time>2020-01-19T10:23:25Z</time>
      </trkpt>
      <trkpt lat="40.7618860" lon="-8.1712130">
        <ele>275.6</ele>
        <time>2020-01-19T10:23:31Z</time>
      </trkpt>
      <trkpt lat="40.7619500" lon="-8.1712670">
        <ele>276.2</ele>
        <time>2020-01-19T10:23:34Z</time>
      </trkpt>
      <trkpt lat="40.7619910" lon="-8.1713080">
        <ele>276.6</ele>
        <time>2020-01-19T10:23:36Z</time>
      </trkpt>
      <trkpt lat="40.7620750" lon="-8.1713940">
        <ele>278.0</ele>
        <time>2020-01-19T10:23:40Z</time>
      </trkpt>
      <trkpt lat="40.7621360" lon="-8.1714640">
        <ele>279.0</ele>
        <time>2020-01-19T10:23:43Z</time>
      </trkpt>
      <trkpt lat="40.7622830" lon="-8.1716130">
        <ele>280.0</ele>
        <time>2020-01-19T10:23:50Z</time>
      </trkpt>
      <trkpt lat="40.7624620" lon="-8.1716600">
        <ele>280.8</ele>
        <time>2020-01-19T10:23:58Z</time>
      </trkpt>
      <trkpt lat="40.7625180" lon="-8.1715740">
        <ele>281.2</ele>
        <time>2020-01-19T10:24:01Z</time>
      </trkpt>
      <trkpt lat="40.7625460" lon="-8.1714040">
        <ele>282.4</ele>
        <time>2020-01-19T10:24:06Z</time>
      </trkpt>
      <trkpt lat="40.7625140" lon="-8.1711950">
        <ele>283.6</ele>
        <time>2020-01-19T10:24:12Z</time>
      </trkpt>
      <trkpt lat="40.7624780" lon="-8.1709440">
        <ele>283.6</ele>
        <time>2020-01-19T10:24:19Z</time>
      </trkpt>
      <trkpt lat="40.7624320" lon="-8.1707140">
        <ele>282.8</ele>
        <time>2020-01-19T10:24:25Z</time>
      </trkpt>
      <trkpt lat="40.7623930" lon="-8.1704720">
        <ele>282.6</ele>
        <time>2020-01-19T10:24:31Z</time>
      </trkpt>
      <trkpt lat="40.7623780" lon="-8.1703890">
        <ele>282.4</ele>
        <time>2020-01-19T10:24:33Z</time>
      </trkpt>
      <trkpt lat="40.7623470" lon="-8.1701480">
        <ele>282.2</ele>
        <time>2020-01-19T10:24:39Z</time>
      </trkpt>
      <trkpt lat="40.7623130" lon="-8.1700250">
        <ele>281.4</ele>
        <time>2020-01-19T10:24:42Z</time>
      </trkpt>
      <trkpt lat="40.7622870" lon="-8.1698460">
        <ele>281.0</ele>
        <time>2020-01-19T10:24:47Z</time>
      </trkpt>
      <trkpt lat="40.7623290" lon="-8.1697120">
        <ele>280.4</ele>
        <time>2020-01-19T10:24:51Z</time>
      </trkpt>
      <trkpt lat="40.7623920" lon="-8.1695910">
        <ele>279.2</ele>
        <time>2020-01-19T10:24:55Z</time>
      </trkpt>
      <trkpt lat="40.7625020" lon="-8.1694530">
        <ele>278.0</ele>
        <time>2020-01-19T10:25:00Z</time>
      </trkpt>
      <trkpt lat="40.7625920" lon="-8.1693430">
        <ele>276.6</ele>
        <time>2020-01-19T10:25:04Z</time>
      </trkpt>
      <trkpt lat="40.7626660" lon="-8.1692440">
        <ele>275.2</ele>
        <time>2020-01-19T10:25:08Z</time>
      </trkpt>
      <trkpt lat="40.7627270" lon="-8.1692110">
        <ele>274.0</ele>
        <time>2020-01-19T10:25:10Z</time>
      </trkpt>
      <trkpt lat="40.7628490" lon="-8.1691690">
        <ele>272.6</ele>
        <time>2020-01-19T10:25:13Z</time>
      </trkpt>
      <trkpt lat="40.7629030" lon="-8.1691450">
        <ele>271.4</ele>
        <time>2020-01-19T10:25:15Z</time>
      </trkpt>
      <trkpt lat="40.7630290" lon="-8.1690950">
        <ele>270.2</ele>
        <time>2020-01-19T10:25:20Z</time>
      </trkpt>
      <trkpt lat="40.7631210" lon="-8.1690750">
        <ele>269.0</ele>
        <time>2020-01-19T10:25:23Z</time>
      </trkpt>
      <trkpt lat="40.7632190" lon="-8.1690630">
        <ele>267.6</ele>
        <time>2020-01-19T10:25:26Z</time>
      </trkpt>
      <trkpt lat="40.7632760" lon="-8.1690560">
        <ele>266.4</ele>
        <time>2020-01-19T10:25:28Z</time>
      </trkpt>
      <trkpt lat="40.7633890" lon="-8.1690380">
        <ele>264.4</ele>
        <time>2020-01-19T10:25:32Z</time>
      </trkpt>
      <trkpt lat="40.7634660" lon="-8.1690340">
        <ele>263.0</ele>
        <time>2020-01-19T10:25:35Z</time>
      </trkpt>
      <trkpt lat="40.7635530" lon="-8.1690500">
        <ele>262.0</ele>
        <time>2020-01-19T10:25:38Z</time>
      </trkpt>
      <trkpt lat="40.7636280" lon="-8.1690710">
        <ele>260.6</ele>
        <time>2020-01-19T10:25:40Z</time>
      </trkpt>
      <trkpt lat="40.7637130" lon="-8.1691470">
        <ele>259.6</ele>
        <time>2020-01-19T10:25:43Z</time>
      </trkpt>
      <trkpt lat="40.7637240" lon="-8.1692080">
        <ele>258.4</ele>
        <time>2020-01-19T10:25:45Z</time>
      </trkpt>
      <trkpt lat="40.7637120" lon="-8.1692390">
        <ele>258.0</ele>
        <time>2020-01-19T10:25:46Z</time>
      </trkpt>
      <trkpt lat="40.7636250" lon="-8.1693030">
        <ele>256.6</ele>
        <time>2020-01-19T10:25:49Z</time>
      </trkpt>
      <trkpt lat="40.7635620" lon="-8.1693380">
        <ele>255.4</ele>
        <time>2020-01-19T10:25:51Z</time>
      </trkpt>
      <trkpt lat="40.7635140" lon="-8.1693660">
        <ele>254.6</ele>
        <time>2020-01-19T10:25:53Z</time>
      </trkpt>
      <trkpt lat="40.7635360" lon="-8.1694010">
        <ele>250.8</ele>
        <time>2020-01-19T10:26:10Z</time>
      </trkpt>
      <trkpt lat="40.7635320" lon="-8.1694320">
        <ele>251.0</ele>
        <time>2020-01-19T10:26:11Z</time>
      </trkpt>
      <trkpt lat="40.7635120" lon="-8.1695750">
        <ele>251.0</ele>
        <time>2020-01-19T10:26:15Z</time>
      </trkpt>
      <trkpt lat="40.7635990" lon="-8.1697480">
        <ele>251.2</ele>
        <time>2020-01-19T10:26:20Z</time>
      </trkpt>
      <trkpt lat="40.7636460" lon="-8.1697820">
        <ele>251.2</ele>
        <time>2020-01-19T10:26:22Z</time>
      </trkpt>
      <trkpt lat="40.7637930" lon="-8.1698460">
        <ele>251.4</ele>
        <time>2020-01-19T10:26:29Z</time>
      </trkpt>
      <trkpt lat="40.7638140" lon="-8.1698500">
        <ele>251.8</ele>
        <time>2020-01-19T10:26:30Z</time>
      </trkpt>
      <trkpt lat="40.7638340" lon="-8.1698550">
        <ele>252.2</ele>
        <time>2020-01-19T10:26:31Z</time>
      </trkpt>
      <trkpt lat="40.7638520" lon="-8.1698620">
        <ele>252.6</ele>
        <time>2020-01-19T10:26:32Z</time>
      </trkpt>
      <trkpt lat="40.7638910" lon="-8.1698700">
        <ele>253.0</ele>
        <time>2020-01-19T10:26:34Z</time>
      </trkpt>
      <trkpt lat="40.7639660" lon="-8.1698920">
        <ele>254.0</ele>
        <time>2020-01-19T10:26:38Z</time>
      </trkpt>
      <trkpt lat="40.7640210" lon="-8.1699310">
        <ele>255.2</ele>
        <time>2020-01-19T10:26:41Z</time>
      </trkpt>
      <trkpt lat="40.7640750" lon="-8.1699590">
        <ele>256.6</ele>
        <time>2020-01-19T10:26:44Z</time>
      </trkpt>
      <trkpt lat="40.7641270" lon="-8.1699930">
        <ele>257.8</ele>
        <time>2020-01-19T10:26:47Z</time>
      </trkpt>
      <trkpt lat="40.7641890" lon="-8.1700500">
        <ele>259.2</ele>
        <time>2020-01-19T10:26:51Z</time>
      </trkpt>
      <trkpt lat="40.7642720" lon="-8.1701470">
        <ele>260.4</ele>
        <time>2020-01-19T10:26:57Z</time>
      </trkpt>
      <trkpt lat="40.7643350" lon="-8.1702230">
        <ele>261.4</ele>
        <time>2020-01-19T10:27:02Z</time>
      </trkpt>
      <trkpt lat="40.7643730" lon="-8.1702690">
        <ele>262.4</ele>
        <time>2020-01-19T10:27:05Z</time>
      </trkpt>
      <trkpt lat="40.7644290" lon="-8.1703250">
        <ele>263.6</ele>
        <time>2020-01-19T10:27:09Z</time>
      </trkpt>
      <trkpt lat="40.7644750" lon="-8.1703560">
        <ele>264.6</ele>
        <time>2020-01-19T10:27:12Z</time>
      </trkpt>
      <trkpt lat="40.7645190" lon="-8.1703780">
        <ele>265.8</ele>
        <time>2020-01-19T10:27:15Z</time>
      </trkpt>
      <trkpt lat="40.7645830" lon="-8.1703940">
        <ele>267.0</ele>
        <time>2020-01-19T10:27:19Z</time>
      </trkpt>
      <trkpt lat="40.7646340" lon="-8.1703970">
        <ele>268.0</ele>
        <time>2020-01-19T10:27:22Z</time>
      </trkpt>
      <trkpt lat="40.7647330" lon="-8.1703820">
        <ele>269.2</ele>
        <time>2020-01-19T10:27:28Z</time>
      </trkpt>
      <trkpt lat="40.7647780" lon="-8.1703800">
        <ele>270.2</ele>
        <time>2020-01-19T10:27:31Z</time>
      </trkpt>
      <trkpt lat="40.7648370" lon="-8.1703650">
        <ele>271.4</ele>
        <time>2020-01-19T10:27:35Z</time>
      </trkpt>
      <trkpt lat="40.7649570" lon="-8.1703440">
        <ele>272.4</ele>
        <time>2020-01-19T10:27:43Z</time>
      </trkpt>
      <trkpt lat="40.7650020" lon="-8.1703240">
        <ele>273.6</ele>
        <time>2020-01-19T10:27:46Z</time>
      </trkpt>
      <trkpt lat="40.7650520" lon="-8.1703120">
        <ele>274.8</ele>
        <time>2020-01-19T10:27:49Z</time>
      </trkpt>
      <trkpt lat="40.7651550" lon="-8.1702960">
        <ele>276.0</ele>
        <time>2020-01-19T10:27:55Z</time>
      </trkpt>
      <trkpt lat="40.7652190" lon="-8.1702960">
        <ele>277.2</ele>
        <time>2020-01-19T10:27:59Z</time>
      </trkpt>
      <trkpt lat="40.7652800" lon="-8.1702950">
        <ele>278.6</ele>
        <time>2020-01-19T10:28:03Z</time>
      </trkpt>
      <trkpt lat="40.7653350" lon="-8.1703010">
        <ele>279.6</ele>
        <time>2020-01-19T10:28:07Z</time>
      </trkpt>
      <trkpt lat="40.7654410" lon="-8.1703230">
        <ele>280.8</ele>
        <time>2020-01-19T10:28:14Z</time>
      </trkpt>
      <trkpt lat="40.7654730" lon="-8.1703360">
        <ele>281.6</ele>
        <time>2020-01-19T10:28:16Z</time>
      </trkpt>
      <trkpt lat="40.7654910" lon="-8.1703410">
        <ele>282.0</ele>
        <time>2020-01-19T10:28:17Z</time>
      </trkpt>
      <trkpt lat="40.7655370" lon="-8.1703660">
        <ele>283.2</ele>
        <time>2020-01-19T10:28:20Z</time>
      </trkpt>
      <trkpt lat="40.7655710" lon="-8.1703810">
        <ele>283.6</ele>
        <time>2020-01-19T10:28:22Z</time>
      </trkpt>
      <trkpt lat="40.7656100" lon="-8.1704150">
        <ele>284.2</ele>
        <time>2020-01-19T10:28:25Z</time>
      </trkpt>
      <trkpt lat="40.7656800" lon="-8.1704800">
        <ele>285.4</ele>
        <time>2020-01-19T10:28:30Z</time>
      </trkpt>
      <trkpt lat="40.7657590" lon="-8.1705850">
        <ele>286.6</ele>
        <time>2020-01-19T10:28:36Z</time>
      </trkpt>
      <trkpt lat="40.7657790" lon="-8.1706180">
        <ele>287.0</ele>
        <time>2020-01-19T10:28:38Z</time>
      </trkpt>
      <trkpt lat="40.7658090" lon="-8.1706770">
        <ele>287.6</ele>
        <time>2020-01-19T10:28:41Z</time>
      </trkpt>
      <trkpt lat="40.7658410" lon="-8.1707490">
        <ele>288.8</ele>
        <time>2020-01-19T10:28:45Z</time>
      </trkpt>
      <trkpt lat="40.7658890" lon="-8.1708930">
        <ele>290.0</ele>
        <time>2020-01-19T10:28:52Z</time>
      </trkpt>
      <trkpt lat="40.7659280" lon="-8.1709950">
        <ele>291.0</ele>
        <time>2020-01-19T10:28:57Z</time>
      </trkpt>
      <trkpt lat="40.7659600" lon="-8.1710810">
        <ele>292.2</ele>
        <time>2020-01-19T10:29:01Z</time>
      </trkpt>
      <trkpt lat="40.7659800" lon="-8.1711710">
        <ele>293.4</ele>
        <time>2020-01-19T10:29:05Z</time>
      </trkpt>
      <trkpt lat="40.7660070" lon="-8.1712230">
        <ele>294.2</ele>
        <time>2020-01-19T10:29:08Z</time>
      </trkpt>
      <trkpt lat="40.7660280" lon="-8.1712500">
        <ele>294.6</ele>
        <time>2020-01-19T10:29:10Z</time>
      </trkpt>
      <trkpt lat="40.7660850" lon="-8.1713340">
        <ele>295.8</ele>
        <time>2020-01-19T10:29:16Z</time>
      </trkpt>
      <trkpt lat="40.7661180" lon="-8.1713920">
        <ele>297.2</ele>
        <time>2020-01-19T10:29:20Z</time>
      </trkpt>
      <trkpt lat="40.7661710" lon="-8.1714590">
        <ele>298.6</ele>
        <time>2020-01-19T10:29:25Z</time>
      </trkpt>
      <trkpt lat="40.7662050" lon="-8.1715000">
        <ele>299.4</ele>
        <time>2020-01-19T10:29:28Z</time>
      </trkpt>
      <trkpt lat="40.7662160" lon="-8.1715130">
        <ele>300.0</ele>
        <time>2020-01-19T10:29:29Z</time>
      </trkpt>
      <trkpt lat="40.7662480" lon="-8.1715700">
        <ele>301.0</ele>
        <time>2020-01-19T10:29:33Z</time>
      </trkpt>
      <trkpt lat="40.7662950" lon="-8.1716830">
        <ele>302.0</ele>
        <time>2020-01-19T10:29:39Z</time>
      </trkpt>
      <trkpt lat="40.7663130" lon="-8.1717710">
        <ele>303.2</ele>
        <time>2020-01-19T10:29:43Z</time>
      </trkpt>
      <trkpt lat="40.7663440" lon="-8.1718740">
        <ele>304.2</ele>
        <time>2020-01-19T10:29:48Z</time>
      </trkpt>
      <trkpt lat="40.7663830" lon="-8.1719580">
        <ele>305.4</ele>
        <time>2020-01-19T10:29:52Z</time>
      </trkpt>
      <trkpt lat="40.7664890" lon="-8.1720940">
        <ele>306.4</ele>
        <time>2020-01-19T10:29:59Z</time>
      </trkpt>
      <trkpt lat="40.7666070" lon="-8.1721480">
        <ele>307.6</ele>
        <time>2020-01-19T10:30:06Z</time>
      </trkpt>
      <trkpt lat="40.7667360" lon="-8.1721290">
        <ele>308.6</ele>
        <time>2020-01-19T10:30:13Z</time>
      </trkpt>
      <trkpt lat="40.7668470" lon="-8.1720890">
        <ele>309.8</ele>
        <time>2020-01-19T10:30:19Z</time>
      </trkpt>
      <trkpt lat="40.7670150" lon="-8.1720300">
        <ele>310.8</ele>
        <time>2020-01-19T10:30:27Z</time>
      </trkpt>
      <trkpt lat="40.7671840" lon="-8.1719650">
        <ele>311.8</ele>
        <time>2020-01-19T10:30:36Z</time>
      </trkpt>
      <trkpt lat="40.7672950" lon="-8.1719590">
        <ele>313.0</ele>
        <time>2020-01-19T10:30:42Z</time>
      </trkpt>
      <trkpt lat="40.7673610" lon="-8.1719600">
        <ele>314.2</ele>
        <time>2020-01-19T10:30:46Z</time>
      </trkpt>
      <trkpt lat="40.7674520" lon="-8.1719550">
        <ele>315.0</ele>
        <time>2020-01-19T10:30:50Z</time>
      </trkpt>
      <trkpt lat="40.7674770" lon="-8.1719530">
        <ele>315.6</ele>
        <time>2020-01-19T10:30:51Z</time>
      </trkpt>
      <trkpt lat="40.7676130" lon="-8.1719630">
        <ele>316.6</ele>
        <time>2020-01-19T10:30:57Z</time>
      </trkpt>
      <trkpt lat="40.7677380" lon="-8.1720560">
        <ele>317.6</ele>
        <time>2020-01-19T10:31:04Z</time>
      </trkpt>
      <trkpt lat="40.7677890" lon="-8.1721000">
        <ele>318.8</ele>
        <time>2020-01-19T10:31:07Z</time>
      </trkpt>
      <trkpt lat="40.7679110" lon="-8.1722890">
        <ele>319.6</ele>
        <time>2020-01-19T10:31:16Z</time>
      </trkpt>
      <trkpt lat="40.7679240" lon="-8.1723120">
        <ele>319.8</ele>
        <time>2020-01-19T10:31:17Z</time>
      </trkpt>
      <trkpt lat="40.7680000" lon="-8.1724550">
        <ele>320.8</ele>
        <time>2020-01-19T10:31:23Z</time>
      </trkpt>
      <trkpt lat="40.7680220" lon="-8.1725050">
        <ele>321.8</ele>
        <time>2020-01-19T10:31:25Z</time>
      </trkpt>
      <trkpt lat="40.7680680" lon="-8.1725720">
        <ele>323.0</ele>
        <time>2020-01-19T10:31:28Z</time>
      </trkpt>
      <trkpt lat="40.7682290" lon="-8.1726600">
        <ele>323.8</ele>
        <time>2020-01-19T10:31:37Z</time>
      </trkpt>
      <trkpt lat="40.7682460" lon="-8.1726680">
        <ele>323.8</ele>
        <time>2020-01-19T10:31:40Z</time>
      </trkpt>
      <trkpt lat="40.7684150" lon="-8.1727600">
        <ele>323.0</ele>
        <time>2020-01-19T10:31:45Z</time>
      </trkpt>
      <trkpt lat="40.7684720" lon="-8.1727880">
        <ele>322.4</ele>
        <time>2020-01-19T10:31:47Z</time>
      </trkpt>
      <trkpt lat="40.7685450" lon="-8.1728310">
        <ele>321.8</ele>
        <time>2020-01-19T10:31:50Z</time>
      </trkpt>
      <trkpt lat="40.7686830" lon="-8.1729370">
        <ele>321.2</ele>
        <time>2020-01-19T10:31:55Z</time>
      </trkpt>
      <trkpt lat="40.7686900" lon="-8.1729700">
        <ele>321.0</ele>
        <time>2020-01-19T10:31:56Z</time>
      </trkpt>
      <trkpt lat="40.7686990" lon="-8.1730480">
        <ele>320.8</ele>
        <time>2020-01-19T10:31:58Z</time>
      </trkpt>
      <trkpt lat="40.7686840" lon="-8.1733030">
        <ele>321.0</ele>
        <time>2020-01-19T10:32:05Z</time>
      </trkpt>
      <trkpt lat="40.7686790" lon="-8.1734860">
        <ele>321.2</ele>
        <time>2020-01-19T10:32:10Z</time>
      </trkpt>
      <trkpt lat="40.7686800" lon="-8.1735220">
        <ele>321.2</ele>
        <time>2020-01-19T10:32:11Z</time>
      </trkpt>
      <trkpt lat="40.7686790" lon="-8.1735570">
        <ele>321.2</ele>
        <time>2020-01-19T10:32:12Z</time>
      </trkpt>
      <trkpt lat="40.7686760" lon="-8.1735940">
        <ele>321.4</ele>
        <time>2020-01-19T10:32:13Z</time>
      </trkpt>
      <trkpt lat="40.7686680" lon="-8.1737400">
        <ele>321.6</ele>
        <time>2020-01-19T10:32:17Z</time>
      </trkpt>
      <trkpt lat="40.7686640" lon="-8.1737740">
        <ele>321.6</ele>
        <time>2020-01-19T10:32:18Z</time>
      </trkpt>
      <trkpt lat="40.7686600" lon="-8.1738080">
        <ele>321.6</ele>
        <time>2020-01-19T10:32:19Z</time>
      </trkpt>
      <trkpt lat="40.7686550" lon="-8.1738380">
        <ele>321.6</ele>
        <time>2020-01-19T10:32:20Z</time>
      </trkpt>
      <trkpt lat="40.7686080" lon="-8.1740430">
        <ele>321.6</ele>
        <time>2020-01-19T10:32:26Z</time>
      </trkpt>
      <trkpt lat="40.7685590" lon="-8.1742140">
        <ele>321.6</ele>
        <time>2020-01-19T10:32:31Z</time>
      </trkpt>
      <trkpt lat="40.7684980" lon="-8.1744490">
        <ele>321.4</ele>
        <time>2020-01-19T10:32:38Z</time>
      </trkpt>
      <trkpt lat="40.7684830" lon="-8.1746900">
        <ele>321.6</ele>
        <time>2020-01-19T10:32:45Z</time>
      </trkpt>
      <trkpt lat="40.7684940" lon="-8.1747580">
        <ele>322.0</ele>
        <time>2020-01-19T10:32:47Z</time>
      </trkpt>
      <trkpt lat="40.7685730" lon="-8.1749730">
        <ele>323.2</ele>
        <time>2020-01-19T10:32:54Z</time>
      </trkpt>
      <trkpt lat="40.7687020" lon="-8.1751470">
        <ele>323.8</ele>
        <time>2020-01-19T10:33:01Z</time>
      </trkpt>
      <trkpt lat="40.7687900" lon="-8.1752090">
        <ele>324.2</ele>
        <time>2020-01-19T10:33:05Z</time>
      </trkpt>
      <trkpt lat="40.7689560" lon="-8.1752840">
        <ele>325.0</ele>
        <time>2020-01-19T10:33:12Z</time>
      </trkpt>
      <trkpt lat="40.7690030" lon="-8.1753050">
        <ele>325.2</ele>
        <time>2020-01-19T10:33:14Z</time>
      </trkpt>
      <trkpt lat="40.7691930" lon="-8.1753870">
        <ele>326.0</ele>
        <time>2020-01-19T10:33:22Z</time>
      </trkpt>
      <trkpt lat="40.7692420" lon="-8.1754080">
        <ele>326.4</ele>
        <time>2020-01-19T10:33:24Z</time>
      </trkpt>
      <trkpt lat="40.7694030" lon="-8.1754810">
        <ele>327.4</ele>
        <time>2020-01-19T10:33:31Z</time>
      </trkpt>
      <trkpt lat="40.7695310" lon="-8.1756330">
        <ele>328.6</ele>
        <time>2020-01-19T10:33:38Z</time>
      </trkpt>
      <trkpt lat="40.7695660" lon="-8.1758650">
        <ele>329.4</ele>
        <time>2020-01-19T10:33:46Z</time>
      </trkpt>
      <trkpt lat="40.7695400" lon="-8.1759470">
        <ele>329.6</ele>
        <time>2020-01-19T10:33:49Z</time>
      </trkpt>
      <trkpt lat="40.7694220" lon="-8.1761340">
        <ele>330.2</ele>
        <time>2020-01-19T10:33:57Z</time>
      </trkpt>
      <trkpt lat="40.7693830" lon="-8.1762100">
        <ele>330.6</ele>
        <time>2020-01-19T10:34:00Z</time>
      </trkpt>
      <trkpt lat="40.7693030" lon="-8.1763500">
        <ele>331.6</ele>
        <time>2020-01-19T10:34:06Z</time>
      </trkpt>
      <trkpt lat="40.7692440" lon="-8.1764760">
        <ele>332.6</ele>
        <time>2020-01-19T10:34:11Z</time>
      </trkpt>
      <trkpt lat="40.7691990" lon="-8.1766170">
        <ele>333.8</ele>
        <time>2020-01-19T10:34:16Z</time>
      </trkpt>
      <trkpt lat="40.7691790" lon="-8.1768710">
        <ele>334.8</ele>
        <time>2020-01-19T10:34:24Z</time>
      </trkpt>
      <trkpt lat="40.7692030" lon="-8.1771170">
        <ele>335.4</ele>
        <time>2020-01-19T10:34:32Z</time>
      </trkpt>
      <trkpt lat="40.7692370" lon="-8.1772420">
        <ele>335.8</ele>
        <time>2020-01-19T10:34:36Z</time>
      </trkpt>
      <trkpt lat="40.7693040" lon="-8.1774960">
        <ele>336.8</ele>
        <time>2020-01-19T10:34:44Z</time>
      </trkpt>
      <trkpt lat="40.7693310" lon="-8.1775900">
        <ele>337.0</ele>
        <time>2020-01-19T10:34:47Z</time>
      </trkpt>
      <trkpt lat="40.7694060" lon="-8.1778120">
        <ele>338.0</ele>
        <time>2020-01-19T10:34:55Z</time>
      </trkpt>
      <trkpt lat="40.7694180" lon="-8.1778390">
        <ele>338.0</ele>
        <time>2020-01-19T10:34:56Z</time>
      </trkpt>
      <trkpt lat="40.7694640" lon="-8.1780400">
        <ele>339.2</ele>
        <time>2020-01-19T10:35:03Z</time>
      </trkpt>
      <trkpt lat="40.7694720" lon="-8.1782320">
        <ele>340.2</ele>
        <time>2020-01-19T10:35:10Z</time>
      </trkpt>
      <trkpt lat="40.7693760" lon="-8.1784480">
        <ele>340.6</ele>
        <time>2020-01-19T10:35:19Z</time>
      </trkpt>
      <trkpt lat="40.7693120" lon="-8.1785140">
        <ele>341.4</ele>
        <time>2020-01-19T10:35:23Z</time>
      </trkpt>
      <trkpt lat="40.7691700" lon="-8.1785920">
        <ele>342.6</ele>
        <time>2020-01-19T10:35:31Z</time>
      </trkpt>
      <trkpt lat="40.7690430" lon="-8.1785860">
        <ele>343.6</ele>
        <time>2020-01-19T10:35:37Z</time>
      </trkpt>
      <trkpt lat="40.7688960" lon="-8.1785660">
        <ele>344.6</ele>
        <time>2020-01-19T10:35:44Z</time>
      </trkpt>
      <trkpt lat="40.7687060" lon="-8.1785330">
        <ele>345.6</ele>
        <time>2020-01-19T10:35:53Z</time>
      </trkpt>
      <trkpt lat="40.7686610" lon="-8.1785190">
        <ele>345.6</ele>
        <time>2020-01-19T10:35:55Z</time>
      </trkpt>
      <trkpt lat="40.7685720" lon="-8.1785010">
        <ele>346.0</ele>
        <time>2020-01-19T10:35:59Z</time>
      </trkpt>
      <trkpt lat="40.7683740" lon="-8.1784420">
        <ele>346.2</ele>
        <time>2020-01-19T10:36:08Z</time>
      </trkpt>
      <trkpt lat="40.7681970" lon="-8.1783960">
        <ele>346.8</ele>
        <time>2020-01-19T10:36:16Z</time>
      </trkpt>
      <trkpt lat="40.7680230" lon="-8.1783510">
        <ele>347.8</ele>
        <time>2020-01-19T10:36:24Z</time>
      </trkpt>
      <trkpt lat="40.7678430" lon="-8.1783630">
        <ele>348.6</ele>
        <time>2020-01-19T10:36:32Z</time>
      </trkpt>
      <trkpt lat="40.7678180" lon="-8.1783640">
        <ele>348.8</ele>
        <time>2020-01-19T10:36:33Z</time>
      </trkpt>
      <trkpt lat="40.7676250" lon="-8.1783910">
        <ele>349.6</ele>
        <time>2020-01-19T10:36:41Z</time>
      </trkpt>
      <trkpt lat="40.7675760" lon="-8.1783990">
        <ele>349.8</ele>
        <time>2020-01-19T10:36:43Z</time>
      </trkpt>
      <trkpt lat="40.7673750" lon="-8.1784180">
        <ele>350.4</ele>
        <time>2020-01-19T10:36:52Z</time>
      </trkpt>
      <trkpt lat="40.7672330" lon="-8.1783990">
        <ele>350.8</ele>
        <time>2020-01-19T10:36:58Z</time>
      </trkpt>
      <trkpt lat="40.7670760" lon="-8.1783510">
        <ele>352.0</ele>
        <time>2020-01-19T10:37:05Z</time>
      </trkpt>
      <trkpt lat="40.7669060" lon="-8.1782690">
        <ele>353.2</ele>
        <time>2020-01-19T10:37:13Z</time>
      </trkpt>
      <trkpt lat="40.7667340" lon="-8.1781840">
        <ele>354.2</ele>
        <time>2020-01-19T10:37:21Z</time>
      </trkpt>
      <trkpt lat="40.7665510" lon="-8.1781640">
        <ele>355.0</ele>
        <time>2020-01-19T10:37:28Z</time>
      </trkpt>
      <trkpt lat="40.7664770" lon="-8.1781760">
        <ele>355.4</ele>
        <time>2020-01-19T10:37:31Z</time>
      </trkpt>
      <trkpt lat="40.7664510" lon="-8.1781810">
        <ele>355.4</ele>
        <time>2020-01-19T10:37:32Z</time>
      </trkpt>
      <trkpt lat="40.7663770" lon="-8.1781990">
        <ele>355.4</ele>
        <time>2020-01-19T10:37:35Z</time>
      </trkpt>
      <trkpt lat="40.7661990" lon="-8.1782410">
        <ele>355.8</ele>
        <time>2020-01-19T10:37:42Z</time>
      </trkpt>
      <trkpt lat="40.7660180" lon="-8.1782850">
        <ele>355.8</ele>
        <time>2020-01-19T10:37:49Z</time>
      </trkpt>
      <trkpt lat="40.7658390" lon="-8.1783890">
        <ele>355.8</ele>
        <time>2020-01-19T10:37:56Z</time>
      </trkpt>
      <trkpt lat="40.7657480" lon="-8.1784750">
        <ele>355.8</ele>
        <time>2020-01-19T10:38:00Z</time>
      </trkpt>
      <trkpt lat="40.7656120" lon="-8.1786570">
        <ele>355.6</ele>
        <time>2020-01-19T10:38:07Z</time>
      </trkpt>
      <trkpt lat="40.7655400" lon="-8.1788920">
        <ele>355.8</ele>
        <time>2020-01-19T10:38:14Z</time>
      </trkpt>
      <trkpt lat="40.7654950" lon="-8.1791390">
        <ele>355.8</ele>
        <time>2020-01-19T10:38:21Z</time>
      </trkpt>
      <trkpt lat="40.7654600" lon="-8.1793940">
        <ele>355.6</ele>
        <time>2020-01-19T10:38:28Z</time>
      </trkpt>
      <trkpt lat="40.7654650" lon="-8.1796530">
        <ele>355.4</ele>
        <time>2020-01-19T10:38:35Z</time>
      </trkpt>
      <trkpt lat="40.7655080" lon="-8.1798950">
        <ele>355.8</ele>
        <time>2020-01-19T10:38:42Z</time>
      </trkpt>
      <trkpt lat="40.7655860" lon="-8.1801220">
        <ele>356.4</ele>
        <time>2020-01-19T10:38:49Z</time>
      </trkpt>
      <trkpt lat="40.7656840" lon="-8.1803270">
        <ele>357.4</ele>
        <time>2020-01-19T10:38:56Z</time>
      </trkpt>
      <trkpt lat="40.7656990" lon="-8.1803540">
        <ele>357.4</ele>
        <time>2020-01-19T10:38:57Z</time>
      </trkpt>
      <trkpt lat="40.7658210" lon="-8.1805720">
        <ele>358.0</ele>
        <time>2020-01-19T10:39:05Z</time>
      </trkpt>
      <trkpt lat="40.7658930" lon="-8.1807040">
        <ele>358.6</ele>
        <time>2020-01-19T10:39:10Z</time>
      </trkpt>
      <trkpt lat="40.7659900" lon="-8.1809120">
        <ele>359.4</ele>
        <time>2020-01-19T10:39:18Z</time>
      </trkpt>
      <trkpt lat="40.7660110" lon="-8.1809690">
        <ele>359.6</ele>
        <time>2020-01-19T10:39:20Z</time>
      </trkpt>
      <trkpt lat="40.7660740" lon="-8.1811950">
        <ele>360.4</ele>
        <time>2020-01-19T10:39:28Z</time>
      </trkpt>
      <trkpt lat="40.7661050" lon="-8.1813330">
        <ele>360.8</ele>
        <time>2020-01-19T10:39:33Z</time>
      </trkpt>
      <trkpt lat="40.7661310" lon="-8.1814730">
        <ele>361.2</ele>
        <time>2020-01-19T10:39:38Z</time>
      </trkpt>
      <trkpt lat="40.7661420" lon="-8.1815320">
        <ele>361.4</ele>
        <time>2020-01-19T10:39:40Z</time>
      </trkpt>
      <trkpt lat="40.7661590" lon="-8.1816260">
        <ele>362.0</ele>
        <time>2020-01-19T10:39:43Z</time>
      </trkpt>
      <trkpt lat="40.7661680" lon="-8.1816890">
        <ele>362.2</ele>
        <time>2020-01-19T10:39:45Z</time>
      </trkpt>
      <trkpt lat="40.7661770" lon="-8.1817800">
        <ele>362.6</ele>
        <time>2020-01-19T10:39:48Z</time>
      </trkpt>
      <trkpt lat="40.7661810" lon="-8.1818100">
        <ele>362.6</ele>
        <time>2020-01-19T10:39:49Z</time>
      </trkpt>
      <trkpt lat="40.7661910" lon="-8.1818680">
        <ele>362.8</ele>
        <time>2020-01-19T10:39:51Z</time>
      </trkpt>
      <trkpt lat="40.7661960" lon="-8.1818970">
        <ele>363.0</ele>
        <time>2020-01-19T10:39:52Z</time>
      </trkpt>
      <trkpt lat="40.7662150" lon="-8.1820450">
        <ele>364.0</ele>
        <time>2020-01-19T10:39:57Z</time>
      </trkpt>
      <trkpt lat="40.7662440" lon="-8.1821850">
        <ele>364.4</ele>
        <time>2020-01-19T10:40:02Z</time>
      </trkpt>
      <trkpt lat="40.7662890" lon="-8.1823270">
        <ele>365.4</ele>
        <time>2020-01-19T10:40:07Z</time>
      </trkpt>
      <trkpt lat="40.7663390" lon="-8.1824310">
        <ele>366.4</ele>
        <time>2020-01-19T10:40:11Z</time>
      </trkpt>
      <trkpt lat="40.7664100" lon="-8.1825510">
        <ele>367.6</ele>
        <time>2020-01-19T10:40:16Z</time>
      </trkpt>
      <trkpt lat="40.7664260" lon="-8.1825730">
        <ele>367.8</ele>
        <time>2020-01-19T10:40:17Z</time>
      </trkpt>
      <trkpt lat="40.7665360" lon="-8.1827200">
        <ele>368.4</ele>
        <time>2020-01-19T10:40:24Z</time>
      </trkpt>
      <trkpt lat="40.7665910" lon="-8.1828120">
        <ele>368.6</ele>
        <time>2020-01-19T10:40:28Z</time>
      </trkpt>
      <trkpt lat="40.7666590" lon="-8.1829470">
        <ele>369.0</ele>
        <time>2020-01-19T10:40:33Z</time>
      </trkpt>
      <trkpt lat="40.7667330" lon="-8.1831850">
        <ele>369.8</ele>
        <time>2020-01-19T10:40:41Z</time>
      </trkpt>
      <trkpt lat="40.7667590" lon="-8.1834480">
        <ele>370.4</ele>
        <time>2020-01-19T10:40:50Z</time>
      </trkpt>
      <trkpt lat="40.7667620" lon="-8.1835380">
        <ele>370.8</ele>
        <time>2020-01-19T10:40:53Z</time>
      </trkpt>
      <trkpt lat="40.7667730" lon="-8.1837790">
        <ele>371.8</ele>
        <time>2020-01-19T10:41:01Z</time>
      </trkpt>
      <trkpt lat="40.7667760" lon="-8.1838090">
        <ele>371.8</ele>
        <time>2020-01-19T10:41:02Z</time>
      </trkpt>
      <trkpt lat="40.7667940" lon="-8.1839590">
        <ele>373.0</ele>
        <time>2020-01-19T10:41:07Z</time>
      </trkpt>
      <trkpt lat="40.7668120" lon="-8.1841680">
        <ele>374.2</ele>
        <time>2020-01-19T10:41:14Z</time>
      </trkpt>
      <trkpt lat="40.7668270" lon="-8.1842830">
        <ele>374.4</ele>
        <time>2020-01-19T10:41:18Z</time>
      </trkpt>
      <trkpt lat="40.7668270" lon="-8.1844040">
        <ele>375.0</ele>
        <time>2020-01-19T10:41:22Z</time>
      </trkpt>
      <trkpt lat="40.7668250" lon="-8.1844360">
        <ele>375.2</ele>
        <time>2020-01-19T10:41:23Z</time>
      </trkpt>
      <trkpt lat="40.7668000" lon="-8.1845640">
        <ele>376.2</ele>
        <time>2020-01-19T10:41:27Z</time>
      </trkpt>
      <trkpt lat="40.7667430" lon="-8.1847180">
        <ele>376.6</ele>
        <time>2020-01-19T10:41:32Z</time>
      </trkpt>
      <trkpt lat="40.7666340" lon="-8.1849080">
        <ele>377.0</ele>
        <time>2020-01-19T10:41:39Z</time>
      </trkpt>
      <trkpt lat="40.7665440" lon="-8.1851140">
        <ele>377.4</ele>
        <time>2020-01-19T10:41:46Z</time>
      </trkpt>
      <trkpt lat="40.7665170" lon="-8.1852530">
        <ele>378.4</ele>
        <time>2020-01-19T10:41:50Z</time>
      </trkpt>
      <trkpt lat="40.7665070" lon="-8.1853540">
        <ele>378.8</ele>
        <time>2020-01-19T10:41:53Z</time>
      </trkpt>
    </trkseg>
  </trk>
</gpx>
